Provisional Data: Loyalsock Creek near Ringdale, PA


Please select a monitoring station.
Please select start date.
Please select start date.

Toggle Unit: C/F Toggle Unit: C/F
Sample Time Temperature (C) Temperature (F) Specific Conductivity (mS/cm) pH   Turbidity (NTU+) DO (mg/L)
4/13/2022 12:00:00 AM 9.16 48.488 0.024 6.61 2.31 11.22
4/13/2022 12:15:00 AM 9.08 48.344 0.024 6.62 2.14 11.23
4/13/2022 12:30:00 AM 9 48.2 0.025 6.61 2.2 11.25
4/13/2022 12:45:00 AM 8.92 48.056 0.024 6.61 2.26 11.28
4/13/2022 1:00:00 AM 8.83 47.894 0.024 6.61 2.22 11.3
4/13/2022 1:15:00 AM 8.75 47.75 0.025 6.6 2.45 11.32
4/13/2022 1:30:00 AM 8.67 47.606 0.024 6.59 2.62 11.34
4/13/2022 1:45:00 AM 8.58 47.444 0.024 6.59 2.24 11.37
4/13/2022 2:00:00 AM 8.5 47.3 0.025 6.58 2.28 11.39
4/13/2022 2:15:00 AM 8.42 47.156 0.024 6.58 2.22 11.42
4/13/2022 2:30:00 AM 8.34 47.012 0.025 6.58 2.18 11.44
4/13/2022 2:45:00 AM 8.26 46.868 0.024 6.58 2.17 11.46
4/13/2022 3:00:00 AM 8.19 46.742 0.024 6.57 2.21 11.49
4/13/2022 3:15:00 AM 8.13 46.634 0.024 6.57 2.18 11.5
4/13/2022 3:30:00 AM 8.08 46.544 0.024 6.57 2.27 11.52
4/13/2022 3:45:00 AM 8.02 46.436 0.024 6.57 2.17 11.53
4/13/2022 4:00:00 AM 7.96 46.328 0.025 6.56 2.27 11.55
4/13/2022 4:15:00 AM 7.91 46.238 0.025 6.56 2.26 11.57
4/13/2022 4:30:00 AM 7.88 46.184 0.024 6.56 2.22 11.59
4/13/2022 4:45:00 AM 7.85 46.13 0.024 6.56 2.42 11.6
4/13/2022 5:00:00 AM 7.82 46.076 0.025 6.56 2.65 11.61
4/13/2022 5:15:00 AM 7.8 46.04 0.025 6.55 2.05 11.61
4/13/2022 5:30:00 AM 7.77 45.986 0.025 6.55 2.19 11.63
4/13/2022 5:45:00 AM 7.75 45.95 0.024 6.56 2.31 11.64
4/13/2022 6:00:00 AM 7.74 45.932 0.024 6.56 2.25 11.65
4/13/2022 6:15:00 AM 7.72 45.896 0.024 6.56 2.44 11.65
4/13/2022 6:30:00 AM 7.71 45.878 0.024 6.56 2.16 11.66
4/13/2022 6:45:00 AM 7.7 45.86 0.025 6.56 2.32 11.66
4/13/2022 7:00:00 AM 7.69 45.842 0.025 6.56 2.18 11.67
4/13/2022 7:15:00 AM 7.69 45.842 0.025 6.57 1.97 11.68
4/13/2022 7:30:00 AM 7.69 45.842 0.025 6.57 2.22 11.7
4/13/2022 7:45:00 AM 7.7 45.86 0.024 6.57 2.19 11.72
4/13/2022 8:00:00 AM 7.73 45.914 0.024 6.59 2.1 11.75
4/13/2022 8:15:00 AM 7.79 46.022 0.024 6.59 2.13 11.77
4/13/2022 8:30:00 AM 7.84 46.112 0.025 6.6 2.08 11.78
4/13/2022 8:45:00 AM 7.92 46.256 0.025 6.61 2.14 11.79
4/13/2022 9:00:00 AM 8.02 46.436 0.025 6.62 2.31 11.79
4/13/2022 9:15:00 AM 8.14 46.652 0.025 6.63 2.12 11.78
4/13/2022 9:30:00 AM 8.28 46.904 0.025 6.65 2.04 11.76
4/13/2022 9:45:00 AM 8.46 47.228 0.025 6.67 2.22 11.75
4/13/2022 10:00:00 AM 8.65 47.57 0.024 6.68 2.21 11.72
4/13/2022 10:15:00 AM 8.83 47.894 0.025 6.7 2.08 11.69
4/13/2022 10:30:00 AM 9.03 48.254 0.024 6.71 2.11 11.66
4/13/2022 10:45:00 AM 9.23 48.614 0.025 6.72 2.17 11.62
4/13/2022 11:00:00 AM 9.44 48.992 0.024 6.76 2.23 11.59
4/13/2022 11:15:00 AM 9.6 49.28 0.025 6.77 2.27 11.55
4/13/2022 11:30:00 AM 9.69 49.442 0.024 6.79 2.11 11.51
4/13/2022 11:45:00 AM 9.73 49.514 0.024 6.8 2.22 11.49
4/13/2022 12:00:00 PM 9.82 49.676 0.024 6.79 2.08 11.46
4/13/2022 12:15:00 PM 9.98 49.964 0.024 6.8 2.07 11.43
4/13/2022 12:30:00 PM 10.22 50.396 0.024 6.81 2.19 11.39
4/13/2022 12:45:00 PM 10.42 50.756 0.025 6.82 2.15 11.35
4/13/2022 1:00:00 PM 10.63 51.134 0.025 6.85 1.99 11.31
4/13/2022 1:15:00 PM 10.84 51.512 0.025 6.87 2.15 11.28
4/13/2022 1:30:00 PM 11.02 51.836 0.025 6.88 2.06 11.23
4/13/2022 1:45:00 PM 11.14 52.052 0.024 6.89 2.13 11.19
4/13/2022 2:00:00 PM 11.22 52.196 0.025 6.88 2.18 11.15
4/13/2022 2:15:00 PM 11.3 52.34 0.024 6.89 2.05 11.13
4/13/2022 2:30:00 PM 11.32 52.376 0.024 6.89 2.01 11.09
4/13/2022 2:45:00 PM 11.33 52.394 0.025 6.88 2.04 11.06
4/13/2022 3:00:00 PM 11.29 52.322 0.024 6.88 2.13 11.03
4/13/2022 3:15:00 PM 11.24 52.232 0.024 6.87 2.19 11
4/13/2022 3:30:00 PM 11.22 52.196 0.024 6.88 2.47 11
4/13/2022 3:45:00 PM 11.23 52.214 0.025 6.87 2.29 10.98
4/13/2022 4:00:00 PM 11.28 52.304 0.024 6.88 2.15 10.99
4/13/2022 4:15:00 PM 11.32 52.376 0.024 6.87 2.1 10.98
4/13/2022 4:30:00 PM 11.35 52.43 0.024 6.88 2.15 10.96
4/13/2022 4:45:00 PM 11.39 52.502 0.025 6.88 2.1 10.94
4/13/2022 5:00:00 PM 11.44 52.592 0.024 6.89 2.13 10.93
4/13/2022 5:15:00 PM 11.48 52.664 0.024 6.89 2.07 10.92
4/13/2022 5:30:00 PM 11.5 52.7 0.025 6.89 2.29 10.89
4/13/2022 5:45:00 PM 11.5 52.7 0.024 6.88 2.14 10.87
4/13/2022 6:00:00 PM 11.49 52.682 0.025 6.88 2.15 10.85
4/13/2022 6:15:00 PM 11.48 52.664 0.025 6.87 2.1 10.84
4/13/2022 6:30:00 PM 11.47 52.646 0.025 6.88 2.03 10.82
4/13/2022 6:45:00 PM 11.46 52.628 0.026 6.87 2.02 10.79
4/13/2022 7:00:00 PM 11.45 52.61 0.026 6.88 2.3 10.77
4/13/2022 7:15:00 PM 11.43 52.574 0.026 6.87 2.07 10.74
4/13/2022 7:30:00 PM 11.41 52.538 0.025 6.87 2.33 10.72
4/13/2022 7:45:00 PM 11.39 52.502 0.025 6.86 2.16 10.68
4/13/2022 8:00:00 PM 11.37 52.466 0.025 6.85 2.23 10.66
4/13/2022 8:15:00 PM 11.36 52.448 0.025 6.84 2.38 10.64
4/13/2022 8:30:00 PM 11.34 52.412 0.025 6.84 2.76 10.63
4/13/2022 8:45:00 PM 11.31 52.358 0.025 6.83 2.29 10.62
4/13/2022 9:00:00 PM 11.29 52.322 0.025 6.82 2.1 10.62
4/13/2022 9:15:00 PM 11.26 52.268 0.025 6.82 2.19 10.61
4/13/2022 9:30:00 PM 11.23 52.214 0.025 6.81 2.25 10.62
4/13/2022 9:45:00 PM 11.2 52.16 0.025 6.81 2.35 10.61
4/13/2022 10:00:00 PM 11.18 52.124 0.025 6.81 2.29 10.62
4/13/2022 10:15:00 PM 11.16 52.088 0.025 6.82 2.44 10.62
4/13/2022 10:30:00 PM 11.14 52.052 0.025 6.82 2.62 10.63
4/13/2022 10:45:00 PM 11.12 52.016 0.025 6.81 2.34 10.63
4/13/2022 11:00:00 PM 11.09 51.962 0.025 6.81 2.34 10.64
4/13/2022 11:15:00 PM 11.06 51.908 0.025 6.8 2.25 10.64
4/13/2022 11:30:00 PM 11.03 51.854 0.025 6.8 2.48 10.64
4/13/2022 11:45:00 PM 11.01 51.818 0.025 6.81 2.34 10.64
4/14/2022 12:00:00 AM 10.99 51.782 0.025 6.81 2.52 10.65
4/14/2022 12:15:00 AM 10.97 51.746 0.025 6.8 2.84 10.65
4/14/2022 12:30:00 AM 10.95 51.71 0.025 6.81 3.07 10.64
4/14/2022 12:45:00 AM 10.92 51.656 0.025 6.81 2.36 10.66
4/14/2022 1:00:00 AM 10.89 51.602 0.025 6.8 2.59 10.66
4/14/2022 1:15:00 AM 10.86 51.548 0.025 6.8 2.42 10.67
4/14/2022 1:30:00 AM 10.82 51.476 0.025 6.79 2.61 10.67
4/14/2022 1:45:00 AM 10.8 51.44 0.025 6.8 2.49 10.67
4/14/2022 2:00:00 AM 10.78 51.404 0.025 6.79 2.2 10.69
4/14/2022 2:15:00 AM 10.76 51.368 0.025 6.8 2.37 10.68
4/14/2022 2:30:00 AM 10.75 51.35 0.025 6.79 2.33 10.7
4/14/2022 2:45:00 AM 10.73 51.314 0.025 6.8 2.25 10.71
4/14/2022 3:00:00 AM 10.71 51.278 0.025 6.79 2.61 10.71
4/14/2022 3:15:00 AM 10.69 51.242 0.025 6.79 2.48 10.72
4/14/2022 3:30:00 AM 10.68 51.224 0.025 6.8 2.36 10.72
4/14/2022 3:45:00 AM 10.66 51.188 0.025 6.79 2.25 10.72
4/14/2022 4:00:00 AM 10.64 51.152 0.025 6.79 2.32 10.73
4/14/2022 4:15:00 AM 10.62 51.116 0.025 6.78 2.19 10.72
4/14/2022 4:30:00 AM 10.58 51.044 0.025 6.78 2.32 10.73
4/14/2022 4:45:00 AM 10.54 50.972 0.025 6.78 2.26 10.74
4/14/2022 5:00:00 AM 10.49 50.882 0.025 6.77 2.39 10.74
4/14/2022 5:15:00 AM 10.45 50.81 0.025 6.77 2.28 10.76
4/14/2022 5:30:00 AM 10.41 50.738 0.026 6.77 2.42 10.76
4/14/2022 5:45:00 AM 10.37 50.666 0.025 6.77 2.39 10.77
4/14/2022 6:00:00 AM 10.32 50.576 0.025 6.77 2.38 10.78
4/14/2022 6:15:00 AM 10.28 50.504 0.025 6.76 2.33 10.79
4/14/2022 6:30:00 AM 10.23 50.414 0.025 6.76 2.42 10.81
4/14/2022 6:45:00 AM 10.18 50.324 0.025 6.75 2.33 10.82
4/14/2022 7:00:00 AM 10.15 50.27 0.025 6.76 2.4 10.85
4/14/2022 7:15:00 AM 10.12 50.216 0.025 6.76 2.22 10.87
4/14/2022 7:30:00 AM 10.11 50.198 0.026 6.76 2.27 10.9
4/14/2022 7:45:00 AM 10.1 50.18 0.025 6.75 2.27 10.94
4/14/2022 8:00:00 AM 10.11 50.198 0.026 6.77 3.06 10.96
4/14/2022 8:15:00 AM 10.15 50.27 0.026 6.77 2.25 10.98
4/14/2022 8:30:00 AM 10.2 50.36 0.026 6.79 2.23 11
4/14/2022 8:45:00 AM 10.3 50.54 0.025 6.81 2.4 11.02
4/14/2022 9:00:00 AM 10.4 50.72 0.026 6.82 2.24 11.02
4/14/2022 9:15:00 AM 10.54 50.972 0.025 6.84 2.08 11.03
4/14/2022 9:30:00 AM 10.68 51.224 0.025 6.87 2.22 11.02
4/14/2022 9:45:00 AM 10.84 51.512 0.025 6.88 2.18 11.01
4/14/2022 10:00:00 AM 11.01 51.818 0.026 6.91 2.35 10.99
4/14/2022 10:15:00 AM 11.18 52.124 0.026 6.93 2.26 10.97
4/14/2022 10:30:00 AM 11.3 52.34 0.025 6.96 2.37 10.95
4/14/2022 10:45:00 AM 11.39 52.502 0.025 6.97 2.15 10.94
4/14/2022 11:00:00 AM 11.52 52.736 0.025 6.98 2.26 10.92
4/14/2022 11:15:00 AM 11.72 53.096 0.025 6.99 2.21 10.89
4/14/2022 11:30:00 AM 11.97 53.546 0.025 7.02 1.97 10.87
4/14/2022 11:45:00 AM 12.15 53.87 0.025 7.05 2.12 10.83
4/14/2022 12:00:00 PM 12.21 53.978 0.025 7.07 2.39 10.8
4/14/2022 12:15:00 PM 12.17 53.906 0.025 7.08 2.31 10.75
4/14/2022 12:30:00 PM 12.1 53.78 0.025 7.07 2.26 10.74
4/14/2022 12:45:00 PM 12.05 53.69 0.024 7.07 2.73 10.73
4/14/2022 1:00:00 PM 11.94 53.492 0.024 7.06 3.13 10.71
4/14/2022 1:15:00 PM 11.92 53.456 0.024 7.03 3.26 10.7
4/14/2022 1:30:00 PM 11.94 53.492 0.024 7.02 3.46 10.7
4/14/2022 1:45:00 PM 12.01 53.618 0.024 7.01 4.24 10.71
4/14/2022 2:00:00 PM 12.06 53.708 0.024 7 5.83 10.71
4/14/2022 2:15:00 PM 12.08 53.744 0.025 6.99 8.61 10.69
4/14/2022 2:30:00 PM 12.07 53.726 0.025 7 10.07 10.68
4/14/2022 2:45:00 PM 12.04 53.672 0.025 6.98 9.04 10.66
4/14/2022 3:00:00 PM 12.01 53.618 0.025 6.98 7.51 10.65
4/14/2022 3:15:00 PM 11.96 53.528 0.025 6.98 5.91 10.65
4/14/2022 3:30:00 PM 11.92 53.456 0.025 6.98 4.88 10.66
4/14/2022 3:45:00 PM 11.9 53.42 0.025 6.98 4.07 10.68
4/14/2022 4:00:00 PM 11.87 53.366 0.025 6.98 3.54 10.69
4/14/2022 4:15:00 PM 11.84 53.312 0.025 6.98 3.35 10.69
4/14/2022 4:30:00 PM 11.8 53.24 0.025 6.97 3.08 10.7
4/14/2022 4:45:00 PM 11.77 53.186 0.025 6.97 2.82 10.7
4/14/2022 5:00:00 PM 11.76 53.168 0.025 6.99 2.87 10.72
4/14/2022 5:15:00 PM 11.73 53.114 0.025 6.96 2.8 10.71
4/14/2022 5:30:00 PM 11.74 53.132 0.025 6.98 2.77 10.72
4/14/2022 5:45:00 PM 11.72 53.096 0.025 6.99 3.07 10.72
4/14/2022 6:00:00 PM 11.7 53.06 0.025 6.99 2.95 10.72
4/14/2022 6:15:00 PM 11.65 52.97 0.025 7 2.48 10.7
4/14/2022 6:30:00 PM 11.61 52.898 0.025 7 2.35 10.7
4/14/2022 6:45:00 PM 11.56 52.808 0.025 6.99 2.61 10.68
4/14/2022 7:00:00 PM 11.51 52.718 0.025 6.99 2.5 10.67
4/14/2022 7:15:00 PM 11.46 52.628 0.025 6.98 2.45 10.67
4/14/2022 7:30:00 PM 11.4 52.52 0.025 6.97 2.49 10.68
4/14/2022 7:45:00 PM 11.33 52.394 0.025 6.96 2.55 10.67
4/14/2022 8:00:00 PM 11.25 52.25 0.025 6.94 2.49 10.66
4/14/2022 8:15:00 PM 11.15 52.07 0.025 6.93 2.6 10.66
4/14/2022 8:30:00 PM 11.06 51.908 0.026 6.92 2.62 10.65
4/14/2022 8:45:00 PM 10.98 51.764 0.025 6.92 2.72 10.67
4/14/2022 9:00:00 PM 10.89 51.602 0.026 6.91 2.74 10.69
4/14/2022 9:15:00 PM 10.8 51.44 0.026 6.89 3.18 10.7
4/14/2022 9:30:00 PM 10.71 51.278 0.025 6.89 3.05 10.72
4/14/2022 9:45:00 PM 10.62 51.116 0.026 6.87 3.43 10.74
4/14/2022 10:00:00 PM 10.53 50.954 0.026 6.86 3.15 10.76
4/14/2022 10:15:00 PM 10.43 50.774 0.025 6.86 3.17 10.79
4/14/2022 10:30:00 PM 10.34 50.612 0.026 6.85 3.33 10.82
4/14/2022 10:45:00 PM 10.25 50.45 0.026 6.85 2.89 10.84
4/14/2022 11:00:00 PM 10.16 50.288 0.026 6.84 3.01 10.84
4/14/2022 11:15:00 PM 10.05 50.09 0.025 6.85 2.54 10.89
4/14/2022 11:30:00 PM 9.96 49.928 0.026 6.83 2.64 10.92
4/14/2022 11:45:00 PM 9.86 49.748 0.026 6.79 2.65 10.94
4/15/2022 12:00:00 AM 9.76 49.568 0.026 6.8 2.57 10.97
4/15/2022 12:15:00 AM 9.67 49.406 0.026 6.79 2.64 10.99
4/15/2022 12:30:00 AM 9.57 49.226 0.026 6.78 2.74 11.02
4/15/2022 12:45:00 AM 9.47 49.046 0.026 6.78 2.59 11.05
4/15/2022 1:00:00 AM 9.38 48.884 0.026 6.77 2.35 11.07
4/15/2022 1:15:00 AM 9.29 48.722 0.026 6.76 2.57 11.1
4/15/2022 1:30:00 AM 9.2 48.56 0.026 6.73 2.53 11.12
4/15/2022 1:45:00 AM 9.13 48.434 0.026 6.7 2.56 11.13
4/15/2022 2:00:00 AM 9.03 48.254 0.026 6.7 2.54 11.17
4/15/2022 2:15:00 AM 8.95 48.11 0.026 6.64 2.52 11.19
4/15/2022 2:30:00 AM 8.87 47.966 0.026 6.64 2.54 11.22
4/15/2022 2:45:00 AM 8.79 47.822 0.026 6.6 2.74 11.24
4/15/2022 3:00:00 AM 8.7 47.66 0.026 6.6 2.57 11.26
4/15/2022 3:15:00 AM 8.63 47.534 0.026 6.59 2.25 11.28
4/15/2022 3:30:00 AM 8.55 47.39 0.026 6.57 2.44 11.31
4/15/2022 3:45:00 AM 8.47 47.246 0.026 6.58 2.27 11.33
4/15/2022 4:00:00 AM 8.39 47.102 0.026 6.57 2.2 11.35
4/15/2022 4:15:00 AM 8.32 46.976 0.026 6.57 2.43 11.37
4/15/2022 4:30:00 AM 8.25 46.85 0.027 6.56 2.58 11.37
4/15/2022 4:45:00 AM 8.17 46.706 0.026 6.59 2.63 11.42
4/15/2022 5:00:00 AM 8.09 46.562 0.026 6.63 2.4 11.46
4/15/2022 5:15:00 AM 8.01 46.418 0.026 6.63 2.4 11.47
4/15/2022 5:30:00 AM 7.93 46.274 0.026 6.71 2.46 11.5
4/15/2022 5:45:00 AM 7.86 46.148 0.026 6.75 2.47 11.52
4/15/2022 6:00:00 AM 7.78 46.004 0.026 6.74 2.36 11.54
4/15/2022 6:15:00 AM 7.7 45.86 0.026 6.75 2.47 11.57
4/15/2022 6:30:00 AM 7.63 45.734 0.026 6.74 2.47 11.59
4/15/2022 6:45:00 AM 7.56 45.608 0.026 6.74 2.41 11.62
4/15/2022 7:00:00 AM 7.49 45.482 0.026 6.75 2.4 11.65
4/15/2022 7:15:00 AM 7.43 45.374 0.026 6.75 2.34 11.7
4/15/2022 7:30:00 AM 7.39 45.302 0.026 6.76 2.47 11.75
4/15/2022 7:45:00 AM 7.35 45.23 0.026 6.76 2.55 11.79
4/15/2022 8:00:00 AM 7.34 45.212 0.026 6.77 2.2 11.82
4/15/2022 8:15:00 AM 7.33 45.194 0.026 6.78 2.33 11.86
4/15/2022 8:30:00 AM 7.35 45.23 0.027 6.78 2.21 11.88
4/15/2022 8:45:00 AM 7.4 45.32 0.026 6.79 2.34 11.91
4/15/2022 9:00:00 AM 7.48 45.464 0.026 6.8 2.58 11.93
4/15/2022 9:15:00 AM 7.57 45.626 0.026 6.81 2.25 11.93
4/15/2022 9:30:00 AM 7.68 45.824 0.026 6.82 2.36 11.93
4/15/2022 9:45:00 AM 7.81 46.058 0.026 6.84 2.5 11.92
4/15/2022 10:00:00 AM 7.96 46.328 0.026 6.85 2.36 11.91
4/15/2022 10:15:00 AM 8.11 46.598 0.026 6.86 2.37 11.88
4/15/2022 10:30:00 AM 8.28 46.904 0.026 6.88 2.25 11.86
4/15/2022 10:45:00 AM 8.44 47.192 0.026 6.89 2.5 11.83
4/15/2022 11:00:00 AM 8.64 47.552 0.026 6.91 2.43 11.8
4/15/2022 11:15:00 AM 8.83 47.894 0.026 6.92 2.28 11.76
4/15/2022 11:30:00 AM 9.02 48.236 0.026 6.93 2.33 11.72
4/15/2022 11:45:00 AM 9.25 48.65 0.026 6.95 2.43 11.69
4/15/2022 12:00:00 PM 9.45 49.01 0.026 6.95 2.38 11.63
4/15/2022 12:15:00 PM 9.68 49.424 0.026 6.96 2.45 11.59
4/15/2022 12:30:00 PM 9.9 49.82 0.026 6.96 2.26 11.53
4/15/2022 12:45:00 PM 10.14 50.252 0.026 6.99 2.17 11.48
4/15/2022 1:00:00 PM 10.38 50.684 0.026 7.01 2.3 11.43
4/15/2022 1:15:00 PM 10.59 51.062 0.026 7.02 2.31 11.37
4/15/2022 1:30:00 PM 10.77 51.386 0.027 7.03 2.34 11.31
4/15/2022 1:45:00 PM 10.99 51.782 0.026 7.05 2.31 11.27
4/15/2022 2:00:00 PM 11.18 52.124 0.026 7.05 2.18 11.22
4/15/2022 2:15:00 PM 11.34 52.412 0.026 7.06 2.3 11.16
4/15/2022 2:30:00 PM 11.5 52.7 0.026 7.08 2.17 11.13
4/15/2022 2:45:00 PM 11.64 52.952 0.026 7.09 2.36 11.09
4/15/2022 3:00:00 PM 11.7 53.06 0.027 7.09 2.27 11.04
4/15/2022 3:15:00 PM 11.77 53.186 0.026 7.1 2.39 11.02
4/15/2022 3:30:00 PM 11.82 53.276 0.026 7.1 2.38 11
4/15/2022 3:45:00 PM 11.85 53.33 0.026 7.1 2.38 10.97
4/15/2022 4:00:00 PM 11.88 53.384 0.026 7.1 2.68 10.94
4/15/2022 4:15:00 PM 11.87 53.366 0.026 7.1 2.39 10.94
4/15/2022 4:30:00 PM 11.83 53.294 0.026 7.12 2.54 10.94
4/15/2022 4:45:00 PM 11.81 53.258 0.026 7.1 2.51 10.93
4/15/2022 5:00:00 PM 11.76 53.168 0.026 7.1 2.4 10.92
4/15/2022 5:15:00 PM 11.66 52.988 0.026 7.09 2.52 10.91
4/15/2022 5:30:00 PM 11.55 52.79 0.026 7.08 2.29 10.9
4/15/2022 5:45:00 PM 11.43 52.574 0.026 7.07 2.33 10.92
4/15/2022 6:00:00 PM 11.35 52.43 0.026 7.06 2.39 10.91
4/15/2022 6:15:00 PM 11.24 52.232 0.026 7.05 2.36 10.92
4/15/2022 6:30:00 PM 11.12 52.016 0.026 7.04 2.78 10.92
4/15/2022 6:45:00 PM 11.01 51.818 0.026 7.04 2.33 10.93
4/15/2022 7:00:00 PM 10.9 51.62 0.026 7.01 2.18 10.91
4/15/2022 7:15:00 PM 10.77 51.386 0.026 7 2.41 10.89
4/15/2022 7:30:00 PM 10.67 51.206 0.026 6.99 2.34 10.88
4/15/2022 7:45:00 PM 10.58 51.044 0.026 6.97 2.68 10.87
4/15/2022 8:00:00 PM 10.51 50.918 0.026 6.97 2.41 10.86
4/15/2022 8:15:00 PM 10.44 50.792 0.026 6.96 2.46 10.86
4/15/2022 8:30:00 PM 10.37 50.666 0.026 6.95 2.55 10.85
4/15/2022 8:45:00 PM 10.3 50.54 0.027 6.94 2.52 10.85
4/15/2022 9:00:00 PM 10.23 50.414 0.027 6.93 2.73 10.85
4/15/2022 9:15:00 PM 10.16 50.288 0.026 6.93 2.5 10.87
4/15/2022 9:30:00 PM 10.11 50.198 0.027 6.93 2.64 10.88
4/15/2022 9:45:00 PM 10.06 50.108 0.026 6.92 2.73 10.89
4/15/2022 10:00:00 PM 10.02 50.036 0.027 6.92 2.76 10.89
4/15/2022 10:15:00 PM 9.98 49.964 0.027 6.91 2.73 10.9
4/15/2022 10:30:00 PM 9.95 49.91 0.027 6.91 2.74 10.9
4/15/2022 10:45:00 PM 9.91 49.838 0.027 6.91 2.45 10.91
4/15/2022 11:00:00 PM 9.87 49.766 0.027 6.89 2.52 10.91
4/15/2022 11:15:00 PM 9.85 49.73 0.027 6.9 2.76 10.92
4/15/2022 11:30:00 PM 9.84 49.712 0.027 6.9 2.49 10.93
4/15/2022 11:45:00 PM 9.83 49.694 0.026 6.9 3.07 10.94
4/16/2022 12:00:00 AM 9.82 49.676 0.027 6.9 2.77 10.94
4/16/2022 12:15:00 AM 9.8 49.64 0.027 6.9 2.55 10.94
4/16/2022 12:30:00 AM 9.77 49.586 0.027 6.9 2.82 10.95
4/16/2022 12:45:00 AM 9.73 49.514 0.027 6.9 2.63 10.96
4/16/2022 1:00:00 AM 9.69 49.442 0.027 6.9 2.68 10.96
4/16/2022 1:15:00 AM 9.65 49.37 0.027 6.9 2.63 10.96
4/16/2022 1:30:00 AM 9.62 49.316 0.027 6.9 2.62 10.97
4/16/2022 1:45:00 AM 9.6 49.28 0.027 6.9 2.75 10.98
4/16/2022 2:00:00 AM 9.57 49.226 0.027 6.89 2.76 10.98
4/16/2022 2:15:00 AM 9.54 49.172 0.027 6.89 2.74 10.99
4/16/2022 2:30:00 AM 9.52 49.136 0.027 6.9 2.56 11.01
4/16/2022 2:45:00 AM 9.49 49.082 0.027 6.89 2.53 11.01
4/16/2022 3:00:00 AM 9.47 49.046 0.027 6.9 2.3 11.02
4/16/2022 3:15:00 AM 9.45 49.01 0.027 6.9 2.51 11.03
4/16/2022 3:30:00 AM 9.42 48.956 0.027 6.9 2.26 11.03
4/16/2022 3:45:00 AM 9.4 48.92 0.027 6.9 2.42 11.04
4/16/2022 4:00:00 AM 9.38 48.884 0.027 6.9 2.34 11.05
4/16/2022 4:15:00 AM 9.36 48.848 0.027 6.9 2.44 11.06
4/16/2022 4:30:00 AM 9.33 48.794 0.027 6.89 2.87 11.07
4/16/2022 4:45:00 AM 9.31 48.758 0.027 6.9 2.45 11.08
4/16/2022 5:00:00 AM 9.28 48.704 0.027 6.9 2.69 11.08
4/16/2022 5:15:00 AM 9.26 48.668 0.027 6.9 2.49 11.09
4/16/2022 5:30:00 AM 9.24 48.632 0.027 6.9 2.33 11.11
4/16/2022 5:45:00 AM 9.22 48.596 0.027 6.89 2.52 11.11
4/16/2022 6:00:00 AM 9.19 48.542 0.027 6.88 2.48 11.1
4/16/2022 6:15:00 AM 9.17 48.506 0.027 6.88 2.51 11.13
4/16/2022 6:30:00 AM 9.14 48.452 0.027 6.88 2.15 11.14
4/16/2022 6:45:00 AM 9.11 48.398 0.027 6.87 2.52 11.16
4/16/2022 7:00:00 AM 9.08 48.344 0.027 6.86 2.37 11.16
4/16/2022 7:15:00 AM 9.05 48.29 0.027 6.85 2.58 11.17
4/16/2022 7:30:00 AM 9.02 48.236 0.027 6.85 2.43 11.19
4/16/2022 7:45:00 AM 8.99 48.182 0.027 6.86 2.48 11.21
4/16/2022 8:00:00 AM 8.97 48.146 0.027 6.86 2.28 11.23
4/16/2022 8:15:00 AM 8.96 48.128 0.027 6.87 2.34 11.27
4/16/2022 8:30:00 AM 8.96 48.128 0.027 6.88 2.37 11.3
4/16/2022 8:45:00 AM 8.99 48.182 0.027 6.89 2.17 11.34
4/16/2022 9:00:00 AM 9.02 48.236 0.027 6.89 2.23 11.36
4/16/2022 9:15:00 AM 9.04 48.272 0.027 6.91 2.39 11.37
4/16/2022 9:30:00 AM 9.06 48.308 0.027 6.92 2.04 11.39
4/16/2022 9:45:00 AM 9.09 48.362 0.027 6.92 2.27 11.4
4/16/2022 10:00:00 AM 9.12 48.416 0.027 6.94 2.31 11.41
4/16/2022 10:15:00 AM 9.14 48.452 0.027 6.94 2.35 11.42
4/16/2022 10:30:00 AM 9.19 48.542 0.027 6.95 2.33 11.44
4/16/2022 10:45:00 AM 9.23 48.614 0.027 6.96 2.19 11.43
4/16/2022 11:00:00 AM 9.28 48.704 0.027 6.96 2.33 11.42
4/16/2022 11:15:00 AM 9.31 48.758 0.027 6.97 2.29 11.42
4/16/2022 11:30:00 AM 9.32 48.776 0.027 6.97 2.27 11.4
4/16/2022 11:45:00 AM 9.34 48.812 0.027 6.97 2.33 11.41
4/16/2022 12:00:00 PM 9.35 48.83 0.027 6.97 2.35 11.38
4/16/2022 12:15:00 PM 9.39 48.902 0.027 6.98 2.2 11.4
4/16/2022 12:30:00 PM 9.39 48.902 0.027 6.97 2.22 11.36
4/16/2022 12:45:00 PM 9.39 48.902 0.027 6.98 2.5 11.34
4/16/2022 1:00:00 PM 9.39 48.902 0.027 6.98 2.31 11.34
4/16/2022 1:15:00 PM 9.4 48.92 0.027 6.97 2.3 11.34
4/16/2022 1:30:00 PM 9.41 48.938 0.027 6.97 2.34 11.33
4/16/2022 1:45:00 PM 9.45 49.01 0.026 6.98 2.32 11.35
4/16/2022 2:00:00 PM 9.46 49.028 0.027 6.98 2.3 11.32
4/16/2022 2:15:00 PM 9.43 48.974 0.027 6.97 2.34 11.3
4/16/2022 2:30:00 PM 9.37 48.866 0.027 6.98 2.52 11.31
4/16/2022 2:45:00 PM 9.29 48.722 0.027 6.97 3.17 11.3
4/16/2022 3:00:00 PM 9.21 48.578 0.028 6.98 3.97 11.3
4/16/2022 3:15:00 PM 9.14 48.452 0.028 6.97 3.89 11.29
4/16/2022 3:30:00 PM 9.09 48.362 0.028 6.96 3.93 11.31
4/16/2022 3:45:00 PM 9.05 48.29 0.028 6.96 3.4 11.32
4/16/2022 4:00:00 PM 9.02 48.236 0.027 6.96 3.04 11.35
4/16/2022 4:15:00 PM 9.01 48.218 0.027 6.95 2.99 11.38
4/16/2022 4:30:00 PM 8.99 48.182 0.027 6.96 2.75 11.39
4/16/2022 4:45:00 PM 8.96 48.128 0.027 6.96 2.78 11.39
4/16/2022 5:00:00 PM 8.92 48.056 0.027 6.95 2.93 11.39
4/16/2022 5:15:00 PM 8.88 47.984 0.027 6.96 3.06 11.38
4/16/2022 5:30:00 PM 8.84 47.912 0.027 6.95 3.16 11.37
4/16/2022 5:45:00 PM 8.8 47.84 0.027 6.96 2.94 11.38
4/16/2022 6:00:00 PM 8.76 47.768 0.028 6.95 3.39 11.37
4/16/2022 6:15:00 PM 8.71 47.678 0.027 6.95 3.1 11.39
4/16/2022 6:30:00 PM 8.65 47.57 0.027 6.94 3.08 11.4
4/16/2022 6:45:00 PM 8.6 47.48 0.028 6.94 2.83 11.42
4/16/2022 7:00:00 PM 8.56 47.408 0.029 6.93 2.9 11.41
4/16/2022 7:15:00 PM 8.51 47.318 0.029 6.93 3.07 11.41
4/16/2022 7:30:00 PM 8.47 47.246 0.028 6.93 2.9 11.4
4/16/2022 7:45:00 PM 8.42 47.156 0.028 6.92 3.27 11.4
4/16/2022 8:00:00 PM 8.38 47.084 0.028 6.91 3.47 11.39
4/16/2022 8:15:00 PM 8.34 47.012 0.027 6.91 3.27 11.4
4/16/2022 8:30:00 PM 8.3 46.94 0.027 6.9 3.43 11.4
4/16/2022 8:45:00 PM 8.26 46.868 0.027 6.9 3.51 11.41
4/16/2022 9:00:00 PM 8.22 46.796 0.027 6.9 3.36 11.42
4/16/2022 9:15:00 PM 8.16 46.688 0.027 6.9 3.47 11.42
4/16/2022 9:30:00 PM 8.11 46.598 0.027 6.89 3.38 11.44
4/16/2022 9:45:00 PM 8.05 46.49 0.027 6.88 3.53 11.45
4/16/2022 10:00:00 PM 8 46.4 0.027 6.87 3.9 11.47
4/16/2022 10:15:00 PM 7.95 46.31 0.027 6.87 3.67 11.48
4/16/2022 10:30:00 PM 7.9 46.22 0.027 6.87 3.26 11.5
4/16/2022 10:45:00 PM 7.84 46.112 0.027 6.86 3.37 11.51
4/16/2022 11:00:00 PM 7.79 46.022 0.027 6.86 3.54 11.53
4/16/2022 11:15:00 PM 7.73 45.914 0.027 6.86 3.47 11.56
4/16/2022 11:30:00 PM 7.68 45.824 0.027 6.85 3.38 11.57
4/16/2022 11:45:00 PM 7.62 45.716 0.027 6.85 3.32 11.59
4/17/2022 12:00:00 AM 7.57 45.626 0.027 6.85 3.24 11.6
4/17/2022 12:15:00 AM 7.51 45.518 0.026 6.84 3.21 11.62
4/17/2022 12:30:00 AM 7.47 45.446 0.027 6.83 2.98 11.63
4/17/2022 12:45:00 AM 7.44 45.392 0.027 6.83 2.73 11.65
4/17/2022 1:00:00 AM 7.4 45.32 0.027 6.83 2.96 11.66
4/17/2022 1:15:00 AM 7.35 45.23 0.027 6.83 2.86 11.67
4/17/2022 1:30:00 AM 7.3 45.14 0.027 6.83 2.95 11.69
4/17/2022 1:45:00 AM 7.26 45.068 0.027 6.83 2.83 11.71
4/17/2022 2:00:00 AM 7.2 44.96 0.027 6.84 2.59 11.72
4/17/2022 2:15:00 AM 7.14 44.852 0.026 6.82 2.99 11.74
4/17/2022 2:30:00 AM 7.08 44.744 0.027 6.82 3.09 11.75
4/17/2022 2:45:00 AM 7.03 44.654 0.027 6.82 3.24 11.77
4/17/2022 3:00:00 AM 6.96 44.528 0.027 6.81 2.92 11.79
4/17/2022 3:15:00 AM 6.9 44.42 0.027 6.81 3.28 11.81
4/17/2022 3:30:00 AM 6.84 44.312 0.027 6.81 3.4 11.82
4/17/2022 3:45:00 AM 6.77 44.186 0.027 6.8 3.45 11.84
4/17/2022 4:00:00 AM 6.71 44.078 0.027 6.8 3.5 11.86
4/17/2022 4:15:00 AM 6.66 43.988 0.027 6.79 3.75 11.87
4/17/2022 4:30:00 AM 6.61 43.898 0.027 6.79 3.62 11.9
4/17/2022 4:45:00 AM 6.57 43.826 0.027 6.79 3.25 11.92
4/17/2022 5:00:00 AM 6.54 43.772 0.027 6.79 3.44 11.93
4/17/2022 5:15:00 AM 6.5 43.7 0.027 6.78 3.36 11.94
4/17/2022 5:30:00 AM 6.47 43.646 0.027 6.78 3.29 11.96
4/17/2022 5:45:00 AM 6.42 43.556 0.027 6.78 3.2 11.97
4/17/2022 6:00:00 AM 6.37 43.466 0.027 6.78 3.34 11.99
4/17/2022 6:15:00 AM 6.31 43.358 0.027 6.78 3.32 12.01
4/17/2022 6:30:00 AM 6.26 43.268 0.026 6.77 3.34 12.03
4/17/2022 6:45:00 AM 6.22 43.196 0.027 6.77 3.16 12.05
4/17/2022 7:00:00 AM 6.18 43.124 0.027 6.78 3.16 12.08
4/17/2022 7:15:00 AM 6.14 43.052 0.027 6.77 3.1 12.1
4/17/2022 7:30:00 AM 6.1 42.98 0.026 6.78 3.01 12.14
4/17/2022 7:45:00 AM 6.06 42.908 0.027 6.77 2.96 12.17
4/17/2022 8:00:00 AM 6.04 42.872 0.027 6.78 2.83 12.21
4/17/2022 8:15:00 AM 6.04 42.872 0.027 6.78 3.03 12.24
4/17/2022 8:30:00 AM 6.04 42.872 0.026 6.78 2.72 12.27
4/17/2022 8:45:00 AM 6.03 42.854 0.026 6.79 2.96 12.3
4/17/2022 9:00:00 AM 6.03 42.854 0.026 6.8 2.61 12.31
4/17/2022 9:15:00 AM 6 42.8 0.026 6.8 2.91 12.34
4/17/2022 9:30:00 AM 5.98 42.764 0.026 6.8 2.58 12.34
4/17/2022 9:45:00 AM 5.93 42.674 0.026 6.8 2.73 12.35
4/17/2022 10:00:00 AM 5.9 42.62 0.026 6.8 2.6 12.38
4/17/2022 10:15:00 AM 5.91 42.638 0.026 6.8 2.61 12.4
4/17/2022 10:30:00 AM 5.93 42.674 0.026 6.8 2.73 12.41
4/17/2022 10:45:00 AM 5.97 42.746 0.026 6.81 2.45 12.43
4/17/2022 11:00:00 AM 6.04 42.872 0.026 6.81 2.56 12.44
4/17/2022 11:15:00 AM 6.14 43.052 0.026 6.82 2.43 12.44
4/17/2022 11:30:00 AM 6.25 43.25 0.027 6.83 2.36 12.43
4/17/2022 11:45:00 AM 6.42 43.556 0.026 6.84 2.45 12.43
4/17/2022 12:00:00 PM 6.46 43.628 0.026 6.84 2.29 12.39
4/17/2022 12:15:00 PM 6.54 43.772 0.026 6.85 2.48 12.39
4/17/2022 12:30:00 PM 6.55 43.79 0.026 6.85 2.49 12.37
4/17/2022 12:45:00 PM 6.58 43.844 0.026 6.85 2.34 12.37
4/17/2022 1:00:00 PM 6.59 43.862 0.026 6.82 2.31 12.36
4/17/2022 1:15:00 PM 6.64 43.952 0.026 6.84 2.46 12.37
4/17/2022 1:30:00 PM 6.76 44.168 0.026 6.86 2.47 12.35
4/17/2022 1:45:00 PM 6.94 44.492 0.026 6.86 3.35 12.33
4/17/2022 2:00:00 PM 7.21 44.978 0.026 6.85 2.38 12.3
4/17/2022 2:15:00 PM 7.44 45.392 0.026 6.87 2.34 12.25
4/17/2022 2:30:00 PM 7.61 45.698 0.026 6.9 2.22 12.21
4/17/2022 2:45:00 PM 7.74 45.932 0.026 6.91 2.44 12.18
4/17/2022 3:00:00 PM 7.83 46.094 0.026 6.92 2.31 12.14
4/17/2022 3:15:00 PM 7.97 46.346 0.026 6.92 2.36 12.1
4/17/2022 3:30:00 PM 8.17 46.706 0.026 6.92 2.26 12.06
4/17/2022 3:45:00 PM 8.33 46.994 0.026 6.94 2.24 12
4/17/2022 4:00:00 PM 8.37 47.066 0.026 6.91 2.24 11.98
4/17/2022 4:15:00 PM 8.33 46.994 0.025 6.92 2.35 11.96
4/17/2022 4:30:00 PM 8.29 46.922 0.026 6.9 2.21 11.95
4/17/2022 4:45:00 PM 8.18 46.724 0.026 6.89 2.24 11.95
4/17/2022 5:00:00 PM 8.05 46.49 0.026 6.89 2.21 11.96
4/17/2022 5:15:00 PM 7.98 46.364 0.026 6.92 2.24 11.97
4/17/2022 5:30:00 PM 7.83 46.094 0.026 6.9 2.29 11.98
4/17/2022 5:45:00 PM 7.77 45.986 0.025 6.9 2.13 11.99
4/17/2022 6:00:00 PM 7.66 45.788 0.026 6.89 2.18 11.99
4/17/2022 6:15:00 PM 7.52 45.536 0.026 6.88 2.22 12.01
4/17/2022 6:30:00 PM 7.42 45.356 0.026 6.87 2.1 12.02
4/17/2022 6:45:00 PM 7.3 45.14 0.026 6.86 2.2 12.04
4/17/2022 7:00:00 PM 7.18 44.924 0.026 6.86 2.18 12.05
4/17/2022 7:15:00 PM 7.05 44.69 0.026 6.84 2.2 12.05
4/17/2022 7:30:00 PM 6.91 44.438 0.026 6.83 2.25 12.06
4/17/2022 7:45:00 PM 6.8 44.24 0.026 6.82 2.09 12.06
4/17/2022 8:00:00 PM 6.71 44.078 0.026 6.81 2.28 12.06
4/17/2022 8:15:00 PM 6.61 43.898 0.026 6.8 2.12 12.07
4/17/2022 8:30:00 PM 6.54 43.772 0.026 6.79 2.22 12.07
4/17/2022 8:45:00 PM 6.47 43.646 0.026 6.78 2.23 12.08
4/17/2022 9:00:00 PM 6.4 43.52 0.026 6.77 2.18 12.09
4/17/2022 9:15:00 PM 6.33 43.394 0.026 6.77 2.23 12.1
4/17/2022 9:30:00 PM 6.26 43.268 0.026 6.76 2.48 12.12
4/17/2022 9:45:00 PM 6.19 43.142 0.026 6.76 2.23 12.14
4/17/2022 10:00:00 PM 6.14 43.052 0.026 6.75 2.18 12.15
4/17/2022 10:15:00 PM 6.08 42.944 0.026 6.75 2.23 12.15
4/17/2022 10:30:00 PM 6.02 42.836 0.026 6.75 2.26 12.18
4/17/2022 10:45:00 PM 5.96 42.728 0.026 6.74 2.26 12.2
4/17/2022 11:00:00 PM 5.91 42.638 0.026 6.75 2.45 12.19
4/17/2022 11:15:00 PM 5.85 42.53 0.026 6.74 2.19 12.23
4/17/2022 11:30:00 PM 5.8 42.44 0.026 6.74 2.14 12.24
4/17/2022 11:45:00 PM 5.74 42.332 0.026 6.74 2.2 12.26
4/18/2022 12:00:00 AM 5.69 42.242 0.026 6.74 2.26 12.28
4/18/2022 12:15:00 AM 5.63 42.134 0.026 6.74 2.05 12.3
4/18/2022 12:30:00 AM 5.58 42.044 0.026 6.73 2.06 12.3
4/18/2022 12:45:00 AM 5.52 41.936 0.026 6.73 1.98 12.33
4/18/2022 1:00:00 AM 5.45 41.81 0.026 6.73 2.33 12.36
4/18/2022 1:15:00 AM 5.39 41.702 0.026 6.72 2.02 12.37
4/18/2022 1:30:00 AM 5.33 41.594 0.026 6.72 2.07 12.39
4/18/2022 1:45:00 AM 5.27 41.486 0.026 6.72 2.24 12.41
4/18/2022 2:00:00 AM 5.2 41.36 0.026 6.72 2.13 12.43
4/18/2022 2:15:00 AM 5.14 41.252 0.026 6.72 1.99 12.46
4/18/2022 2:30:00 AM 5.07 41.126 0.026 6.71 2.08 12.48
4/18/2022 2:45:00 AM 5 41 0.026 6.71 1.99 12.51
4/18/2022 3:00:00 AM 4.93 40.874 0.026 6.71 2.04 12.53
4/18/2022 3:15:00 AM 4.87 40.766 0.026 6.71 1.98 12.55
4/18/2022 3:30:00 AM 4.8 40.64 0.026 6.71 2.04 12.58
4/18/2022 3:45:00 AM 4.72 40.496 0.026 6.7 2.11 12.6
4/18/2022 4:00:00 AM 4.66 40.388 0.026 6.71 2.09 12.62
4/18/2022 4:15:00 AM 4.58 40.244 0.026 6.7 2.08 12.65
4/18/2022 4:30:00 AM 4.51 40.118 0.026 6.71 2.03 12.67
4/18/2022 4:45:00 AM 4.45 40.01 0.026 6.7 2.13 12.69
4/18/2022 5:00:00 AM 4.38 39.884 0.026 6.7 1.98 12.71
4/18/2022 5:15:00 AM 4.31 39.758 0.026 6.71 2.05 12.74
4/18/2022 5:30:00 AM 4.24 39.632 0.026 6.71 2.15 12.77
4/18/2022 5:45:00 AM 4.17 39.506 0.026 6.71 1.98 12.79
4/18/2022 6:00:00 AM 4.1 39.38 0.026 6.72 2.04 12.81
4/18/2022 6:15:00 AM 4.03 39.254 0.026 6.71 2.01 12.83
4/18/2022 6:30:00 AM 3.96 39.128 0.026 6.7 2 12.87
4/18/2022 6:45:00 AM 3.9 39.02 0.026 6.7 2.07 12.9
4/18/2022 7:00:00 AM 3.83 38.894 0.026 6.7 2 12.93
4/18/2022 7:15:00 AM 3.8 38.84 0.026 6.71 1.97 12.96
4/18/2022 7:30:00 AM 3.78 38.804 0.026 6.73 1.98 13.01
4/18/2022 7:45:00 AM 3.78 38.804 0.026 6.73 1.88 13.05
4/18/2022 8:00:00 AM 3.79 38.822 0.026 6.74 1.94 13.09
4/18/2022 8:15:00 AM 3.81 38.858 0.026 6.74 2.15 13.12
4/18/2022 8:30:00 AM 3.87 38.966 0.026 6.75 1.96 13.13
4/18/2022 8:45:00 AM 3.96 39.128 0.026 6.76 2.1 13.14
4/18/2022 9:00:00 AM 4.04 39.272 0.026 6.77 1.87 13.14
4/18/2022 9:15:00 AM 4.14 39.452 0.026 6.78 2.08 13.14
4/18/2022 9:30:00 AM 4.25 39.65 0.026 6.79 1.82 13.12
4/18/2022 9:45:00 AM 4.34 39.812 0.026 6.8 1.84 13.11
4/18/2022 10:00:00 AM 4.46 40.028 0.026 6.8 1.85 13.09
4/18/2022 10:15:00 AM 4.58 40.244 0.026 6.81 1.9 13.07
4/18/2022 10:30:00 AM 4.69 40.442 0.026 6.81 1.9 13.04
4/18/2022 10:45:00 AM 4.8 40.64 0.026 6.82 1.84 13.01
4/18/2022 11:00:00 AM 4.89 40.802 0.026 6.83 1.82 12.99
4/18/2022 11:15:00 AM 5 41 0.026 6.83 1.8 12.96
4/18/2022 11:30:00 AM 5.1 41.18 0.026 6.84 1.95 12.93
4/18/2022 11:45:00 AM 5.18 41.324 0.026 6.85 1.79 12.9
4/18/2022 12:00:00 PM 5.23 41.414 0.026 6.85 1.72 12.87
4/18/2022 12:15:00 PM 5.28 41.504 0.026 6.86 1.82 12.85
4/18/2022 12:30:00 PM 5.33 41.594 0.026 6.86 1.83 12.82
4/18/2022 12:45:00 PM 5.36 41.648 0.026 6.85 1.93 12.8
4/18/2022 1:00:00 PM 5.39 41.702 0.026 6.85 1.87 12.78
4/18/2022 1:15:00 PM 5.42 41.756 0.026 6.85 1.9 12.76
4/18/2022 1:30:00 PM 5.44 41.792 0.026 6.85 1.9 12.74
4/18/2022 1:45:00 PM 5.46 41.828 0.026 6.84 1.91 12.73
4/18/2022 2:00:00 PM 5.48 41.864 0.026 6.83 1.93 12.72
4/18/2022 2:15:00 PM 5.51 41.918 0.026 6.84 1.98 12.71
4/18/2022 2:30:00 PM 5.51 41.918 0.026 6.84 1.91 12.69
4/18/2022 2:45:00 PM 5.5 41.9 0.026 6.83 1.93 12.68
4/18/2022 3:00:00 PM 5.48 41.864 0.026 6.83 1.91 12.67
4/18/2022 3:15:00 PM 5.45 41.81 0.026 6.83 1.94 12.67
4/18/2022 3:30:00 PM 5.43 41.774 0.026 6.83 1.92 12.65
4/18/2022 3:45:00 PM 5.42 41.756 0.026 6.84 2 12.65
4/18/2022 4:00:00 PM 5.36 41.648 0.026 6.83 1.92 12.64
4/18/2022 4:15:00 PM 5.27 41.486 0.026 6.82 1.98 12.64
4/18/2022 4:30:00 PM 5.14 41.252 0.026 6.82 2.06 12.63
4/18/2022 4:45:00 PM 4.95 40.91 0.026 6.81 1.97 12.62
4/18/2022 5:00:00 PM 4.76 40.568 0.026 6.81 2.04 12.63
4/18/2022 5:15:00 PM 4.58 40.244 0.027 6.79 2.02 12.64
4/18/2022 5:30:00 PM 4.37 39.866 0.026 6.77 2 12.67
4/18/2022 5:45:00 PM 4.23 39.614 0.026 6.76 2.14 12.71
4/18/2022 6:00:00 PM 4.13 39.434 0.026 6.74 2.09 12.74
4/18/2022 6:15:00 PM 4.03 39.254 0.026 6.73 2.01 12.77
4/18/2022 6:30:00 PM 3.98 39.164 0.026 6.73 2.08 12.8
4/18/2022 6:45:00 PM 3.93 39.074 0.026 6.73 2.01 12.82
4/18/2022 7:00:00 PM 3.88 38.984 0.028 6.74 1.94 12.83
4/18/2022 7:15:00 PM 3.81 38.858 0.028 6.74 1.97 12.84
4/18/2022 7:30:00 PM 3.76 38.768 0.028 6.73 1.91 12.85
4/18/2022 7:45:00 PM 3.7 38.66 0.028 6.72 2.05 12.86
4/18/2022 8:00:00 PM 3.67 38.606 0.029 6.72 1.97 12.86
4/18/2022 8:15:00 PM 3.64 38.552 0.03 6.72 1.98 12.86
4/18/2022 8:30:00 PM 3.63 38.534 0.03 6.73 1.92 12.87
4/18/2022 8:45:00 PM 3.63 38.534 0.03 6.72 1.9 12.86
4/18/2022 9:00:00 PM 3.63 38.534 0.03 6.73 2 12.88
4/18/2022 9:15:00 PM 3.63 38.534 0.03 6.73 1.96 12.87
4/18/2022 9:30:00 PM 3.62 38.516 0.029 6.73 1.89 12.87
4/18/2022 9:45:00 PM 3.59 38.462 0.029 6.73 1.87 12.87
4/18/2022 10:00:00 PM 3.55 38.39 0.028 6.73 1.86 12.87
4/18/2022 10:15:00 PM 3.46 38.228 0.028 6.73 1.97 12.87
4/18/2022 10:30:00 PM 3.31 37.958 0.028 6.72 1.93 12.88
4/18/2022 10:45:00 PM 3.16 37.688 0.028 6.71 1.96 12.9
4/18/2022 11:00:00 PM 3.02 37.436 0.027 6.71 2.02 12.93
4/18/2022 11:15:00 PM 2.88 37.184 0.027 6.71 2.1 12.95
4/18/2022 11:30:00 PM 2.7 36.86 0.027 6.71 1.94 12.99
4/18/2022 11:45:00 PM 2.25 36.05 0.027 6.7 2.24 13.01
4/19/2022 12:00:00 AM 1.85 35.33 0.027 6.67 2.36 13.07
4/19/2022 12:15:00 AM 1.61 34.898 0.026 6.65 2.01 13.15
4/19/2022 12:30:00 AM 1.49 34.682 0.027 6.63 2.06 13.22
4/19/2022 12:45:00 AM 1.36 34.448 0.026 6.63 1.95 13.3
4/19/2022 1:00:00 AM 1.18 34.124 0.026 6.62 2.04 13.37
4/19/2022 1:15:00 AM 0.95 33.71 0.026 6.61 1.9 13.47
4/19/2022 1:30:00 AM 0.76 33.368 0.026 6.6 1.93 13.54
4/19/2022 1:45:00 AM 0.57 33.026 0.026 6.58 1.9 13.66
4/19/2022 2:00:00 AM 0.48 32.864 0.026 6.58 1.96 13.72
4/19/2022 2:15:00 AM 0.45 32.81 0.026 6.59 1.93 13.78
4/19/2022 2:30:00 AM 0.44 32.792 0.026 6.6 2.11 13.81
4/19/2022 2:45:00 AM 0.44 32.792 0.026 6.61 2.25 13.84
4/19/2022 3:00:00 AM 0.39 32.702 0.026 6.62 2.03 13.88
4/19/2022 3:15:00 AM 0.31 32.558 0.026 6.62 2.27 13.9
4/19/2022 3:30:00 AM 0.22 32.396 0.026 6.63 1.9 13.93
4/19/2022 3:45:00 AM 0.19 32.342 0.026 6.64 1.9 13.95
4/19/2022 4:00:00 AM 0.22 32.396 0.026 6.65 2.05 13.99
4/19/2022 4:15:00 AM 0.29 32.522 0.026 6.66 2.06 13.99
4/19/2022 4:30:00 AM 0.35 32.63 0.025 6.68 2.01 13.99
4/19/2022 4:45:00 AM 0.4 32.72 0.026 6.69 1.99 13.99
4/19/2022 5:00:00 AM 0.46 32.828 0.026 6.7 1.86 13.98
4/19/2022 5:15:00 AM 0.51 32.918 0.026 6.71 2.06 13.95
4/19/2022 5:30:00 AM 0.56 33.008 0.026 6.73 1.97 13.92
4/19/2022 5:45:00 AM 0.59 33.062 0.025 6.73 2.05 13.92
4/19/2022 6:00:00 AM 0.61 33.098 0.025 6.73 2.11 13.89
4/19/2022 6:15:00 AM 0.61 33.098 0.025 6.75 2.13 13.89
4/19/2022 6:30:00 AM 0.6 33.08 0.025 6.75 2.01 13.88
4/19/2022 6:45:00 AM 0.62 33.116 0.025 6.75 2.01 13.89
4/19/2022 7:00:00 AM 0.64 33.152 0.025 6.76 2.03 13.88
4/19/2022 7:15:00 AM 0.69 33.242 0.025 6.77 2.08 13.89
4/19/2022 7:30:00 AM 0.75 33.35 0.025 6.77 2.12 13.91
4/19/2022 7:45:00 AM 0.79 33.422 0.025 6.78 1.94 13.9
4/19/2022 8:00:00 AM 0.84 33.512 0.025 6.79 1.99 13.92
4/19/2022 8:15:00 AM 0.89 33.602 0.025 6.8 2.06 13.92
4/19/2022 8:30:00 AM 0.95 33.71 0.025 6.81 1.99 13.92
4/19/2022 8:45:00 AM 1.03 33.854 0.025 6.82 1.92 13.91
4/19/2022 9:00:00 AM 1.14 34.052 0.025 6.82 1.88 13.91
4/19/2022 9:15:00 AM 1.22 34.196 0.025 6.83 1.88 13.91
4/19/2022 9:30:00 AM 1.26 34.268 0.026 6.84 1.91 13.88
4/19/2022 9:45:00 AM 1.35 34.43 0.026 6.84 1.9 13.87
4/19/2022 10:00:00 AM 1.4 34.52 0.026 6.85 1.95 13.86
4/19/2022 10:15:00 AM 1.46 34.628 0.026 6.85 1.96 13.85
4/19/2022 10:30:00 AM 1.46 34.628 0.026 6.86 1.98 13.84
4/19/2022 10:45:00 AM 1.52 34.736 0.026 6.86 1.96 13.83
4/19/2022 11:00:00 AM 1.64 34.952 0.026 6.86 2.01 13.82
4/19/2022 11:15:00 AM 1.72 35.096 0.026 6.86 1.83 13.79
4/19/2022 11:30:00 AM 1.79 35.222 0.026 6.87 1.86 13.76
4/19/2022 11:45:00 AM 1.89 35.402 0.026 6.87 1.93 13.75
4/19/2022 12:00:00 PM 1.96 35.528 0.026 6.88 1.97 13.73
4/19/2022 12:15:00 PM 2.02 35.636 0.026 6.88 1.86 13.71
4/19/2022 12:30:00 PM 2.11 35.798 0.026 6.88 1.95 13.69
4/19/2022 12:45:00 PM 2.13 35.834 0.025 6.88 1.95 13.67
4/19/2022 1:00:00 PM 2.13 35.834 0.026 6.88 1.85 13.66
4/19/2022 1:15:00 PM 2.15 35.87 0.026 6.87 1.95 13.65
4/19/2022 1:30:00 PM 2.18 35.924 0.025 6.87 1.87 13.65
4/19/2022 1:45:00 PM 2.24 36.032 0.025 6.88 1.95 13.64
4/19/2022 2:00:00 PM 2.36 36.248 0.025 6.88 2.01 13.62
4/19/2022 2:15:00 PM 2.5 36.5 0.026 6.89 1.97 13.59
4/19/2022 2:30:00 PM 2.64 36.752 0.026 6.9 2.04 13.56
4/19/2022 2:45:00 PM 2.87 37.166 0.026 6.91 2.37 13.52
4/19/2022 3:00:00 PM 3.02 37.436 0.026 6.92 2.1 13.48
4/19/2022 3:15:00 PM 3.12 37.616 0.026 6.95 2.38 13.44
4/19/2022 3:30:00 PM 3.2 37.76 0.026 6.93 2.27 13.42
4/19/2022 3:45:00 PM 3.24 37.832 0.026 6.94 2.6 13.38
4/19/2022 4:00:00 PM 3.31 37.958 0.026 6.93 2.2 13.35
4/19/2022 4:15:00 PM 3.36 38.048 0.026 6.92 2.25 13.33
4/19/2022 4:30:00 PM 3.41 38.138 0.026 6.93 2.14 13.31
4/19/2022 4:45:00 PM 3.39 38.102 0.026 6.92 2.18 13.29
4/19/2022 5:00:00 PM 3.34 38.012 0.026 6.91 2.28 13.28
4/19/2022 5:15:00 PM 3.29 37.922 0.026 6.9 2.27 13.29
4/19/2022 5:30:00 PM 3.27 37.886 0.026 6.89 2.19 13.27
4/19/2022 5:45:00 PM 3.25 37.85 0.026 6.89 2.24 13.26
4/19/2022 6:00:00 PM 3.22 37.796 0.026 6.88 2.24 13.26
4/19/2022 6:15:00 PM 3.19 37.742 0.026 6.88 2.24 13.26
4/19/2022 6:30:00 PM 3.17 37.706 0.026 6.88 2.19 13.26
4/19/2022 6:45:00 PM 3.14 37.652 0.027 6.87 2.13 13.25
4/19/2022 7:00:00 PM 3.09 37.562 0.026 6.86 2.14 13.25
4/19/2022 7:15:00 PM 3.04 37.472 0.026 6.86 2.22 13.24
4/19/2022 7:30:00 PM 3 37.4 0.026 6.85 2.07 13.24
4/19/2022 7:45:00 PM 2.94 37.292 0.026 6.84 2.24 13.24
4/19/2022 8:00:00 PM 2.9 37.22 0.026 6.84 2 13.23
4/19/2022 8:15:00 PM 2.86 37.148 0.026 6.84 2.16 13.23
4/19/2022 8:30:00 PM 2.83 37.094 0.026 6.85 2.06 13.23
4/19/2022 8:45:00 PM 2.8 37.04 0.026 6.83 2.12 13.23
4/19/2022 9:00:00 PM 2.79 37.022 0.027 6.81 2.12 13.22
4/19/2022 9:15:00 PM 2.77 36.986 0.027 6.81 2.06 13.23
4/19/2022 9:30:00 PM 2.77 36.986 0.027 6.8 2.13 13.21
4/19/2022 9:45:00 PM 2.77 36.986 0.026 6.79 2.18 13.22
4/19/2022 10:00:00 PM 2.76 36.968 0.026 6.78 2.15 13.23
4/19/2022 10:15:00 PM 2.77 36.986 0.027 6.78 1.95 13.22
4/19/2022 10:30:00 PM 2.77 36.986 0.026 6.78 2.1 13.23
4/19/2022 10:45:00 PM 2.77 36.986 0.026 6.78 2.08 13.23
4/19/2022 11:00:00 PM 2.78 37.004 0.026 6.77 2.23 13.22
4/19/2022 11:15:00 PM 2.78 37.004 0.026 6.78 2.05 13.23
4/19/2022 11:30:00 PM 2.8 37.04 0.027 6.77 2.18 13.22
4/19/2022 11:45:00 PM 2.8 37.04 0.027 6.77 2.27 13.23
4/20/2022 12:00:00 AM 2.8 37.04 0.027 6.78 2.48 13.23
4/20/2022 12:15:00 AM 2.81 37.058 0.027 6.77 2.31 13.23
4/20/2022 12:30:00 AM 2.82 37.076 0.027 6.77 2.54 13.22
4/20/2022 12:45:00 AM 2.82 37.076 0.027 6.77 2.38 13.23
4/20/2022 1:00:00 AM 2.82 37.076 0.027 6.77 2.73 13.23
4/20/2022 1:15:00 AM 2.83 37.094 0.027 6.77 2.48 13.23
4/20/2022 1:30:00 AM 2.83 37.094 0.027 6.77 2.82 13.24
4/20/2022 1:45:00 AM 2.83 37.094 0.027 6.77 2.81 13.24
4/20/2022 2:00:00 AM 2.82 37.076 0.027 6.76 2.67 13.25
4/20/2022 2:15:00 AM 2.81 37.058 0.026 6.76 2.78 13.26
4/20/2022 2:30:00 AM 2.8 37.04 0.027 6.76 2.55 13.26
4/20/2022 2:45:00 AM 2.8 37.04 0.027 6.76 2.7 13.26
4/20/2022 3:00:00 AM 2.79 37.022 0.027 6.76 2.66 13.26
4/20/2022 3:15:00 AM 2.77 36.986 0.027 6.76 2.57 13.28
4/20/2022 3:30:00 AM 2.76 36.968 0.027 6.76 2.69 13.28
4/20/2022 3:45:00 AM 2.75 36.95 0.027 6.76 2.49 13.3
4/20/2022 4:00:00 AM 2.74 36.932 0.027 6.75 2.45 13.31
4/20/2022 4:15:00 AM 2.72 36.896 0.027 6.75 2.5 13.31
4/20/2022 4:30:00 AM 2.7 36.86 0.027 6.75 2.4 13.32
4/20/2022 4:45:00 AM 2.67 36.806 0.027 6.75 2.46 13.33
4/20/2022 5:00:00 AM 2.64 36.752 0.027 6.74 2.49 13.33
4/20/2022 5:15:00 AM 2.61 36.698 0.027 6.74 2.25 13.35
4/20/2022 5:30:00 AM 2.59 36.662 0.027 6.74 2.49 13.37
4/20/2022 5:45:00 AM 2.57 36.626 0.027 6.73 2.46 13.38
4/20/2022 6:00:00 AM 2.57 36.626 0.027 6.74 2.38 13.39
4/20/2022 6:15:00 AM 2.57 36.626 0.027 6.74 2.44 13.39
4/20/2022 6:30:00 AM 2.56 36.608 0.027 6.74 2.37 13.41
4/20/2022 6:45:00 AM 2.57 36.626 0.028 6.73 2.18 13.4
4/20/2022 7:00:00 AM 2.56 36.608 0.027 6.74 2.1 13.44
4/20/2022 7:15:00 AM 2.58 36.644 0.027 6.74 2.14 13.46
4/20/2022 7:30:00 AM 2.62 36.716 0.027 6.74 2.26 13.49
4/20/2022 7:45:00 AM 2.66 36.788 0.027 6.75 2.11 13.51
4/20/2022 8:00:00 AM 2.69 36.842 0.027 6.76 2.05 13.52
4/20/2022 8:15:00 AM 2.71 36.878 0.027 6.76 1.99 13.55
4/20/2022 8:30:00 AM 2.74 36.932 0.027 6.76 2.06 13.56
4/20/2022 8:45:00 AM 2.77 36.986 0.027 6.77 1.92 13.56
4/20/2022 9:00:00 AM 2.84 37.112 0.027 6.77 1.95 13.56
4/20/2022 9:15:00 AM 2.96 37.328 0.028 6.77 2 13.55
4/20/2022 9:30:00 AM 3.02 37.436 0.027 6.78 2 13.55
4/20/2022 9:45:00 AM 3.09 37.562 0.027 6.79 2.02 13.54
4/20/2022 10:00:00 AM 3.22 37.796 0.027 6.8 1.91 13.54
4/20/2022 10:15:00 AM 3.38 38.084 0.027 6.81 1.92 13.51
4/20/2022 10:30:00 AM 3.6 38.48 0.027 6.81 1.81 13.47
4/20/2022 10:45:00 AM 3.86 38.948 0.027 6.83 1.8 13.42
4/20/2022 11:00:00 AM 4.11 39.398 0.027 6.84 1.84 13.37
4/20/2022 11:15:00 AM 4.36 39.848 0.027 6.86 1.87 13.32
4/20/2022 11:30:00 AM 4.55 40.19 0.027 6.85 1.76 13.27
4/20/2022 11:45:00 AM 4.8 40.64 0.027 6.87 1.78 13.2
4/20/2022 12:00:00 PM 5.02 41.036 0.027 6.85 1.73 13.14
4/20/2022 12:15:00 PM 5.25 41.45 0.028 6.88 1.81 13.06
4/20/2022 12:30:00 PM 5.49 41.882 0.028 6.89 1.76 13.01
4/20/2022 12:45:00 PM 5.73 42.314 0.028 6.89 1.8 12.93
4/20/2022 1:00:00 PM 6 42.8 0.028 6.91 1.74 12.86
4/20/2022 1:15:00 PM 6.25 43.25 0.028 6.92 1.89 12.79
4/20/2022 1:30:00 PM 6.48 43.664 0.028 6.93 1.83 12.73
4/20/2022 1:45:00 PM 6.69 44.042 0.028 6.95 1.94 12.66
4/20/2022 2:00:00 PM 6.88 44.384 0.028 6.96 2.04 12.6
4/20/2022 2:15:00 PM 7.04 44.672 0.029 6.97 2.15 12.53
4/20/2022 2:30:00 PM 7.19 44.942 0.029 6.98 2.29 12.49
4/20/2022 2:45:00 PM 7.33 45.194 0.029 6.98 2.12 12.44
4/20/2022 3:00:00 PM 7.44 45.392 0.029 6.99 2.07 12.39
4/20/2022 3:15:00 PM 7.54 45.572 0.029 7 2.2 12.37
4/20/2022 3:30:00 PM 7.61 45.698 0.028 7.01 2.36 12.33
4/20/2022 3:45:00 PM 7.64 45.752 0.029 7 2.3 12.3
4/20/2022 4:00:00 PM 7.64 45.752 0.029 7.01 2.32 12.28
4/20/2022 4:15:00 PM 7.63 45.734 0.029 7.01 2.39 12.27
4/20/2022 4:30:00 PM 7.59 45.662 0.029 7.01 2.39 12.26
4/20/2022 4:45:00 PM 7.51 45.518 0.029 7 2.68 12.25
4/20/2022 5:00:00 PM 7.42 45.356 0.029 6.99 2.72 12.26
4/20/2022 5:15:00 PM 7.33 45.194 0.029 6.99 2.83 12.27
4/20/2022 5:30:00 PM 7.24 45.032 0.029 6.98 3.03 12.27
4/20/2022 5:45:00 PM 7.12 44.816 0.03 6.97 3.16 12.27
4/20/2022 6:00:00 PM 7.01 44.618 0.031 6.96 3.08 12.28
4/20/2022 6:15:00 PM 6.88 44.384 0.03 6.95 2.88 12.29
4/20/2022 6:30:00 PM 6.75 44.15 0.029 6.94 3.08 12.3
4/20/2022 6:45:00 PM 6.62 43.916 0.029 6.92 3.74 12.32
4/20/2022 7:00:00 PM 6.49 43.682 0.028 6.91 3.56 12.33
4/20/2022 7:15:00 PM 6.38 43.484 0.028 6.9 3.47 12.33
4/20/2022 7:30:00 PM 6.28 43.304 0.028 6.88 3.6 12.33
4/20/2022 7:45:00 PM 6.21 43.178 0.028 6.87 3.63 12.33
4/20/2022 8:00:00 PM 6.14 43.052 0.027 6.85 3.63 12.34
4/20/2022 8:15:00 PM 6.08 42.944 0.027 6.84 3.59 12.34
4/20/2022 8:30:00 PM 6.02 42.836 0.027 6.83 3.67 12.35
4/20/2022 8:45:00 PM 5.97 42.746 0.027 6.83 3.76 12.35
4/20/2022 9:00:00 PM 5.92 42.656 0.027 6.82 5.05 12.37
4/20/2022 9:15:00 PM 5.88 42.584 0.027 6.82 3.78 12.38
4/20/2022 9:30:00 PM 5.83 42.494 0.026 6.81 3.63 12.4
4/20/2022 9:45:00 PM 5.78 42.404 0.026 6.8 3.8 12.41
4/20/2022 10:00:00 PM 5.73 42.314 0.026 6.8 3.86 12.43
4/20/2022 10:15:00 PM 5.67 42.206 0.026 6.79 3.52 12.44
4/20/2022 10:30:00 PM 5.61 42.098 0.026 6.8 3.85 12.46
4/20/2022 10:45:00 PM 5.55 41.99 0.026 6.78 3.58 12.48
4/20/2022 11:00:00 PM 5.48 41.864 0.026 6.78 3.65 12.51
4/20/2022 11:15:00 PM 5.41 41.738 0.026 6.77 3.81 12.53
4/20/2022 11:30:00 PM 5.33 41.594 0.026 6.77 3.9 12.56
4/20/2022 11:45:00 PM 5.26 41.468 0.026 6.76 3.59 12.58
4/21/2022 12:00:00 AM 5.18 41.324 0.026 6.76 3.79 12.61
4/21/2022 12:15:00 AM 5.09 41.162 0.026 6.76 3.79 12.64
4/21/2022 12:30:00 AM 5.01 41.018 0.026 6.76 3.88 12.66
4/21/2022 12:45:00 AM 4.93 40.874 0.026 6.75 3.71 12.69
4/21/2022 1:00:00 AM 4.86 40.748 0.026 6.75 3.73 12.72
4/21/2022 1:15:00 AM 4.8 40.64 0.026 6.74 3.6 12.75
4/21/2022 1:30:00 AM 4.74 40.532 0.026 6.74 3.65 12.77
4/21/2022 1:45:00 AM 4.69 40.442 0.026 6.73 3.25 12.79
4/21/2022 2:00:00 AM 4.63 40.334 0.026 6.73 3.42 12.81
4/21/2022 2:15:00 AM 4.58 40.244 0.026 6.73 3.37 12.83
4/21/2022 2:30:00 AM 4.53 40.154 0.026 6.72 3.2 12.84
4/21/2022 2:45:00 AM 4.48 40.064 0.026 6.72 3.27 12.86
4/21/2022 3:00:00 AM 4.44 39.992 0.026 6.72 3.14 12.87
4/21/2022 3:15:00 AM 4.4 39.92 0.026 6.71 3.03 12.87
4/21/2022 3:30:00 AM 4.37 39.866 0.026 6.71 3.06 12.89
4/21/2022 3:45:00 AM 4.34 39.812 0.026 6.71 2.92 12.9
4/21/2022 4:00:00 AM 4.32 39.776 0.026 6.71 2.93 12.91
4/21/2022 4:15:00 AM 4.3 39.74 0.025 6.71 2.75 12.92
4/21/2022 4:30:00 AM 4.29 39.722 0.026 6.71 2.78 12.92
4/21/2022 4:45:00 AM 4.28 39.704 0.026 6.72 2.84 12.93
4/21/2022 5:00:00 AM 4.28 39.704 0.026 6.72 2.63 12.93
4/21/2022 5:15:00 AM 4.27 39.686 0.025 6.72 2.6 12.93
4/21/2022 5:30:00 AM 4.28 39.704 0.025 6.72 2.59 12.93
4/21/2022 5:45:00 AM 4.27 39.686 0.025 6.72 2.67 12.93
4/21/2022 6:00:00 AM 4.27 39.686 0.025 6.72 2.51 12.93
4/21/2022 6:15:00 AM 4.27 39.686 0.025 6.72 2.64 12.93
4/21/2022 6:30:00 AM 4.26 39.668 0.025 6.72 2.6 12.94
4/21/2022 6:45:00 AM 4.26 39.668 0.025 6.71 2.55 12.95
4/21/2022 7:00:00 AM 4.26 39.668 0.025 6.72 2.4 12.96
4/21/2022 7:15:00 AM 4.27 39.686 0.025 6.72 2.44 12.98
4/21/2022 7:30:00 AM 4.29 39.722 0.025 6.72 2.39 12.99
4/21/2022 7:45:00 AM 4.32 39.776 0.025 6.72 2.39 13
4/21/2022 8:00:00 AM 4.36 39.848 0.025 6.72 2.28 13.01
4/21/2022 8:15:00 AM 4.42 39.956 0.025 6.74 2.2 13.02
4/21/2022 8:30:00 AM 4.49 40.082 0.025 6.75 2.22 13.01
4/21/2022 8:45:00 AM 4.61 40.298 0.025 6.73 2.23 13
4/21/2022 9:00:00 AM 4.7 40.46 0.025 6.76 2.26 13
4/21/2022 9:15:00 AM 4.76 40.568 0.025 6.77 2.17 12.99
4/21/2022 9:30:00 AM 4.8 40.64 0.025 6.77 2.4 12.97
4/21/2022 9:45:00 AM 4.85 40.73 0.025 6.78 2.27 12.95
4/21/2022 10:00:00 AM 4.91 40.838 0.025 6.75 2.18 12.94
4/21/2022 10:15:00 AM 4.95 40.91 0.025 6.77 2.21 12.92
4/21/2022 10:30:00 AM 5.01 41.018 0.025 6.78 2.14 12.91
4/21/2022 10:45:00 AM 5.13 41.234 0.025 6.75 2.24 12.89
4/21/2022 11:00:00 AM 5.27 41.486 0.025 6.78 2.2 12.87
4/21/2022 11:15:00 AM 5.36 41.648 0.025 6.81 2.21 12.85
4/21/2022 11:30:00 AM 5.44 41.792 0.025 6.82 2.34 12.83
4/21/2022 11:45:00 AM 5.62 42.116 0.025 6.83 2.27 12.8
4/21/2022 12:00:00 PM 5.89 42.602 0.025 6.84 2.24 12.76
4/21/2022 12:15:00 PM 6.06 42.908 0.025 6.85 2.4 12.71
4/21/2022 12:30:00 PM 6.14 43.052 0.025 6.86 2.23 12.67
4/21/2022 12:45:00 PM 6.15 43.07 0.025 6.87 2.42 12.64
4/21/2022 1:00:00 PM 6.2 43.16 0.026 6.87 2.49 12.6
4/21/2022 1:15:00 PM 6.25 43.25 0.026 6.86 2.53 12.56
4/21/2022 1:30:00 PM 6.28 43.304 0.026 6.86 2.78 12.53
4/21/2022 1:45:00 PM 6.28 43.304 0.026 6.89 2.93 12.5
4/21/2022 2:00:00 PM 6.28 43.304 0.026 6.89 3.34 12.49
4/21/2022 2:15:00 PM 6.26 43.268 0.026 6.89 3.39 12.48
4/21/2022 2:30:00 PM 6.24 43.232 0.026 6.87 3.43 12.48
4/21/2022 2:45:00 PM 6.21 43.178 0.026 6.88 3.48 12.47
4/21/2022 3:00:00 PM 6.18 43.124 0.026 6.87 3.55 12.46
4/21/2022 3:15:00 PM 6.14 43.052 0.025 6.86 3.65 12.46
4/21/2022 3:30:00 PM 6.11 42.998 0.026 6.84 3.65 12.45
4/21/2022 3:45:00 PM 6.1 42.98 0.025 6.84 3.95 12.44
4/21/2022 4:00:00 PM 6.09 42.962 0.025 6.82 4.26 12.44
4/21/2022 4:15:00 PM 6.09 42.962 0.025 6.82 4.19 12.44
4/21/2022 4:30:00 PM 6.09 42.962 0.025 6.82 4.98 12.43
4/21/2022 4:45:00 PM 6.09 42.962 0.025 6.81 4.71 12.42
4/21/2022 5:00:00 PM 6.08 42.944 0.025 6.81 4.74 12.42
4/21/2022 5:15:00 PM 6.08 42.944 0.025 6.81 5.74 12.43
4/21/2022 5:30:00 PM 6.06 42.908 0.025 6.79 5.49 12.43
4/21/2022 5:45:00 PM 6.04 42.872 0.024 6.8 5.57 12.43
4/21/2022 6:00:00 PM 6.02 42.836 0.024 6.78 6.4 12.43
4/21/2022 6:15:00 PM 5.99 42.782 0.024 6.76 5.75 12.44
4/21/2022 6:30:00 PM 5.96 42.728 0.024 6.76 6.14 12.44
4/21/2022 6:45:00 PM 5.93 42.674 0.024 6.74 6.51 12.45
4/21/2022 7:00:00 PM 5.9 42.62 0.024 6.73 5.91 12.46
4/21/2022 7:15:00 PM 5.88 42.584 0.024 6.72 7.98 12.47
4/21/2022 7:30:00 PM 5.85 42.53 0.024 6.72 6.32 12.47
4/21/2022 7:45:00 PM 5.83 42.494 0.024 6.72 6.55 12.48
4/21/2022 8:00:00 PM 5.8 42.44 0.024 6.72 6.1 12.48
4/21/2022 8:15:00 PM 5.77 42.386 0.024 6.7 6.15 12.48
4/21/2022 8:30:00 PM 5.74 42.332 0.024 6.69 7.44 12.48
4/21/2022 8:45:00 PM 5.71 42.278 0.024 6.69 6.63 12.5
4/21/2022 9:00:00 PM 5.69 42.242 0.024 6.68 6.05 12.5
4/21/2022 9:15:00 PM 5.66 42.188 0.024 6.66 5.75 12.51
4/21/2022 9:30:00 PM 5.62 42.116 0.024 6.66 6.25 12.52
4/21/2022 9:45:00 PM 5.58 42.044 0.023 6.65 5.87 12.53
4/21/2022 10:00:00 PM 5.56 42.008 0.023 6.64 6.02 12.54
4/21/2022 10:15:00 PM 5.54 41.972 0.023 6.63 22.32 12.55
4/21/2022 10:30:00 PM 5.53 41.954 0.023 6.63 5.57 12.55
4/21/2022 10:45:00 PM 5.52 41.936 0.023 6.63 5.83 12.56
4/21/2022 11:00:00 PM 5.5 41.9 0.023 6.62 5.47 12.56
4/21/2022 11:15:00 PM 5.5 41.9 0.023 6.61 5.37 12.57
4/21/2022 11:30:00 PM 5.49 41.882 0.023 6.61 5.53 12.57
4/21/2022 11:45:00 PM 5.48 41.864 0.023 6.61 4.95 12.57
4/22/2022 12:00:00 AM 5.45 41.81 0.023 6.6 4.9 12.58
4/22/2022 12:15:00 AM 5.42 41.756 0.023 6.6 5.6 12.58
4/22/2022 12:30:00 AM 5.39 41.702 0.023 6.58 4.81 12.59
4/22/2022 12:45:00 AM 5.37 41.666 0.023 6.58 5.06 12.59
4/22/2022 1:00:00 AM 5.34 41.612 0.023 6.58 4.58 12.6
4/22/2022 1:15:00 AM 5.32 41.576 0.023 6.57 4.62 12.61
4/22/2022 1:30:00 AM 5.3 41.54 0.023 6.56 4.49 12.61
4/22/2022 1:45:00 AM 5.29 41.522 0.023 6.57 4.68 12.62
4/22/2022 2:00:00 AM 5.28 41.504 0.023 6.56 4.31 12.62
4/22/2022 2:15:00 AM 5.27 41.486 0.023 6.57 4.58 12.62
4/22/2022 2:30:00 AM 5.26 41.468 0.023 6.57 4.23 12.63
4/22/2022 2:45:00 AM 5.25 41.45 0.023 6.55 4.39 12.63
4/22/2022 3:00:00 AM 5.24 41.432 0.023 6.55 3.91 12.63
4/22/2022 3:15:00 AM 5.23 41.414 0.023 6.55 4.74 12.64
4/22/2022 3:30:00 AM 5.21 41.378 0.022 6.54 3.93 12.65
4/22/2022 3:45:00 AM 5.2 41.36 0.022 6.53 3.81 12.65
4/22/2022 4:00:00 AM 5.19 41.342 0.022 6.52 3.79 12.66
4/22/2022 4:15:00 AM 5.17 41.306 0.022 6.53 3.85 12.66
4/22/2022 4:30:00 AM 5.16 41.288 0.022 6.52 3.92 12.66
4/22/2022 4:45:00 AM 5.15 41.27 0.022 6.52 3.75 12.67
4/22/2022 5:00:00 AM 5.14 41.252 0.022 6.52 3.66 12.68
4/22/2022 5:15:00 AM 5.13 41.234 0.022 6.52 3.76 12.68
4/22/2022 5:30:00 AM 5.13 41.234 0.022 6.51 3.89 12.68
4/22/2022 5:45:00 AM 5.12 41.216 0.022 6.52 3.49 12.69
4/22/2022 6:00:00 AM 5.12 41.216 0.022 6.53 3.44 12.69
4/22/2022 6:15:00 AM 5.13 41.234 0.022 6.52 3.33 12.69
4/22/2022 6:30:00 AM 5.13 41.234 0.022 6.53 3.27 12.7
4/22/2022 6:45:00 AM 5.13 41.234 0.022 6.53 3.21 12.71
4/22/2022 7:00:00 AM 5.15 41.27 0.022 6.54 3.22 12.72
4/22/2022 7:15:00 AM 5.16 41.288 0.022 6.53 3.14 12.73
4/22/2022 7:30:00 AM 5.16 41.288 0.022 6.54 3.04 12.74
4/22/2022 7:45:00 AM 5.17 41.306 0.022 6.55 3.11 12.75
4/22/2022 8:00:00 AM 5.19 41.342 0.022 6.55 3.16 12.76
4/22/2022 8:15:00 AM 5.22 41.396 0.022 6.55 3.06 12.77
4/22/2022 8:30:00 AM 5.26 41.468 0.022 6.56 2.86 12.77
4/22/2022 8:45:00 AM 5.31 41.558 0.022 6.55 3.37 12.77
4/22/2022 9:00:00 AM 5.37 41.666 0.022 6.57 2.78 12.78
4/22/2022 9:15:00 AM 5.44 41.792 0.022 6.57 2.91 12.77
4/22/2022 9:30:00 AM 5.52 41.936 0.022 6.59 2.86 12.76
4/22/2022 9:45:00 AM 5.61 42.098 0.022 6.58 3.27 12.76
4/22/2022 10:00:00 AM 5.71 42.278 0.022 6.59 2.95 12.74
4/22/2022 10:15:00 AM 5.81 42.458 0.022 6.63 2.91 12.72
4/22/2022 10:30:00 AM 5.93 42.674 0.022 6.62 2.67 12.71
4/22/2022 10:45:00 AM 6.07 42.926 0.022 6.63 2.81 12.68
4/22/2022 11:00:00 AM 6.21 43.178 0.022 6.65 2.69 12.65
4/22/2022 11:15:00 AM 6.36 43.448 0.021 6.66 2.71 12.62
4/22/2022 11:30:00 AM 6.51 43.718 0.021 6.66 2.56 12.58
4/22/2022 11:45:00 AM 6.68 44.024 0.021 6.68 2.7 12.54
4/22/2022 12:00:00 PM 6.85 44.33 0.021 6.7 2.69 12.5
4/22/2022 12:15:00 PM 7.02 44.636 0.021 6.71 2.61 12.46
4/22/2022 12:30:00 PM 7.19 44.942 0.021 6.72 2.81 12.41
4/22/2022 12:45:00 PM 7.36 45.248 0.021 6.73 2.66 12.36
4/22/2022 1:00:00 PM 7.54 45.572 0.021 6.76 2.59 12.31
4/22/2022 1:15:00 PM 7.72 45.896 0.021 6.75 2.58 12.27
4/22/2022 1:30:00 PM 7.89 46.202 0.021 6.77 2.83 12.21
4/22/2022 1:45:00 PM 8.07 46.526 0.021 6.77 2.64 12.15
4/22/2022 2:00:00 PM 8.24 46.832 0.021 6.79 2.62 12.11
4/22/2022 2:15:00 PM 8.41 47.138 0.021 6.77 2.66 12.06
4/22/2022 2:30:00 PM 8.57 47.426 0.021 6.8 2.82 12
4/22/2022 2:45:00 PM 8.72 47.696 0.021 6.81 2.89 11.96
4/22/2022 3:00:00 PM 8.85 47.93 0.021 6.81 2.89 11.91
4/22/2022 3:15:00 PM 8.97 48.146 0.021 6.82 2.87 11.87
4/22/2022 3:30:00 PM 9.09 48.362 0.021 6.84 2.86 11.83
4/22/2022 3:45:00 PM 9.18 48.524 0.021 6.83 2.9 11.79
4/22/2022 4:00:00 PM 9.26 48.668 0.021 6.83 3.13 11.76
4/22/2022 4:15:00 PM 9.31 48.758 0.021 6.84 3.23 11.73
4/22/2022 4:30:00 PM 9.34 48.812 0.021 6.82 3.09 11.7
4/22/2022 4:45:00 PM 9.36 48.848 0.021 6.83 3.13 11.68
4/22/2022 5:00:00 PM 9.37 48.866 0.021 6.82 3.42 11.66
4/22/2022 5:15:00 PM 9.38 48.884 0.021 6.81 3.41 11.65
4/22/2022 5:30:00 PM 9.37 48.866 0.021 6.78 3.49 11.63
4/22/2022 5:45:00 PM 9.34 48.812 0.021 6.78 3.25 11.62
4/22/2022 6:00:00 PM 9.32 48.776 0.021 6.77 3.37 11.61
4/22/2022 6:15:00 PM 9.31 48.758 0.021 6.78 3.35 11.6
4/22/2022 6:30:00 PM 9.3 48.74 0.021 6.77 3.48 11.59
4/22/2022 6:45:00 PM 9.29 48.722 0.021 6.78 3.4 11.58
4/22/2022 7:00:00 PM 9.27 48.686 0.02 6.77 3.41 11.57
4/22/2022 7:15:00 PM 9.25 48.65 0.02 6.77 3.42 11.57
4/22/2022 7:30:00 PM 9.23 48.614 0.02 6.75 3.33 11.55
4/22/2022 7:45:00 PM 9.19 48.542 0.02 6.73 3.28 11.55
4/22/2022 8:00:00 PM 9.15 48.47 0.02 6.72 3.33 11.54
4/22/2022 8:15:00 PM 9.1 48.38 0.02 6.7 3.23 11.54
4/22/2022 8:30:00 PM 9.05 48.29 0.02 6.67 3.27 11.55
4/22/2022 8:45:00 PM 8.99 48.182 0.02 6.66 3.26 11.55
4/22/2022 9:00:00 PM 8.93 48.074 0.02 6.64 3.36 11.57
4/22/2022 9:15:00 PM 8.86 47.948 0.02 6.62 3.53 11.58
4/22/2022 9:30:00 PM 8.79 47.822 0.02 6.61 3.3 11.6
4/22/2022 9:45:00 PM 8.72 47.696 0.02 6.59 3.34 11.62
4/22/2022 10:00:00 PM 8.65 47.57 0.02 6.58 3.32 11.63
4/22/2022 10:15:00 PM 8.58 47.444 0.02 6.57 3.32 11.64
4/22/2022 10:30:00 PM 8.51 47.318 0.02 6.56 3.2 11.66
4/22/2022 10:45:00 PM 8.44 47.192 0.02 6.55 3.28 11.68
4/22/2022 11:00:00 PM 8.37 47.066 0.02 6.54 3.26 11.7
4/22/2022 11:15:00 PM 8.31 46.958 0.02 6.54 3.16 11.72
4/22/2022 11:30:00 PM 8.24 46.832 0.02 6.54 3.24 11.74
4/22/2022 11:45:00 PM 8.18 46.724 0.02 6.54 3.1 11.75
4/23/2022 12:00:00 AM 8.13 46.634 0.02 6.54 3.15 11.77
4/23/2022 12:15:00 AM 8.07 46.526 0.02 6.54 3.04 11.79
4/23/2022 12:30:00 AM 8.03 46.454 0.02 6.54 3.18 11.8
4/23/2022 12:45:00 AM 7.98 46.364 0.02 6.55 3 11.81
4/23/2022 1:00:00 AM 7.94 46.292 0.02 6.55 2.86 11.83
4/23/2022 1:15:00 AM 7.9 46.22 0.02 6.55 2.86 11.84
4/23/2022 1:30:00 AM 7.86 46.148 0.02 6.55 3.02 11.85
4/23/2022 1:45:00 AM 7.82 46.076 0.02 6.54 2.94 11.86
4/23/2022 2:00:00 AM 7.78 46.004 0.02 6.54 2.97 11.87
4/23/2022 2:15:00 AM 7.74 45.932 0.02 6.54 2.95 11.88
4/23/2022 2:30:00 AM 7.7 45.86 0.02 6.54 2.79 11.9
4/23/2022 2:45:00 AM 7.66 45.788 0.02 6.55 2.79 11.91
4/23/2022 3:00:00 AM 7.62 45.716 0.02 6.55 2.87 11.91
4/23/2022 3:15:00 AM 7.59 45.662 0.02 6.54 2.8 11.92
4/23/2022 3:30:00 AM 7.56 45.608 0.02 6.55 2.89 11.93
4/23/2022 3:45:00 AM 7.52 45.536 0.02 6.55 2.72 11.94
4/23/2022 4:00:00 AM 7.49 45.482 0.02 6.55 2.62 11.95
4/23/2022 4:15:00 AM 7.46 45.428 0.02 6.54 2.63 11.96
4/23/2022 4:30:00 AM 7.43 45.374 0.02 6.54 2.69 11.96
4/23/2022 4:45:00 AM 7.41 45.338 0.02 6.55 2.51 11.97
4/23/2022 5:00:00 AM 7.38 45.284 0.02 6.54 2.56 11.98
4/23/2022 5:15:00 AM 7.36 45.248 0.02 6.54 2.67 11.99
4/23/2022 5:30:00 AM 7.33 45.194 0.02 6.53 2.67 11.99
4/23/2022 5:45:00 AM 7.31 45.158 0.02 6.54 2.65 12
4/23/2022 6:00:00 AM 7.29 45.122 0.02 6.54 2.58 12.01
4/23/2022 6:15:00 AM 7.27 45.086 0.02 6.54 2.74 12.01
4/23/2022 6:30:00 AM 7.24 45.032 0.021 6.54 2.66 12.02
4/23/2022 6:45:00 AM 7.22 44.996 0.021 6.55 2.54 12.03
4/23/2022 7:00:00 AM 7.21 44.978 0.021 6.55 2.58 12.04
4/23/2022 7:15:00 AM 7.19 44.942 0.021 6.56 2.6 12.06
4/23/2022 7:30:00 AM 7.18 44.924 0.021 6.56 2.63 12.07
4/23/2022 7:45:00 AM 7.17 44.906 0.021 6.56 2.58 12.09
4/23/2022 8:00:00 AM 7.16 44.888 0.021 6.56 2.48 12.1
4/23/2022 8:15:00 AM 7.16 44.888 0.021 6.57 2.54 12.11
4/23/2022 8:30:00 AM 7.16 44.888 0.021 6.58 2.52 12.12
4/23/2022 8:45:00 AM 7.18 44.924 0.021 6.59 2.54 12.13
4/23/2022 9:00:00 AM 7.2 44.96 0.021 6.6 2.59 12.15
4/23/2022 9:15:00 AM 7.21 44.978 0.021 6.62 2.54 12.16
4/23/2022 9:30:00 AM 7.23 45.014 0.021 6.62 2.55 12.17
4/23/2022 9:45:00 AM 7.25 45.05 0.021 6.63 2.43 12.17
4/23/2022 10:00:00 AM 7.28 45.104 0.021 6.64 2.36 12.18
4/23/2022 10:15:00 AM 7.34 45.212 0.021 6.64 2.44 12.18
4/23/2022 10:30:00 AM 7.4 45.32 0.021 6.65 2.42 12.18
4/23/2022 10:45:00 AM 7.47 45.446 0.021 6.66 2.36 12.17
4/23/2022 11:00:00 AM 7.6 45.68 0.021 6.68 2.28 12.16
4/23/2022 11:15:00 AM 7.72 45.896 0.021 6.69 2.36 12.15
4/23/2022 11:30:00 AM 7.85 46.13 0.021 6.71 2.38 12.13
4/23/2022 11:45:00 AM 7.94 46.292 0.021 6.72 2.31 12.11
4/23/2022 12:00:00 PM 8.03 46.454 0.021 6.73 2.36 12.09
4/23/2022 12:15:00 PM 8.16 46.688 0.021 6.75 2.34 12.07
4/23/2022 12:30:00 PM 8.31 46.958 0.021 6.74 2.38 12.04
4/23/2022 12:45:00 PM 8.47 47.246 0.021 6.76 2.24 12
4/23/2022 1:00:00 PM 8.59 47.462 0.021 6.77 2.3 11.97
4/23/2022 1:15:00 PM 8.73 47.714 0.021 6.78 2.23 11.94
4/23/2022 1:30:00 PM 8.88 47.984 0.021 6.79 2.27 11.9
4/23/2022 1:45:00 PM 8.97 48.146 0.021 6.8 2.2 11.86
4/23/2022 2:00:00 PM 8.94 48.092 0.021 6.79 2.17 11.83
4/23/2022 2:15:00 PM 8.9 48.02 0.021 6.79 2.36 11.8
4/23/2022 2:30:00 PM 8.94 48.092 0.021 6.79 2.23 11.79
4/23/2022 2:45:00 PM 9.01 48.218 0.021 6.81 2.39 11.77
4/23/2022 3:00:00 PM 9.05 48.29 0.021 6.8 2.28 11.75
4/23/2022 3:15:00 PM 9.05 48.29 0.021 6.8 2.07 11.73
4/23/2022 3:30:00 PM 9.05 48.29 0.021 6.8 2.31 11.69
4/23/2022 3:45:00 PM 9.04 48.272 0.021 6.8 2.23 11.66
4/23/2022 4:00:00 PM 9.02 48.236 0.021 6.79 2.3 11.65
4/23/2022 4:15:00 PM 9.03 48.254 0.021 6.8 2.12 11.64
4/23/2022 4:30:00 PM 9.05 48.29 0.021 6.8 2.26 11.63
4/23/2022 4:45:00 PM 9.08 48.344 0.021 6.8 2.2 11.63
4/23/2022 5:00:00 PM 9.14 48.452 0.021 6.8 2.17 11.62
4/23/2022 5:15:00 PM 9.2 48.56 0.021 6.8 2.08 11.61
4/23/2022 5:30:00 PM 9.27 48.686 0.022 6.82 2.13 11.6
4/23/2022 5:45:00 PM 9.34 48.812 0.022 6.82 2.23 11.59
4/23/2022 6:00:00 PM 9.37 48.866 0.022 6.83 2.27 11.57
4/23/2022 6:15:00 PM 9.4 48.92 0.021 6.83 2.24 11.56
4/23/2022 6:30:00 PM 9.4 48.92 0.021 6.83 2.43 11.54
4/23/2022 6:45:00 PM 9.38 48.884 0.021 6.83 2.18 11.52
4/23/2022 7:00:00 PM 9.36 48.848 0.021 6.82 2.34 11.51
4/23/2022 7:15:00 PM 9.33 48.794 0.021 6.82 2.16 11.49
4/23/2022 7:30:00 PM 9.31 48.758 0.021 6.82 2.26 11.47
4/23/2022 7:45:00 PM 9.28 48.704 0.021 6.81 2.24 11.45
4/23/2022 8:00:00 PM 9.25 48.65 0.021 6.8 2.28 11.44
4/23/2022 8:15:00 PM 9.2 48.56 0.021 6.8 2.34 11.43
4/23/2022 8:30:00 PM 9.15 48.47 0.021 6.78 2.32 11.43
4/23/2022 8:45:00 PM 9.1 48.38 0.021 6.77 2.27 11.44
4/23/2022 9:00:00 PM 9.05 48.29 0.022 6.78 2.38 11.45
4/23/2022 9:15:00 PM 9 48.2 0.022 6.77 2.31 11.45
4/23/2022 9:30:00 PM 8.95 48.11 0.021 6.77 2.46 11.46
4/23/2022 9:45:00 PM 8.9 48.02 0.022 6.77 2.44 11.47
4/23/2022 10:00:00 PM 8.85 47.93 0.022 6.76 2.24 11.48
4/23/2022 10:15:00 PM 8.8 47.84 0.022 6.75 2.28 11.49
4/23/2022 10:30:00 PM 8.75 47.75 0.022 6.75 2.41 11.5
4/23/2022 10:45:00 PM 8.7 47.66 0.022 6.75 2.3 11.52
4/23/2022 11:00:00 PM 8.66 47.588 0.022 6.74 2.34 11.53
4/23/2022 11:15:00 PM 8.62 47.516 0.022 6.75 2.34 11.54
4/23/2022 11:30:00 PM 8.57 47.426 0.022 6.75 2.29 11.54
4/23/2022 11:45:00 PM 8.52 47.336 0.022 6.74 2.4 11.56
4/24/2022 12:00:00 AM 8.47 47.246 0.022 6.73 2.49 11.57
4/24/2022 12:15:00 AM 8.42 47.156 0.022 6.74 2.33 11.58
4/24/2022 12:30:00 AM 8.36 47.048 0.022 6.73 2.39 11.6
4/24/2022 12:45:00 AM 8.31 46.958 0.022 6.73 2.24 11.62
4/24/2022 1:00:00 AM 8.26 46.868 0.022 6.73 2.16 11.62
4/24/2022 1:15:00 AM 8.21 46.778 0.022 6.73 2.28 11.64
4/24/2022 1:30:00 AM 8.15 46.67 0.022 6.73 2.13 11.65
4/24/2022 1:45:00 AM 8.1 46.58 0.022 6.72 2.45 11.67
4/24/2022 2:00:00 AM 8.05 46.49 0.022 6.72 2.31 11.68
4/24/2022 2:15:00 AM 8 46.4 0.022 6.72 2.23 11.69
4/24/2022 2:30:00 AM 7.95 46.31 0.022 6.72 2.27 11.7
4/24/2022 2:45:00 AM 7.9 46.22 0.022 6.72 2.2 11.71
4/24/2022 3:00:00 AM 7.85 46.13 0.022 6.72 2.17 11.72
4/24/2022 3:15:00 AM 7.8 46.04 0.022 6.72 2.12 11.74
4/24/2022 3:30:00 AM 7.75 45.95 0.022 6.71 2.17 11.75
4/24/2022 3:45:00 AM 7.71 45.878 0.022 6.71 2.15 11.76
4/24/2022 4:00:00 AM 7.66 45.788 0.022 6.71 2.14 11.77
4/24/2022 4:15:00 AM 7.61 45.698 0.022 6.71 2.21 11.79
4/24/2022 4:30:00 AM 7.57 45.626 0.022 6.71 2.21 11.8
4/24/2022 4:45:00 AM 7.52 45.536 0.022 6.7 2.16 11.82
4/24/2022 5:00:00 AM 7.48 45.464 0.022 6.7 2.15 11.83
4/24/2022 5:15:00 AM 7.43 45.374 0.022 6.71 2.19 11.84
4/24/2022 5:30:00 AM 7.39 45.302 0.022 6.69 2.16 11.85
4/24/2022 5:45:00 AM 7.35 45.23 0.022 6.69 2.09 11.87
4/24/2022 6:00:00 AM 7.31 45.158 0.022 6.7 2.12 11.88
4/24/2022 6:15:00 AM 7.27 45.086 0.022 6.7 2.15 11.89
4/24/2022 6:30:00 AM 7.25 45.05 0.022 6.69 2.31 11.91
4/24/2022 6:45:00 AM 7.22 44.996 0.022 6.7 2.2 11.94
4/24/2022 7:00:00 AM 7.22 44.996 0.022 6.7 2.19 11.97
4/24/2022 7:15:00 AM 7.23 45.014 0.022 6.71 2.05 12
4/24/2022 7:30:00 AM 7.26 45.068 0.022 6.72 2.12 12.03
4/24/2022 7:45:00 AM 7.28 45.104 0.022 6.73 2.1 12.05
4/24/2022 8:00:00 AM 7.32 45.176 0.022 6.74 2.09 12.07
4/24/2022 8:15:00 AM 7.4 45.32 0.023 6.75 2.02 12.07
4/24/2022 8:30:00 AM 7.44 45.392 0.022 6.77 2.08 12.06
4/24/2022 8:45:00 AM 7.5 45.5 0.022 6.77 2.11 12.07
4/24/2022 9:00:00 AM 7.6 45.68 0.022 6.78 2 12.06
4/24/2022 9:15:00 AM 7.71 45.878 0.022 6.79 1.96 12.05
4/24/2022 9:30:00 AM 7.83 46.094 0.022 6.81 2.01 12.04
4/24/2022 9:45:00 AM 7.95 46.31 0.023 6.83 2.02 12.02
4/24/2022 10:00:00 AM 8.1 46.58 0.023 6.84 2.03 12
4/24/2022 10:15:00 AM 8.27 46.886 0.022 6.85 2.09 11.98
4/24/2022 10:30:00 AM 8.46 47.228 0.023 6.86 1.99 11.95
4/24/2022 10:45:00 AM 8.64 47.552 0.023 6.87 1.96 11.91
4/24/2022 11:00:00 AM 8.85 47.93 0.023 6.88 2.01 11.88
4/24/2022 11:15:00 AM 9.06 48.308 0.022 6.89 2.16 11.83
4/24/2022 11:30:00 AM 9.28 48.704 0.023 6.91 2.08 11.78
4/24/2022 11:45:00 AM 9.49 49.082 0.022 6.92 2.24 11.74
4/24/2022 12:00:00 PM 9.71 49.478 0.022 6.93 1.99 11.69
4/24/2022 12:15:00 PM 9.94 49.892 0.022 6.94 1.96 11.63
4/24/2022 12:30:00 PM 10.18 50.324 0.022 6.95 1.98 11.58
4/24/2022 12:45:00 PM 10.41 50.738 0.023 6.97 2.05 11.52
4/24/2022 1:00:00 PM 10.64 51.152 0.022 6.98 1.96 11.47
4/24/2022 1:15:00 PM 10.86 51.548 0.022 7 1.92 11.42
4/24/2022 1:30:00 PM 11.07 51.926 0.022 7.01 2.02 11.36
4/24/2022 1:45:00 PM 11.28 52.304 0.022 7.02 2.06 11.31
4/24/2022 2:00:00 PM 11.46 52.628 0.022 7.04 1.98 11.26
4/24/2022 2:15:00 PM 11.65 52.97 0.022 7.04 2.05 11.21
4/24/2022 2:30:00 PM 11.83 53.294 0.022 7.05 1.94 11.16
4/24/2022 2:45:00 PM 11.99 53.582 0.022 7.06 2.18 11.12
4/24/2022 3:00:00 PM 12.16 53.888 0.022 7.06 1.99 11.07
4/24/2022 3:15:00 PM 12.29 54.122 0.022 7.08 2 11.03
4/24/2022 3:30:00 PM 12.42 54.356 0.022 7.08 2.01 10.98
4/24/2022 3:45:00 PM 12.53 54.554 0.023 7.1 2.03 10.94
4/24/2022 4:00:00 PM 12.63 54.734 0.022 7.11 1.97 10.9
4/24/2022 4:15:00 PM 12.7 54.86 0.022 7.11 2.03 10.87
4/24/2022 4:30:00 PM 12.76 54.968 0.022 7.14 1.88 10.83
4/24/2022 4:45:00 PM 12.81 55.058 0.022 7.15 1.94 10.81
4/24/2022 5:00:00 PM 12.84 55.112 0.023 7.15 2.03 10.78
4/24/2022 5:15:00 PM 12.85 55.13 0.022 7.15 2.02 10.76
4/24/2022 5:30:00 PM 12.85 55.13 0.022 7.17 1.96 10.74
4/24/2022 5:45:00 PM 12.85 55.13 0.022 7.13 2.14 10.72
4/24/2022 6:00:00 PM 12.82 55.076 0.023 7.14 1.96 10.7
4/24/2022 6:15:00 PM 12.79 55.022 0.023 7.16 1.98 10.69
4/24/2022 6:30:00 PM 12.75 54.95 0.022 7.14 1.98 10.67
4/24/2022 6:45:00 PM 12.7 54.86 0.022 7.12 2.13 10.65
4/24/2022 7:00:00 PM 12.65 54.77 0.022 7.12 2.06 10.63
4/24/2022 7:15:00 PM 12.6 54.68 0.022 7.12 2.1 10.6
4/24/2022 7:30:00 PM 12.56 54.608 0.023 7.13 1.98 10.57
4/24/2022 7:45:00 PM 12.52 54.536 0.022 7.11 2 10.55
4/24/2022 8:00:00 PM 12.49 54.482 0.023 7.1 2.24 10.53
4/24/2022 8:15:00 PM 12.46 54.428 0.023 7.09 2.06 10.51
4/24/2022 8:30:00 PM 12.43 54.374 0.023 7.09 1.96 10.5
4/24/2022 8:45:00 PM 12.4 54.32 0.023 7.08 2.11 10.5
4/24/2022 9:00:00 PM 12.37 54.266 0.023 7.08 3.08 10.5
4/24/2022 9:15:00 PM 12.33 54.194 0.023 7.08 2.1 10.51
4/24/2022 9:30:00 PM 12.29 54.122 0.023 7.09 2.16 10.51
4/24/2022 9:45:00 PM 12.26 54.068 0.023 7.08 2.28 10.52
4/24/2022 10:00:00 PM 12.22 53.996 0.023 7.08 2.21 10.52
4/24/2022 10:15:00 PM 12.18 53.924 0.023 7.07 2.03 10.53
4/24/2022 10:30:00 PM 12.14 53.852 0.023 7.08 2.17 10.54
4/24/2022 10:45:00 PM 12.1 53.78 0.023 7.07 2.08 10.54
4/24/2022 11:00:00 PM 12.06 53.708 0.023 7.07 2.18 10.54
4/24/2022 11:15:00 PM 12.02 53.636 0.023 7.09 1.99 10.56
4/24/2022 11:30:00 PM 11.98 53.564 0.023 7.09 2.14 10.57
4/24/2022 11:45:00 PM 11.93 53.474 0.023 7.07 2.15 10.58
4/25/2022 12:00:00 AM 11.89 53.402 0.023 7.07 2.14 10.6
4/25/2022 12:15:00 AM 11.84 53.312 0.023 7.08 2.05 10.6
4/25/2022 12:30:00 AM 11.78 53.204 0.023 7.06 2.03 10.62
4/25/2022 12:45:00 AM 11.72 53.096 0.023 7.07 2.14 10.63
4/25/2022 1:00:00 AM 11.65 52.97 0.023 7.06 2.1 10.64
4/25/2022 1:15:00 AM 11.59 52.862 0.023 7.06 2.09 10.66
4/25/2022 1:30:00 AM 11.52 52.736 0.023 7.06 2.17 10.67
4/25/2022 1:45:00 AM 11.45 52.61 0.023 7.04 2.14 10.69
4/25/2022 2:00:00 AM 11.38 52.484 0.024 7.05 2.15 10.71
4/25/2022 2:15:00 AM 11.31 52.358 0.023 7.05 2.19 10.73
4/25/2022 2:30:00 AM 11.24 52.232 0.023 7.05 2.17 10.73
4/25/2022 2:45:00 AM 11.18 52.124 0.023 7.04 2.28 10.76
4/25/2022 3:00:00 AM 11.11 51.998 0.023 7.04 2.32 10.77
4/25/2022 3:15:00 AM 11.05 51.89 0.023 7.04 2.38 10.79
4/25/2022 3:30:00 AM 10.99 51.782 0.023 7.01 2.59 10.81
4/25/2022 3:45:00 AM 10.93 51.674 0.023 7.01 2.67 10.83
4/25/2022 4:00:00 AM 10.87 51.566 0.023 7.02 2.47 10.83
4/25/2022 4:15:00 AM 10.81 51.458 0.023 7 2.22 10.85
4/25/2022 4:30:00 AM 10.75 51.35 0.023 7 2.07 10.87
4/25/2022 4:45:00 AM 10.69 51.242 0.023 7 2.16 10.89
4/25/2022 5:00:00 AM 10.63 51.134 0.023 7 2.19 10.89
4/25/2022 5:15:00 AM 10.57 51.026 0.023 7 2.25 10.91
4/25/2022 5:30:00 AM 10.52 50.936 0.023 7 2.13 10.92
4/25/2022 5:45:00 AM 10.47 50.846 0.023 6.99 2.1 10.94
4/25/2022 6:00:00 AM 10.42 50.756 0.023 6.99 2.21 10.96
4/25/2022 6:15:00 AM 10.38 50.684 0.023 7 2.2 10.97
4/25/2022 6:30:00 AM 10.33 50.594 0.023 6.98 2.19 10.99
4/25/2022 6:45:00 AM 10.29 50.522 0.024 7 2.28 11.01
4/25/2022 7:00:00 AM 10.26 50.468 0.023 6.99 2.12 11.05
4/25/2022 7:15:00 AM 10.23 50.414 0.024 7.01 2.26 11.09
4/25/2022 7:30:00 AM 10.22 50.396 0.023 7.01 2.22 11.12
4/25/2022 7:45:00 AM 10.21 50.378 0.024 7.02 2.32 11.16
4/25/2022 8:00:00 AM 10.21 50.378 0.023 7.03 2.2 11.18
4/25/2022 8:15:00 AM 10.21 50.378 0.024 7.03 2.1 11.2
4/25/2022 8:30:00 AM 10.22 50.396 0.024 7.07 2.21 11.22
4/25/2022 8:45:00 AM 10.25 50.45 0.023 7.08 2.16 11.25
4/25/2022 9:00:00 AM 10.3 50.54 0.023 7.11 2.13 11.26
4/25/2022 9:15:00 AM 10.36 50.648 0.023 7.11 2.32 11.27
4/25/2022 9:30:00 AM 10.46 50.828 0.023 7.13 2.19 11.28
4/25/2022 9:45:00 AM 10.59 51.062 0.024 7.14 2.18 11.28
4/25/2022 10:00:00 AM 10.71 51.278 0.024 7.14 2.11 11.28
4/25/2022 10:15:00 AM 10.86 51.548 0.024 7.17 2.35 11.26
4/25/2022 10:30:00 AM 11 51.8 0.024 7.19 2.12 11.24
4/25/2022 10:45:00 AM 11.17 52.106 0.023 7.19 2.3 11.22
4/25/2022 11:00:00 AM 11.36 52.448 0.023 7.21 2.42 11.19
4/25/2022 11:15:00 AM 11.54 52.772 0.024 7.22 2.23 11.16
4/25/2022 11:30:00 AM 11.73 53.114 0.023 7.25 2.24 11.12
4/25/2022 11:45:00 AM 11.91 53.438 0.024 7.25 2.37 11.1
4/25/2022 12:00:00 PM 12.09 53.762 0.024 7.26 2.14 11.06
4/25/2022 12:15:00 PM 12.29 54.122 0.024 7.28 2.28 11.02
4/25/2022 12:30:00 PM 12.49 54.482 0.024 7.29 2.2 10.98
4/25/2022 12:45:00 PM 12.71 54.878 0.024 7.3 2.25 10.94
4/25/2022 1:00:00 PM 12.91 55.238 0.024 7.31 2.2 10.9
4/25/2022 1:15:00 PM 13.11 55.598 0.024 7.32 2.22 10.86
4/25/2022 1:30:00 PM 13.3 55.94 0.024 7.34 2.2 10.82
4/25/2022 1:45:00 PM 13.48 56.264 0.024 7.36 2.05 10.77
4/25/2022 2:00:00 PM 13.64 56.552 0.024 7.39 2.2 10.74
4/25/2022 2:15:00 PM 13.79 56.822 0.024 7.41 2.04 10.7
4/25/2022 2:30:00 PM 13.94 57.092 0.024 7.41 2.16 10.66
4/25/2022 2:45:00 PM 14.08 57.344 0.024 7.41 2.07 10.63
4/25/2022 3:00:00 PM 14.18 57.524 0.024 7.41 2.2 10.59
4/25/2022 3:15:00 PM 14.29 57.722 0.024 7.42 2.15 10.56
4/25/2022 3:30:00 PM 14.38 57.884 0.024 7.44 2.18 10.54
4/25/2022 3:45:00 PM 14.43 57.974 0.024 7.44 2.06 10.51
4/25/2022 4:00:00 PM 14.48 58.064 0.024 7.44 2.11 10.49
4/25/2022 4:15:00 PM 14.5 58.1 0.024 7.45 2.13 10.46
4/25/2022 4:30:00 PM 14.51 58.118 0.024 7.44 2.07 10.44
4/25/2022 4:45:00 PM 14.51 58.118 0.024 7.45 2.14 10.43
4/25/2022 5:00:00 PM 14.47 58.046 0.024 7.44 2.07 10.42
4/25/2022 5:15:00 PM 14.42 57.956 0.024 7.44 2.06 10.41
4/25/2022 5:30:00 PM 14.36 57.848 0.024 7.44 2.21 10.39
4/25/2022 5:45:00 PM 14.28 57.704 0.024 7.45 2.14 10.4
4/25/2022 6:00:00 PM 14.19 57.542 0.024 7.44 2.14 10.38
4/25/2022 6:15:00 PM 14.08 57.344 0.024 7.43 2.16 10.38
4/25/2022 6:30:00 PM 13.93 57.074 0.024 7.42 2.85 10.36
4/25/2022 6:45:00 PM 13.79 56.822 0.024 7.41 1.97 10.36
4/25/2022 7:00:00 PM 13.68 56.624 0.024 7.4 2.18 10.36
4/25/2022 7:15:00 PM 13.58 56.444 0.024 7.38 2.17 10.36
4/25/2022 7:30:00 PM 13.5 56.3 0.024 7.37 2.16 10.33
4/25/2022 7:45:00 PM 13.42 56.156 0.024 7.36 2.12 10.33
4/25/2022 8:00:00 PM 13.34 56.012 0.024 7.34 2.26 10.31
4/25/2022 8:15:00 PM 13.27 55.886 0.024 7.34 2.18 10.3
4/25/2022 8:30:00 PM 13.21 55.778 0.024 7.34 2.32 10.29
4/25/2022 8:45:00 PM 13.16 55.688 0.024 7.33 2.28 10.28
4/25/2022 9:00:00 PM 13.11 55.598 0.024 7.31 2.35 10.29
4/25/2022 9:15:00 PM 13.06 55.508 0.025 7.3 2.29 10.29
4/25/2022 9:30:00 PM 13.02 55.436 0.025 7.32 2.3 10.29
4/25/2022 9:45:00 PM 12.97 55.346 0.025 7.32 2.24 10.3
4/25/2022 10:00:00 PM 12.93 55.274 0.025 7.32 2.4 10.31
4/25/2022 10:15:00 PM 12.9 55.22 0.025 7.31 2.34 10.31
4/25/2022 10:30:00 PM 12.86 55.148 0.025 7.3 2.29 10.32
4/25/2022 10:45:00 PM 12.82 55.076 0.025 7.3 2.21 10.32
4/25/2022 11:00:00 PM 12.79 55.022 0.025 7.29 2.3 10.32
4/25/2022 11:15:00 PM 12.75 54.95 0.025 7.3 2.28 10.34
4/25/2022 11:30:00 PM 12.71 54.878 0.025 7.32 2.27 10.34
4/25/2022 11:45:00 PM 12.67 54.806 0.025 7.28 2.2 10.35
4/26/2022 12:00:00 AM 12.64 54.752 0.025 7.31 2.26 10.36
4/26/2022 12:15:00 AM 12.59 54.662 0.025 7.31 2.31 10.37
4/26/2022 12:30:00 AM 12.55 54.59 0.025 7.3 2.23 10.38
4/26/2022 12:45:00 AM 12.51 54.518 0.025 7.31 2.18 10.39
4/26/2022 1:00:00 AM 12.47 54.446 0.025 7.29 2.23 10.4
4/26/2022 1:15:00 AM 12.42 54.356 0.025 7.29 2.23 10.41
4/26/2022 1:30:00 AM 12.37 54.266 0.025 7.31 2.06 10.41
4/26/2022 1:45:00 AM 12.32 54.176 0.025 7.3 2.2 10.42
4/26/2022 2:00:00 AM 12.27 54.086 0.025 7.29 2.09 10.44
4/26/2022 2:15:00 AM 12.23 54.014 0.025 7.29 2.25 10.46
4/26/2022 2:30:00 AM 12.18 53.924 0.025 7.27 2.26 10.47
4/26/2022 2:45:00 AM 12.13 53.834 0.025 7.26 2.22 10.47
4/26/2022 3:00:00 AM 12.08 53.744 0.025 7.26 2.23 10.49
4/26/2022 3:15:00 AM 12.03 53.654 0.025 7.27 2.3 10.5
4/26/2022 3:30:00 AM 11.99 53.582 0.025 7.26 2.31 10.51
4/26/2022 3:45:00 AM 11.95 53.51 0.025 7.27 2.2 10.51
4/26/2022 4:00:00 AM 11.9 53.42 0.025 7.27 2.38 10.53
4/26/2022 4:15:00 AM 11.86 53.348 0.025 7.25 2.11 10.54
4/26/2022 4:30:00 AM 11.82 53.276 0.025 7.25 2.41 10.56
4/26/2022 4:45:00 AM 11.78 53.204 0.025 7.24 2.29 10.57
4/26/2022 5:00:00 AM 11.74 53.132 0.025 7.25 2.36 10.58
4/26/2022 5:15:00 AM 11.69 53.042 0.025 7.24 2.19 10.58
4/26/2022 5:30:00 AM 11.64 52.952 0.025 7.23 2.44 10.6
4/26/2022 5:45:00 AM 11.6 52.88 0.025 7.21 2.37 10.61
4/26/2022 6:00:00 AM 11.56 52.808 0.025 7.2 2.22 10.62
4/26/2022 6:15:00 AM 11.52 52.736 0.025 7.2 2.4 10.63
4/26/2022 6:30:00 AM 11.49 52.682 0.025 7.2 2.38 10.63
4/26/2022 6:45:00 AM 11.45 52.61 0.025 7.19 2.39 10.66
4/26/2022 7:00:00 AM 11.42 52.556 0.025 7.19 2.37 10.68
4/26/2022 7:15:00 AM 11.39 52.502 0.025 7.2 2.31 10.69
4/26/2022 7:30:00 AM 11.37 52.466 0.025 7.18 2.37 10.7
4/26/2022 7:45:00 AM 11.34 52.412 0.025 7.19 2.33 10.73
4/26/2022 8:00:00 AM 11.32 52.376 0.025 7.19 2.31 10.75
4/26/2022 8:15:00 AM 11.3 52.34 0.025 7.19 2.26 10.77
4/26/2022 8:30:00 AM 11.29 52.322 0.025 7.2 2.38 10.81
4/26/2022 8:45:00 AM 11.29 52.322 0.025 7.21 2.36 10.85
4/26/2022 9:00:00 AM 11.29 52.322 0.025 7.21 2.46 10.87
4/26/2022 9:15:00 AM 11.28 52.304 0.025 7.21 2.29 10.88
4/26/2022 9:30:00 AM 11.29 52.322 0.025 7.22 2.34 10.91
4/26/2022 9:45:00 AM 11.31 52.358 0.025 7.23 2.29 10.93
4/26/2022 10:00:00 AM 11.34 52.412 0.025 7.23 2.22 10.95
4/26/2022 10:15:00 AM 11.36 52.448 0.025 7.25 2.24 10.96
4/26/2022 10:30:00 AM 11.38 52.484 0.025 7.25 2.18 10.96
4/26/2022 10:45:00 AM 11.4 52.52 0.025 7.25 2.27 10.98
4/26/2022 11:00:00 AM 11.41 52.538 0.025 7.26 2.32 10.98
4/26/2022 11:15:00 AM 11.45 52.61 0.025 7.27 2.34 10.99
4/26/2022 11:30:00 AM 11.5 52.7 0.025 7.27 2.3 10.99
4/26/2022 11:45:00 AM 11.54 52.772 0.025 7.27 2.28 10.99
4/26/2022 12:00:00 PM 11.56 52.808 0.025 7.29 2.38 10.99
4/26/2022 12:15:00 PM 11.58 52.844 0.025 7.27 3.47 10.98
4/26/2022 12:30:00 PM 11.59 52.862 0.025 7.29 2.36 10.97
4/26/2022 12:45:00 PM 11.61 52.898 0.025 7.28 2.26 10.97
4/26/2022 1:00:00 PM 11.62 52.916 0.025 7.28 2.33 10.97
4/26/2022 1:15:00 PM 11.64 52.952 0.025 7.28 2.42 10.97
4/26/2022 1:30:00 PM 11.64 52.952 0.025 7.29 2.23 10.95
4/26/2022 1:45:00 PM 11.65 52.97 0.025 7.29 2.4 10.94
4/26/2022 2:00:00 PM 11.68 53.024 0.025 7.29 2.28 10.95
4/26/2022 2:15:00 PM 11.72 53.096 0.025 7.29 2.26 10.95
4/26/2022 2:30:00 PM 11.77 53.186 0.025 7.29 2.26 10.95
4/26/2022 2:45:00 PM 11.81 53.258 0.025 7.3 2.49 10.95
4/26/2022 3:00:00 PM 11.81 53.258 0.025 7.31 2.15 10.94
4/26/2022 3:15:00 PM 11.84 53.312 0.025 7.3 2.17 10.94
4/26/2022 3:30:00 PM 11.84 53.312 0.025 7.31 2.29 10.91
4/26/2022 3:45:00 PM 11.82 53.276 0.025 7.31 2.21 10.89
4/26/2022 4:00:00 PM 11.79 53.222 0.025 7.28 2.28 10.86
4/26/2022 4:15:00 PM 11.76 53.168 0.025 7.28 2.27 10.85
4/26/2022 4:30:00 PM 11.73 53.114 0.025 7.27 2.31 10.84
4/26/2022 4:45:00 PM 11.72 53.096 0.025 7.27 2.24 10.84
4/26/2022 5:00:00 PM 11.71 53.078 0.025 7.27 2.31 10.83
4/26/2022 5:15:00 PM 11.69 53.042 0.025 7.26 2.33 10.83
4/26/2022 5:30:00 PM 11.67 53.006 0.025 7.26 2.32 10.82
4/26/2022 5:45:00 PM 11.65 52.97 0.025 7.26 2.3 10.82
4/26/2022 6:00:00 PM 11.64 52.952 0.025 7.27 2.37 10.81
4/26/2022 6:15:00 PM 11.62 52.916 0.025 7.26 2.3 10.8
4/26/2022 6:30:00 PM 11.6 52.88 0.025 7.26 2.34 10.79
4/26/2022 6:45:00 PM 11.57 52.826 0.026 7.26 2.38 10.77
4/26/2022 7:00:00 PM 11.55 52.79 0.027 7.25 2.44 10.75
4/26/2022 7:15:00 PM 11.52 52.736 0.026 7.24 2.55 10.75
4/26/2022 7:30:00 PM 11.5 52.7 0.026 7.23 2.39 10.73
4/26/2022 7:45:00 PM 11.48 52.664 0.026 7.23 2.36 10.72
4/26/2022 8:00:00 PM 11.45 52.61 0.026 7.21 2.41 10.71
4/26/2022 8:15:00 PM 11.42 52.556 0.025 7.2 2.25 10.7
4/26/2022 8:30:00 PM 11.38 52.484 0.026 7.21 2.41 10.69
4/26/2022 8:45:00 PM 11.35 52.43 0.025 7.21 2.35 10.69
4/26/2022 9:00:00 PM 11.31 52.358 0.025 7.21 2.56 10.68
4/26/2022 9:15:00 PM 11.27 52.286 0.025 7.2 2.41 10.69
4/26/2022 9:30:00 PM 11.23 52.214 0.025 7.2 2.41 10.7
4/26/2022 9:45:00 PM 11.17 52.106 0.025 7.19 2.43 10.71
4/26/2022 10:00:00 PM 11.11 51.998 0.025 7.19 2.46 10.72
4/26/2022 10:15:00 PM 11.06 51.908 0.026 7.19 2.33 10.72
4/26/2022 10:30:00 PM 11.01 51.818 0.025 7.19 2.36 10.75
4/26/2022 10:45:00 PM 10.96 51.728 0.025 7.19 2.39 10.75
4/26/2022 11:00:00 PM 10.91 51.638 0.025 7.19 2.42 10.77
4/26/2022 11:15:00 PM 10.86 51.548 0.025 7.18 2.47 10.78
4/26/2022 11:30:00 PM 10.81 51.458 0.025 7.16 2.36 10.8
4/26/2022 11:45:00 PM 10.76 51.368 0.025 7.17 2.34 10.81
4/27/2022 12:00:00 AM 10.71 51.278 0.025 7.17 2.64 10.83
4/27/2022 12:15:00 AM 10.64 51.152 0.025 7.16 2.33 10.85
4/27/2022 12:30:00 AM 10.58 51.044 0.025 7.17 2.39 10.86
4/27/2022 12:45:00 AM 10.51 50.918 0.025 7.15 2.4 10.87
4/27/2022 1:00:00 AM 10.44 50.792 0.026 7.15 2.35 10.88
4/27/2022 1:15:00 AM 10.36 50.648 0.026 7.15 2.33 10.9
4/27/2022 1:30:00 AM 10.27 50.486 0.025 7.15 2.42 10.91
4/27/2022 1:45:00 AM 10.18 50.324 0.026 7.14 2.25 10.92
4/27/2022 2:00:00 AM 10.08 50.144 0.025 7.13 2.25 10.95
4/27/2022 2:15:00 AM 10 50 0.025 7.13 2.29 10.97
4/27/2022 2:30:00 AM 9.93 49.874 0.025 7.12 2.31 10.99
4/27/2022 2:45:00 AM 9.86 49.748 0.026 7.12 2.2 11.01
4/27/2022 3:00:00 AM 9.8 49.64 0.026 7.13 2.14 11.03
4/27/2022 3:15:00 AM 9.74 49.532 0.026 7.09 2.4 11.04
4/27/2022 3:30:00 AM 9.68 49.424 0.026 7.1 2.18 11.06
4/27/2022 3:45:00 AM 9.61 49.298 0.025 7.1 2.31 11.08
4/27/2022 4:00:00 AM 9.53 49.154 0.025 7.1 2.25 11.1
4/27/2022 4:15:00 AM 9.45 49.01 0.025 7.08 2.36 11.12
4/27/2022 4:30:00 AM 9.38 48.884 0.026 7.07 2.26 11.1
4/27/2022 4:45:00 AM 9.31 48.758 0.025 7.08 2.37 11.15
4/27/2022 5:00:00 AM 9.27 48.686 0.026 7.07 2.5 11.16
4/27/2022 5:15:00 AM 9.21 48.578 0.025 7.07 2.66 11.18
4/27/2022 5:30:00 AM 9.14 48.452 0.025 7.07 2.53 11.19
4/27/2022 5:45:00 AM 9.07 48.326 0.026 7.05 2.28 11.21
4/27/2022 6:00:00 AM 8.98 48.164 0.026 7.05 2.53 11.23
4/27/2022 6:15:00 AM 8.91 48.038 0.026 7.04 2.58 11.24
4/27/2022 6:30:00 AM 8.83 47.894 0.025 7.05 2.45 11.28
4/27/2022 6:45:00 AM 8.77 47.786 0.026 7.04 2.44 11.32
4/27/2022 7:00:00 AM 8.71 47.678 0.026 7.06 2.41 11.35
4/27/2022 7:15:00 AM 8.67 47.606 0.026 7.06 2.35 11.42
4/27/2022 7:30:00 AM 8.66 47.588 0.025 7.06 2.44 11.47
4/27/2022 7:45:00 AM 8.63 47.534 0.026 7.06 2.15 11.5
4/27/2022 8:00:00 AM 8.61 47.498 0.025 7.08 2.5 11.53
4/27/2022 8:15:00 AM 8.59 47.462 0.025 7.07 2.3 11.57
4/27/2022 8:30:00 AM 8.61 47.498 0.026 7.08 2.27 11.58
4/27/2022 8:45:00 AM 8.66 47.588 0.025 7.1 2.31 11.62
4/27/2022 9:00:00 AM 8.71 47.678 0.026 7.11 2.46 11.63
4/27/2022 9:15:00 AM 8.69 47.642 0.025 7.12 2.33 11.64
4/27/2022 9:30:00 AM 8.71 47.678 0.025 7.13 2.4 11.66
4/27/2022 9:45:00 AM 8.73 47.714 0.026 7.11 2.25 11.67
4/27/2022 10:00:00 AM 8.77 47.786 0.026 7.12 2.17 11.65
4/27/2022 10:15:00 AM 8.76 47.768 0.025 7.12 2.39 11.67
4/27/2022 10:30:00 AM 8.71 47.678 0.025 7.12 2.24 11.67
4/27/2022 10:45:00 AM 8.65 47.57 0.025 7.11 2.38 11.67
4/27/2022 11:00:00 AM 8.64 47.552 0.025 7.11 2.43 11.69
4/27/2022 11:15:00 AM 8.65 47.57 0.025 7.12 2.42 11.7
4/27/2022 11:30:00 AM 8.63 47.534 0.025 7.11 2.16 11.7
4/27/2022 11:45:00 AM 8.6 47.48 0.025 7.12 2.48 11.7
4/27/2022 12:00:00 PM 8.58 47.444 0.025 7.12 2.49 11.71
4/27/2022 12:15:00 PM 8.55 47.39 0.026 7.12 2.24 11.68
4/27/2022 12:30:00 PM 8.51 47.318 0.025 7.11 2.17 11.71
4/27/2022 12:45:00 PM 8.52 47.336 0.025 7.11 2.26 11.7
4/27/2022 1:00:00 PM 8.51 47.318 0.026 7.11 2.17 11.69
4/27/2022 1:15:00 PM 8.47 47.246 0.025 7.11 2.22 11.71
4/27/2022 1:30:00 PM 8.44 47.192 0.025 7.11 2.38 11.72
4/27/2022 1:45:00 PM 8.39 47.102 0.025 7.1 2.23 11.71
4/27/2022 2:00:00 PM 8.36 47.048 0.025 7.1 2.14 11.74
4/27/2022 2:15:00 PM 8.38 47.084 0.025 7.1 2.22 11.75
4/27/2022 2:30:00 PM 8.43 47.174 0.025 7.11 2.14 11.76
4/27/2022 2:45:00 PM 8.46 47.228 0.025 7.11 2.12 11.77
4/27/2022 3:00:00 PM 8.46 47.228 0.025 7.12 2.26 11.77
4/27/2022 3:15:00 PM 8.43 47.174 0.025 7.12 2.08 11.75
4/27/2022 3:30:00 PM 8.4 47.12 0.025 7.1 2.11 11.75
4/27/2022 3:45:00 PM 8.36 47.048 0.025 7.09 2.3 11.73
4/27/2022 4:00:00 PM 8.31 46.958 0.025 7.08 2.23 11.71
4/27/2022 4:15:00 PM 8.28 46.904 0.025 7.11 2.23 11.75
4/27/2022 4:30:00 PM 8.27 46.886 0.026 7.08 2.22 11.74
4/27/2022 4:45:00 PM 8.25 46.85 0.025 7.08 2.12 11.76
4/27/2022 5:00:00 PM 8.23 46.814 0.025 7.08 2.1 11.75
4/27/2022 5:15:00 PM 8.19 46.742 0.025 7.08 2.2 11.77
4/27/2022 5:30:00 PM 8.15 46.67 0.025 7.07 2.17 11.78
4/27/2022 5:45:00 PM 8.11 46.598 0.026 7.07 2.12 11.77
4/27/2022 6:00:00 PM 8.05 46.49 0.025 7.06 2.48 11.76
4/27/2022 6:15:00 PM 7.98 46.364 0.026 7.06 2.25 11.77
4/27/2022 6:30:00 PM 7.92 46.256 0.026 7.04 2.41 11.77
4/27/2022 6:45:00 PM 7.87 46.166 0.025 7.05 2.04 11.76
4/27/2022 7:00:00 PM 7.82 46.076 0.026 7.03 2.2 11.75
4/27/2022 7:15:00 PM 7.76 45.968 0.025 7.03 2.26 11.74
4/27/2022 7:30:00 PM 7.69 45.842 0.026 7.02 2.12 11.72
4/27/2022 7:45:00 PM 7.63 45.734 0.026 7.01 2.05 11.72
4/27/2022 8:00:00 PM 7.56 45.608 0.026 7 2.2 11.72
4/27/2022 8:15:00 PM 7.49 45.482 0.026 6.99 2.1 11.72
4/27/2022 8:30:00 PM 7.42 45.356 0.026 6.98 2.73 11.72
4/27/2022 8:45:00 PM 7.35 45.23 0.026 6.98 3.31 11.74
4/27/2022 9:00:00 PM 7.29 45.122 0.026 6.99 2.51 11.76
4/27/2022 9:15:00 PM 7.23 45.014 0.026 6.98 2.52 11.77
4/27/2022 9:30:00 PM 7.16 44.888 0.026 6.98 2.04 11.78
4/27/2022 9:45:00 PM 7.09 44.762 0.026 6.98 2.29 11.81
4/27/2022 10:00:00 PM 7.01 44.618 0.026 6.98 2.25 11.82
4/27/2022 10:15:00 PM 6.94 44.492 0.026 6.96 2.26 11.85
4/27/2022 10:30:00 PM 6.88 44.384 0.026 6.96 2.18 11.85
4/27/2022 10:45:00 PM 6.82 44.276 0.026 6.95 2.22 11.89
4/27/2022 11:00:00 PM 6.78 44.204 0.026 6.95 2.18 11.89
4/27/2022 11:15:00 PM 6.73 44.114 0.026 6.94 2.16 11.91
4/27/2022 11:30:00 PM 6.69 44.042 0.026 6.94 2.27 11.92
4/27/2022 11:45:00 PM 6.65 43.97 0.026 6.94 2.2 11.95
4/28/2022 12:00:00 AM 6.61 43.898 0.026 6.95 2.22 11.96
4/28/2022 12:15:00 AM 6.57 43.826 0.026 6.95 2.05 11.97
4/28/2022 12:30:00 AM 6.53 43.754 0.026 6.95 2.16 11.97
4/28/2022 12:45:00 AM 6.47 43.646 0.026 6.96 2.2 12
4/28/2022 1:00:00 AM 6.42 43.556 0.026 6.94 2.07 12.02
4/28/2022 1:15:00 AM 6.38 43.484 0.026 6.95 2.1 12.03
4/28/2022 1:30:00 AM 6.33 43.394 0.026 6.95 2.29 12.04
4/28/2022 1:45:00 AM 6.28 43.304 0.026 6.94 2.26 12.07
4/28/2022 2:00:00 AM 6.23 43.214 0.026 6.94 2.01 12.08
4/28/2022 2:15:00 AM 6.18 43.124 0.026 6.94 2.03 12.08
4/28/2022 2:30:00 AM 6.11 42.998 0.026 6.94 2.15 12.11
4/28/2022 2:45:00 AM 6.06 42.908 0.026 6.92 2.05 12.12
4/28/2022 3:00:00 AM 6.02 42.836 0.026 6.92 1.99 12.12
4/28/2022 3:15:00 AM 5.98 42.764 0.026 6.92 2.23 12.16
4/28/2022 3:30:00 AM 5.94 42.692 0.026 6.92 2.12 12.17
4/28/2022 3:45:00 AM 5.89 42.602 0.026 6.91 2.07 12.18
4/28/2022 4:00:00 AM 5.85 42.53 0.026 6.91 2.04 12.2
4/28/2022 4:15:00 AM 5.82 42.476 0.026 6.91 1.98 12.21
4/28/2022 4:30:00 AM 5.77 42.386 0.026 6.92 2.08 12.22
4/28/2022 4:45:00 AM 5.73 42.314 0.026 6.91 2.26 12.25
4/28/2022 5:00:00 AM 5.68 42.224 0.026 6.9 2.17 12.26
4/28/2022 5:15:00 AM 5.64 42.152 0.026 6.9 1.99 12.27
4/28/2022 5:30:00 AM 5.59 42.062 0.026 6.9 2.06 12.29
4/28/2022 5:45:00 AM 5.53 41.954 0.026 6.89 2.03 12.3
4/28/2022 6:00:00 AM 5.47 41.846 0.026 6.89 2.02 12.32
4/28/2022 6:15:00 AM 5.42 41.756 0.026 6.89 2.19 12.34
4/28/2022 6:30:00 AM 5.39 41.702 0.026 6.88 2.01 12.36
4/28/2022 6:45:00 AM 5.36 41.648 0.026 6.88 2.05 12.38
4/28/2022 7:00:00 AM 5.35 41.63 0.026 6.88 2.05 12.42
4/28/2022 7:15:00 AM 5.32 41.576 0.026 6.89 1.89 12.47
4/28/2022 7:30:00 AM 5.31 41.558 0.026 6.89 1.98 12.51
4/28/2022 7:45:00 AM 5.31 41.558 0.026 6.9 2.1 12.56
4/28/2022 8:00:00 AM 5.32 41.576 0.026 6.91 2 12.6
4/28/2022 8:15:00 AM 5.33 41.594 0.026 6.92 1.89 12.63
4/28/2022 8:30:00 AM 5.38 41.684 0.026 6.93 1.93 12.66
4/28/2022 8:45:00 AM 5.45 41.81 0.026 6.93 1.95 12.66
4/28/2022 9:00:00 AM 5.51 41.918 0.026 6.96 1.86 12.67
4/28/2022 9:15:00 AM 5.56 42.008 0.026 6.94 1.95 12.67
4/28/2022 9:30:00 AM 5.64 42.152 0.026 6.96 2.07 12.67
4/28/2022 9:45:00 AM 5.75 42.35 0.026 6.97 1.84 12.65
4/28/2022 10:00:00 AM 5.88 42.584 0.026 6.99 1.81 12.63
4/28/2022 10:15:00 AM 6.04 42.872 0.026 7 1.9 12.62
4/28/2022 10:30:00 AM 6.21 43.178 0.026 7.02 1.85 12.61
4/28/2022 10:45:00 AM 6.39 43.502 0.026 7.02 1.91 12.57
4/28/2022 11:00:00 AM 6.56 43.808 0.026 7.03 1.86 12.54
4/28/2022 11:15:00 AM 6.76 44.168 0.026 7.05 1.83 12.51
4/28/2022 11:30:00 AM 6.96 44.528 0.026 7.06 1.86 12.46
4/28/2022 11:45:00 AM 7.14 44.852 0.026 7.07 1.77 12.41
4/28/2022 12:00:00 PM 7.35 45.23 0.026 7.08 1.92 12.37
4/28/2022 12:15:00 PM 7.55 45.59 0.026 7.1 1.82 12.32
4/28/2022 12:30:00 PM 7.77 45.986 0.026 7.11 1.83 12.26
4/28/2022 12:45:00 PM 7.98 46.364 0.026 7.12 1.95 12.2
4/28/2022 1:00:00 PM 8.21 46.778 0.026 7.12 1.75 12.15
4/28/2022 1:15:00 PM 8.41 47.138 0.026 7.13 1.84 12.09
4/28/2022 1:30:00 PM 8.64 47.552 0.025 7.16 1.93 12.03
4/28/2022 1:45:00 PM 8.88 47.984 0.025 7.17 1.85 11.99
4/28/2022 2:00:00 PM 9.03 48.254 0.026 7.18 1.82 11.92
4/28/2022 2:15:00 PM 9.2 48.56 0.026 7.18 1.88 11.87
4/28/2022 2:30:00 PM 9.35 48.83 0.025 7.19 1.9 11.83
4/28/2022 2:45:00 PM 9.48 49.064 0.026 7.2 1.78 11.78
4/28/2022 3:00:00 PM 9.6 49.28 0.026 7.2 1.79 11.75
4/28/2022 3:15:00 PM 9.71 49.478 0.025 7.21 2.05 11.71
4/28/2022 3:30:00 PM 9.78 49.604 0.025 7.22 1.86 11.68
4/28/2022 3:45:00 PM 9.82 49.676 0.025 7.22 1.83 11.66
4/28/2022 4:00:00 PM 9.84 49.712 0.026 7.23 1.85 11.63
4/28/2022 4:15:00 PM 9.85 49.73 0.025 7.22 1.8 11.61
4/28/2022 4:30:00 PM 9.83 49.694 0.025 7.22 1.85 11.61
4/28/2022 4:45:00 PM 9.78 49.604 0.026 7.22 1.89 11.58
4/28/2022 5:00:00 PM 9.73 49.514 0.025 7.21 1.96 11.58
4/28/2022 5:15:00 PM 9.64 49.352 0.025 7.2 1.99 11.58
4/28/2022 5:30:00 PM 9.51 49.118 0.025 7.19 1.9 11.59
4/28/2022 5:45:00 PM 9.39 48.902 0.025 7.18 1.98 11.6
4/28/2022 6:00:00 PM 9.23 48.614 0.025 7.18 1.9 11.62
4/28/2022 6:15:00 PM 9.05 48.29 0.025 7.15 1.99 11.63
4/28/2022 6:30:00 PM 8.88 47.984 0.025 7.14 1.9 11.65
4/28/2022 6:45:00 PM 8.68 47.624 0.025 7.12 1.99 11.67
4/28/2022 7:00:00 PM 8.52 47.336 0.026 7.1 1.87 11.68
4/28/2022 7:15:00 PM 8.34 47.012 0.025 7.1 2.01 11.68
4/28/2022 7:30:00 PM 8.16 46.688 0.025 7.07 2.06 11.69
4/28/2022 7:45:00 PM 8.01 46.418 0.025 7.06 1.93 11.7
4/28/2022 8:00:00 PM 7.87 46.166 0.026 7.02 2.06 11.7
4/28/2022 8:15:00 PM 7.77 45.986 0.026 7.02 1.92 11.7
4/28/2022 8:30:00 PM 7.68 45.824 0.026 7.01 2.02 11.7
4/28/2022 8:45:00 PM 7.59 45.662 0.026 6.99 2 11.7
4/28/2022 9:00:00 PM 7.51 45.518 0.026 6.99 1.93 11.71
4/28/2022 9:15:00 PM 7.43 45.374 0.026 6.98 2.42 11.72
4/28/2022 9:30:00 PM 7.37 45.266 0.026 6.99 2.04 11.75
4/28/2022 9:45:00 PM 7.3 45.14 0.026 6.97 2.04 11.76
4/28/2022 10:00:00 PM 7.24 45.032 0.026 6.97 2.07 11.77
4/28/2022 10:15:00 PM 7.17 44.906 0.026 6.97 2.03 11.79
4/28/2022 10:30:00 PM 7.11 44.798 0.026 6.96 1.98 11.8
4/28/2022 10:45:00 PM 7.05 44.69 0.026 6.96 2 11.82
4/28/2022 11:00:00 PM 6.99 44.582 0.026 6.95 2 11.83
4/28/2022 11:15:00 PM 6.93 44.474 0.026 6.96 2.05 11.86
4/28/2022 11:30:00 PM 6.87 44.366 0.026 6.95 1.92 11.87
4/28/2022 11:45:00 PM 6.81 44.258 0.026 6.94 2.06 11.89
4/29/2022 12:00:00 AM 6.76 44.168 0.026 6.93 2.11 11.9
4/29/2022 12:15:00 AM 6.7 44.06 0.026 6.93 2 11.92
4/29/2022 12:30:00 AM 6.64 43.952 0.026 6.93 1.94 11.94
4/29/2022 12:45:00 AM 6.59 43.862 0.026 6.92 2.05 11.96
4/29/2022 1:00:00 AM 6.53 43.754 0.026 6.92 2 11.96
4/29/2022 1:15:00 AM 6.47 43.646 0.026 6.91 2.08 11.98
4/29/2022 1:30:00 AM 6.41 43.538 0.026 6.92 1.97 12
4/29/2022 1:45:00 AM 6.35 43.43 0.026 6.91 2.12 12.02
4/29/2022 2:00:00 AM 6.29 43.322 0.026 6.91 1.93 12.04
4/29/2022 2:15:00 AM 6.23 43.214 0.026 6.91 2.04 12.06
4/29/2022 2:30:00 AM 6.18 43.124 0.026 6.91 1.91 12.08
4/29/2022 2:45:00 AM 6.12 43.016 0.026 6.89 1.94 12.09
4/29/2022 3:00:00 AM 6.06 42.908 0.026 6.9 1.92 12.12
4/29/2022 3:15:00 AM 6 42.8 0.026 6.9 1.99 12.14
4/29/2022 3:30:00 AM 5.94 42.692 0.026 6.9 1.94 12.17
4/29/2022 3:45:00 AM 5.87 42.566 0.026 6.89 1.94 12.19
4/29/2022 4:00:00 AM 5.81 42.458 0.026 6.87 1.92 12.2
4/29/2022 4:15:00 AM 5.75 42.35 0.026 6.87 2.04 12.22
4/29/2022 4:30:00 AM 5.68 42.224 0.026 6.86 1.92 12.25
4/29/2022 4:45:00 AM 5.62 42.116 0.027 6.86 1.86 12.27
4/29/2022 5:00:00 AM 5.55 41.99 0.026 6.85 2 12.29
4/29/2022 5:15:00 AM 5.47 41.846 0.026 6.84 1.98 12.32
4/29/2022 5:30:00 AM 5.39 41.702 0.026 6.84 1.94 12.35
4/29/2022 5:45:00 AM 5.33 41.594 0.027 6.83 1.84 12.37
4/29/2022 6:00:00 AM 5.26 41.468 0.026 6.83 2.59 12.39
4/29/2022 6:15:00 AM 5.18 41.324 0.026 6.82 1.94 12.42
4/29/2022 6:30:00 AM 5.11 41.198 0.026 6.83 1.98 12.46
4/29/2022 6:45:00 AM 5.06 41.108 0.026 6.82 1.91 12.49
4/29/2022 7:00:00 AM 5.02 41.036 0.026 6.84 1.94 12.54
4/29/2022 7:15:00 AM 5 41 0.027 6.82 1.92 12.58
4/29/2022 7:30:00 AM 5 41 0.026 6.84 2 12.63
4/29/2022 7:45:00 AM 5.02 41.036 0.027 6.85 1.91 12.67
4/29/2022 8:00:00 AM 5.06 41.108 0.026 6.86 1.82 12.69
4/29/2022 8:15:00 AM 5.11 41.198 0.027 6.87 1.94 12.72
4/29/2022 8:30:00 AM 5.16 41.288 0.026 6.89 1.85 12.75
4/29/2022 8:45:00 AM 5.23 41.414 0.027 6.89 1.99 12.75
4/29/2022 9:00:00 AM 5.31 41.558 0.026 6.91 1.87 12.76
4/29/2022 9:15:00 AM 5.41 41.738 0.026 6.93 1.86 12.76
4/29/2022 9:30:00 AM 5.53 41.954 0.026 6.92 2.22 12.75
4/29/2022 9:45:00 AM 5.67 42.206 0.026 6.95 1.93 12.75
4/29/2022 10:00:00 AM 5.83 42.494 0.026 6.96 1.87 12.73
4/29/2022 10:15:00 AM 6.01 42.818 0.026 6.98 1.93 12.7
4/29/2022 10:30:00 AM 6.2 43.16 0.027 6.98 1.72 12.66
4/29/2022 10:45:00 AM 6.41 43.538 0.026 7.01 1.83 12.62
4/29/2022 11:00:00 AM 6.64 43.952 0.026 7.03 1.8 12.59
4/29/2022 11:15:00 AM 6.86 44.348 0.026 7.03 1.8 12.53
4/29/2022 11:30:00 AM 7.11 44.798 0.026 7.05 1.74 12.48
4/29/2022 11:45:00 AM 7.32 45.176 0.026 7.06 1.83 12.43
4/29/2022 12:00:00 PM 7.56 45.608 0.026 7.06 1.82 12.38
4/29/2022 12:15:00 PM 7.82 46.076 0.026 7.09 1.78 12.33
4/29/2022 12:30:00 PM 8.05 46.49 0.026 7.08 1.77 12.25
4/29/2022 12:45:00 PM 8.29 46.922 0.026 7.12 1.77 12.19
4/29/2022 1:00:00 PM 8.55 47.39 0.026 7.12 1.74 12.12
4/29/2022 1:15:00 PM 8.77 47.786 0.027 7.13 1.84 12.05
4/29/2022 1:30:00 PM 9.07 48.326 0.026 7.15 1.8 11.99
4/29/2022 1:45:00 PM 9.27 48.686 0.026 7.16 1.84 11.92
4/29/2022 2:00:00 PM 9.49 49.082 0.026 7.17 1.77 11.87
4/29/2022 2:15:00 PM 9.7 49.46 0.026 7.2 1.78 11.81
4/29/2022 2:30:00 PM 9.88 49.784 0.026 7.18 1.81 11.75
4/29/2022 2:45:00 PM 10.05 50.09 0.026 7.22 1.79 11.7
4/29/2022 3:00:00 PM 10.16 50.288 0.026 7.21 1.74 11.66
4/29/2022 3:15:00 PM 10.3 50.54 0.026 7.23 1.89 11.61
4/29/2022 3:30:00 PM 10.38 50.684 0.026 7.23 2 11.56
4/29/2022 3:45:00 PM 10.45 50.81 0.026 7.23 1.9 11.54
4/29/2022 4:00:00 PM 10.51 50.918 0.026 7.25 1.84 11.52
4/29/2022 4:15:00 PM 10.53 50.954 0.026 7.25 1.97 11.5
4/29/2022 4:30:00 PM 10.52 50.936 0.026 7.25 1.8 11.47
4/29/2022 4:45:00 PM 10.49 50.882 0.026 7.24 1.93 11.46
4/29/2022 5:00:00 PM 10.43 50.774 0.026 7.24 1.78 11.45
4/29/2022 5:15:00 PM 10.35 50.63 0.026 7.25 1.84 11.45
4/29/2022 5:30:00 PM 10.24 50.432 0.026 7.23 1.98 11.46
4/29/2022 5:45:00 PM 10.13 50.234 0.026 7.22 1.81 11.46
4/29/2022 6:00:00 PM 9.99 49.982 0.026 7.21 1.85 11.46
4/29/2022 6:15:00 PM 9.81 49.658 0.026 7.21 1.82 11.48
4/29/2022 6:30:00 PM 9.64 49.352 0.026 7.2 1.89 11.49
4/29/2022 6:45:00 PM 9.48 49.064 0.026 7.18 1.93 11.51
4/29/2022 7:00:00 PM 9.3 48.74 0.026 7.17 1.94 11.52
4/29/2022 7:15:00 PM 9.11 48.398 0.026 7.16 1.92 11.53
4/29/2022 7:30:00 PM 8.94 48.092 0.027 7.14 2.13 11.52
4/29/2022 7:45:00 PM 8.76 47.768 0.027 7.11 1.97 11.53
4/29/2022 8:00:00 PM 8.62 47.516 0.027 7.09 2.02 11.51
4/29/2022 8:15:00 PM 8.49 47.282 0.027 7.08 2.04 11.53
4/29/2022 8:30:00 PM 8.38 47.084 0.027 7.06 2.05 11.52
4/29/2022 8:45:00 PM 8.27 46.886 0.028 7.06 2.1 11.53
4/29/2022 9:00:00 PM 8.17 46.706 0.028 7.05 2.19 11.53
4/29/2022 9:15:00 PM 8.08 46.544 0.027 7.04 1.99 11.55
4/29/2022 9:30:00 PM 7.99 46.382 0.028 7.03 2.17 11.57
4/29/2022 9:45:00 PM 7.9 46.22 0.027 7.02 2.06 11.6
4/29/2022 10:00:00 PM 7.82 46.076 0.027 7.03 2.04 11.61
4/29/2022 10:15:00 PM 7.74 45.932 0.027 7 2.02 11.63
4/29/2022 10:30:00 PM 7.66 45.788 0.027 7 2.02 11.64
4/29/2022 10:45:00 PM 7.58 45.644 0.027 6.99 1.98 11.66
4/29/2022 11:00:00 PM 7.5 45.5 0.027 6.99 2.07 11.69
4/29/2022 11:15:00 PM 7.42 45.356 0.027 6.98 2.07 11.71
4/29/2022 11:30:00 PM 7.35 45.23 0.027 6.99 2.02 11.72
4/29/2022 11:45:00 PM 7.28 45.104 0.027 6.97 1.99 11.75
4/30/2022 12:00:00 AM 7.2 44.96 0.027 6.96 2.2 11.77
4/30/2022 12:15:00 AM 7.14 44.852 0.027 6.96 2.04 11.79
4/30/2022 12:30:00 AM 7.07 44.726 0.027 6.96 2.1 11.79
4/30/2022 12:45:00 AM 7 44.6 0.027 6.96 2.17 11.81
4/30/2022 1:00:00 AM 6.94 44.492 0.027 6.97 2.11 11.83
4/30/2022 1:15:00 AM 6.88 44.384 0.027 6.97 2.05 11.86
4/30/2022 1:30:00 AM 6.82 44.276 0.027 6.97 1.97 11.87
4/30/2022 1:45:00 AM 6.76 44.168 0.027 6.97 2.01 11.9
4/30/2022 2:00:00 AM 6.69 44.042 0.027 6.96 1.99 11.91
4/30/2022 2:15:00 AM 6.62 43.916 0.027 6.96 2.01 11.94
4/30/2022 2:30:00 AM 6.56 43.808 0.027 6.96 1.94 11.96
4/30/2022 2:45:00 AM 6.49 43.682 0.027 6.95 1.95 11.97
4/30/2022 3:00:00 AM 6.42 43.556 0.027 6.95 1.97 11.99
4/30/2022 3:15:00 AM 6.35 43.43 0.027 6.94 1.91 12.01
4/30/2022 3:30:00 AM 6.27 43.286 0.028 6.94 2.14 12.04
4/30/2022 3:45:00 AM 6.19 43.142 0.027 6.94 1.96 12.06
4/30/2022 4:00:00 AM 6.12 43.016 0.028 6.93 1.9 12.08
4/30/2022 4:15:00 AM 6.04 42.872 0.027 6.93 2.14 12.11
4/30/2022 4:30:00 AM 5.97 42.746 0.027 6.93 2.03 12.13
4/30/2022 4:45:00 AM 5.89 42.602 0.028 6.92 2.04 12.15
4/30/2022 5:00:00 AM 5.82 42.476 0.028 6.91 1.94 12.18
4/30/2022 5:15:00 AM 5.74 42.332 0.028 6.91 1.97 12.2
4/30/2022 5:30:00 AM 5.65 42.17 0.027 6.91 1.87 12.23
4/30/2022 5:45:00 AM 5.57 42.026 0.028 6.9 1.93 12.24
4/30/2022 6:00:00 AM 5.49 41.882 0.028 6.89 1.88 12.27
4/30/2022 6:15:00 AM 5.41 41.738 0.028 6.89 2.23 12.31
4/30/2022 6:30:00 AM 5.33 41.594 0.027 6.9 2.06 12.37
4/30/2022 6:45:00 AM 5.27 41.486 0.027 6.89 1.97 12.41
4/30/2022 7:00:00 AM 5.21 41.378 0.027 6.9 2.02 12.47
4/30/2022 7:15:00 AM 5.18 41.324 0.027 6.9 1.99 12.51
4/30/2022 7:30:00 AM 5.16 41.288 0.028 6.91 2.02 12.57
4/30/2022 7:45:00 AM 5.16 41.288 0.028 6.91 1.95 12.61
4/30/2022 8:00:00 AM 5.19 41.342 0.028 6.92 1.94 12.65
4/30/2022 8:15:00 AM 5.23 41.414 0.028 6.94 1.95 12.69
4/30/2022 8:30:00 AM 5.3 41.54 0.028 6.95 1.97 12.7
4/30/2022 8:45:00 AM 5.38 41.684 0.028 6.97 1.99 12.72
4/30/2022 9:00:00 AM 5.49 41.882 0.028 6.97 1.89 12.72
4/30/2022 9:15:00 AM 5.61 42.098 0.028 6.99 1.85 12.72
4/30/2022 9:30:00 AM 5.75 42.35 0.028 7 1.88 12.71
4/30/2022 9:45:00 AM 5.92 42.656 0.028 7.02 1.9 12.69
4/30/2022 10:00:00 AM 6.1 42.98 0.028 7.03 1.84 12.67
4/30/2022 10:15:00 AM 6.33 43.394 0.028 7.05 1.92 12.63
4/30/2022 10:30:00 AM 6.57 43.826 0.028 7.08 1.85 12.59
4/30/2022 10:45:00 AM 6.8 44.24 0.028 7.08 1.88 12.56
4/30/2022 11:00:00 AM 7.06 44.708 0.028 7.1 1.84 12.48
4/30/2022 11:15:00 AM 7.31 45.158 0.028 7.12 1.81 12.44
4/30/2022 11:30:00 AM 7.61 45.698 0.028 7.13 1.79 12.38
4/30/2022 11:45:00 AM 7.86 46.148 0.028 7.14 1.79 12.31
4/30/2022 12:00:00 PM 8.13 46.634 0.028 7.16 1.87 12.26
4/30/2022 12:15:00 PM 8.41 47.138 0.028 7.18 1.85 12.18
4/30/2022 12:30:00 PM 8.66 47.588 0.028 7.19 1.86 12.12
4/30/2022 12:45:00 PM 8.94 48.092 0.028 7.2 1.75 12.05
4/30/2022 1:00:00 PM 9.24 48.632 0.028 7.22 1.76 11.98
4/30/2022 1:15:00 PM 9.52 49.136 0.027 7.25 1.7 11.91
4/30/2022 1:30:00 PM 9.79 49.622 0.027 7.26 1.89 11.83
4/30/2022 1:45:00 PM 10.04 50.072 0.028 7.27 1.73 11.77
4/30/2022 2:00:00 PM 10.33 50.594 0.027 7.3 1.75 11.7
4/30/2022 2:15:00 PM 10.54 50.972 0.028 7.29 1.82 11.62
4/30/2022 2:30:00 PM 10.82 51.476 0.027 7.32 1.85 11.57
4/30/2022 2:45:00 PM 10.99 51.782 0.027 7.34 1.67 11.5
4/30/2022 3:00:00 PM 11.18 52.124 0.028 7.35 1.83 11.43
4/30/2022 3:15:00 PM 11.37 52.466 0.027 7.37 1.77 11.39
4/30/2022 3:30:00 PM 11.49 52.682 0.027 7.38 1.75 11.33
4/30/2022 3:45:00 PM 11.6 52.88 0.028 7.37 1.74 11.29
4/30/2022 4:00:00 PM 11.69 53.042 0.028 7.38 1.81 11.24
4/30/2022 4:15:00 PM 11.74 53.132 0.028 7.38 1.7 11.22
4/30/2022 4:30:00 PM 11.77 53.186 0.028 7.38 1.83 11.19
4/30/2022 4:45:00 PM 11.75 53.15 0.028 7.4 1.82 11.18
4/30/2022 5:00:00 PM 11.7 53.06 0.027 7.4 1.82 11.18
4/30/2022 5:15:00 PM 11.62 52.916 0.028 7.38 1.86 11.17
4/30/2022 5:30:00 PM 11.53 52.754 0.027 7.39 1.74 11.17
4/30/2022 5:45:00 PM 11.41 52.538 0.028 7.38 1.8 11.17
4/30/2022 6:00:00 PM 11.25 52.25 0.027 7.36 1.86 11.18
4/30/2022 6:15:00 PM 11.09 51.962 0.028 7.35 1.81 11.18
4/30/2022 6:30:00 PM 10.91 51.638 0.027 7.36 1.96 11.21
4/30/2022 6:45:00 PM 10.73 51.314 0.027 7.33 2.04 11.21
4/30/2022 7:00:00 PM 10.56 51.008 0.027 7.33 1.87 11.23
4/30/2022 7:15:00 PM 10.4 50.72 0.027 7.3 1.89 11.25
4/30/2022 7:30:00 PM 10.25 50.45 0.027 7.28 1.88 11.25
4/30/2022 7:45:00 PM 10.11 50.198 0.028 7.25 1.88 11.21
4/30/2022 8:00:00 PM 9.97 49.946 0.027 7.25 1.93 11.21
4/30/2022 8:15:00 PM 9.85 49.73 0.028 7.21 1.96 11.2
4/30/2022 8:30:00 PM 9.73 49.514 0.028 7.21 1.97 11.17
4/30/2022 8:45:00 PM 9.61 49.298 0.028 7.2 1.92 11.18
4/30/2022 9:00:00 PM 9.49 49.082 0.028 7.17 1.97 11.18
4/30/2022 9:15:00 PM 9.37 48.866 0.028 7.17 1.96 11.19
4/30/2022 9:30:00 PM 9.26 48.668 0.028 7.15 2.02 11.19
4/30/2022 9:45:00 PM 9.14 48.452 0.028 7.11 1.9 11.22
4/30/2022 10:00:00 PM 9.03 48.254 0.028 7.1 2.01 11.24
4/30/2022 10:15:00 PM 8.91 48.038 0.028 7.11 1.93 11.27
4/30/2022 10:30:00 PM 8.8 47.84 0.027 7.1 1.99 11.31
4/30/2022 10:45:00 PM 8.7 47.66 0.029 7.08 1.98 11.29
4/30/2022 11:00:00 PM 8.59 47.462 0.029 7.07 2 11.33
4/30/2022 11:15:00 PM 8.49 47.282 0.028 7.08 2.02 11.37
4/30/2022 11:30:00 PM 8.39 47.102 0.028 7.07 2.1 11.41
4/30/2022 11:45:00 PM 8.3 46.94 0.028 7.06 2.02 11.42
5/1/2022 12:00:00 AM 8.22 46.796 0.028 7.05 1.96 11.45
5/1/2022 12:15:00 AM 8.13 46.634 0.028 7.04 1.93 11.46
5/1/2022 12:30:00 AM 8.05 46.49 0.028 7.04 2.04 11.49
5/1/2022 12:45:00 AM 7.97 46.346 0.028 7.04 1.99 11.5
5/1/2022 1:00:00 AM 7.89 46.202 0.028 7.03 2.48 11.52
5/1/2022 1:15:00 AM 7.81 46.058 0.028 7.03 1.95 11.56
5/1/2022 1:30:00 AM 7.73 45.914 0.028 7.03 3.47 11.57
5/1/2022 1:45:00 AM 7.66 45.788 0.028 7.02 1.98 11.59
5/1/2022 2:00:00 AM 7.58 45.644 0.028 7.03 1.96 11.63
5/1/2022 2:15:00 AM 7.52 45.536 0.028 7.01 2.04 11.63
5/1/2022 2:30:00 AM 7.45 45.41 0.028 7.02 1.89 11.66
5/1/2022 2:45:00 AM 7.38 45.284 0.028 7.01 2 11.66
5/1/2022 3:00:00 AM 7.31 45.158 0.028 7 1.97 11.68
5/1/2022 3:15:00 AM 7.24 45.032 0.028 7.01 2.05 11.71
5/1/2022 3:30:00 AM 7.17 44.906 0.028 7 1.97 11.71
5/1/2022 3:45:00 AM 7.1 44.78 0.028 7.01 1.93 11.74
5/1/2022 4:00:00 AM 7.03 44.654 0.028 7.01 1.89 11.77
5/1/2022 4:15:00 AM 6.96 44.528 0.029 7 1.92 11.79
5/1/2022 4:30:00 AM 6.89 44.402 0.029 6.98 1.94 11.8
5/1/2022 4:45:00 AM 6.83 44.294 0.029 6.98 2.08 11.79
5/1/2022 5:00:00 AM 6.76 44.168 0.029 6.98 2 11.84
5/1/2022 5:15:00 AM 6.7 44.06 0.03 6.97 1.94 11.82
5/1/2022 5:30:00 AM 6.62 43.916 0.029 6.98 2.19 11.88
5/1/2022 5:45:00 AM 6.54 43.772 0.029 7 2.03 11.91
5/1/2022 6:00:00 AM 6.48 43.664 0.03 6.98 1.91 11.9
5/1/2022 6:15:00 AM 6.41 43.538 0.03 6.95 1.86 11.9
5/1/2022 6:30:00 AM 6.34 43.412 0.03 6.97 1.92 11.95
5/1/2022 6:45:00 AM 6.27 43.286 0.029 6.97 2.05 12.02
5/1/2022 7:00:00 AM 6.23 43.214 0.029 6.98 2.03 12.09
5/1/2022 7:15:00 AM 6.21 43.178 0.03 6.95 1.88 12.08
5/1/2022 7:30:00 AM 6.2 43.16 0.031 6.93 1.84 12.11
5/1/2022 7:45:00 AM 6.21 43.178 0.032 6.97 2.02 12.15
5/1/2022 8:00:00 AM 6.26 43.268 0.029 7.01 1.86 12.3
5/1/2022 8:15:00 AM 6.32 43.376 0.028 7.03 2.01 12.31
5/1/2022 8:30:00 AM 6.38 43.484 0.03 7.03 1.91 12.33
5/1/2022 8:45:00 AM 6.46 43.628 0.031 6.99 1.86 12.28
5/1/2022 9:00:00 AM 6.6 43.88 0.029 7.06 1.78 12.35
5/1/2022 9:15:00 AM 6.74 44.132 0.03 7.02 1.88 12.31
5/1/2022 9:30:00 AM 6.95 44.51 0.03 7.05 1.77 12.29
5/1/2022 9:45:00 AM 7.09 44.762 0.031 7.08 1.76 12.28
5/1/2022 10:00:00 AM 7.36 45.248 0.03 7.05 1.78 12.23
5/1/2022 10:15:00 AM 7.54 45.572 0.029 7.13 1.85 12.24
5/1/2022 10:30:00 AM 7.78 46.004 0.031 7.1 1.88 12.19
5/1/2022 10:45:00 AM 8.09 46.562 0.029 7.16 1.84 12.17
5/1/2022 11:00:00 AM 8.41 47.138 0.029 7.17 1.78 12.11
5/1/2022 11:15:00 AM 8.63 47.534 0.029 7.2 1.82 12.06
5/1/2022 11:30:00 AM 8.88 47.984 0.031 7.14 1.81 11.95
5/1/2022 11:45:00 AM 9.22 48.596 0.029 7.2 2.04 11.91
5/1/2022 12:00:00 PM 9.44 48.992 0.03 7.21 1.76 11.83
5/1/2022 12:15:00 PM 9.74 49.532 0.031 7.22 1.85 11.76
5/1/2022 12:30:00 PM 10 50 0.031 7.26 1.8 11.73
5/1/2022 12:45:00 PM 10.27 50.486 0.03 7.25 1.86 11.65
5/1/2022 1:00:00 PM 10.57 51.026 0.031 7.26 1.78 11.6
5/1/2022 1:15:00 PM 10.75 51.35 0.029 7.26 1.7 11.52
5/1/2022 1:30:00 PM 11.02 51.836 0.029 7.31 1.87 11.49
5/1/2022 1:45:00 PM 11.19 52.142 0.029 7.35 1.81 11.45
5/1/2022 2:00:00 PM 11.28 52.304 0.03 7.36 1.77 11.38
5/1/2022 2:15:00 PM 11.33 52.394 0.03 7.32 1.78 11.31
5/1/2022 2:30:00 PM 11.37 52.466 0.03 7.32 1.79 11.27
5/1/2022 2:45:00 PM 11.44 52.592 0.03 7.37 1.76 11.26
5/1/2022 3:00:00 PM 11.47 52.646 0.029 7.38 2 11.25
5/1/2022 3:15:00 PM 11.44 52.592 0.03 7.36 1.75 11.18
5/1/2022 3:30:00 PM 11.41 52.538 0.028 7.39 2.07 11.19
5/1/2022 3:45:00 PM 11.35 52.43 0.029 7.37 1.75 11.17
5/1/2022 4:00:00 PM 11.26 52.268 0.029 7.36 1.78 11.13
5/1/2022 4:15:00 PM 11.17 52.106 0.03 7.33 1.9 11.11
5/1/2022 4:30:00 PM 11.07 51.926 0.031 7.3 1.89 11.06
5/1/2022 4:45:00 PM 10.98 51.764 0.029 7.29 1.82 11.04
5/1/2022 5:00:00 PM 10.89 51.602 0.03 7.29 1.83 11.06
5/1/2022 5:15:00 PM 10.82 51.476 0.029 7.31 1.91 11.08
5/1/2022 5:30:00 PM 10.75 51.35 0.03 7.29 1.72 11.06
5/1/2022 5:45:00 PM 10.66 51.188 0.029 7.3 1.98 11.09
5/1/2022 6:00:00 PM 10.6 51.08 0.03 7.29 1.82 11.07
5/1/2022 6:15:00 PM 10.54 50.972 0.029 7.31 1.95 11.13
5/1/2022 6:30:00 PM 10.47 50.846 0.029 7.29 1.84 11.1
5/1/2022 6:45:00 PM 10.41 50.738 0.029 7.28 1.94 11.1
5/1/2022 7:00:00 PM 10.34 50.612 0.03 7.24 1.98 11.06
5/1/2022 7:15:00 PM 10.29 50.522 0.03 7.24 1.96 11.08
5/1/2022 7:30:00 PM 10.23 50.414 0.03 7.23 2.04 11.07
5/1/2022 7:45:00 PM 10.17 50.306 0.031 7.23 1.87 11.06
5/1/2022 8:00:00 PM 10.1 50.18 0.031 7.21 1.79 11.02
5/1/2022 8:15:00 PM 10.04 50.072 0.029 7.22 1.88 11.06
5/1/2022 8:30:00 PM 9.98 49.964 0.03 7.21 1.92 11.04
5/1/2022 8:45:00 PM 9.93 49.874 0.029 7.23 2.2 11.04
5/1/2022 9:00:00 PM 9.87 49.766 0.029 7.23 1.88 11.05
5/1/2022 9:15:00 PM 9.81 49.658 0.03 7.17 1.77 10.99
5/1/2022 9:30:00 PM 9.76 49.568 0.03 7.2 1.9 11.05
5/1/2022 9:45:00 PM 9.71 49.478 0.03 7.21 1.88 11.03
5/1/2022 10:00:00 PM 9.67 49.406 0.029 7.18 2.07 11.07
5/1/2022 10:15:00 PM 9.63 49.334 0.03 7.15 2.02 11.01
5/1/2022 10:30:00 PM 9.59 49.262 0.03 7.14 1.92 11.02
5/1/2022 10:45:00 PM 9.56 49.208 0.03 7.19 1.91 11.07
5/1/2022 11:00:00 PM 9.53 49.154 0.031 7.17 1.89 11.05
5/1/2022 11:15:00 PM 9.51 49.118 0.03 7.18 2.14 11.09
5/1/2022 11:30:00 PM 9.48 49.064 0.032 7.14 1.84 11.05
5/1/2022 11:45:00 PM 9.47 49.046 0.03 7.18 2.02 11.1
5/2/2022 12:00:00 AM 9.46 49.028 0.029 7.18 1.92 11.11
5/2/2022 12:15:00 AM 9.45 49.01 0.03 7.19 1.96 11.13
5/2/2022 12:30:00 AM 9.44 48.992 0.03 7.19 1.91 11.08
5/2/2022 12:45:00 AM 9.43 48.974 0.031 7.13 1.89 11.05
5/2/2022 1:00:00 AM 9.44 48.992 0.03 7.19 2.03 11.12
5/2/2022 1:15:00 AM 9.44 48.992 0.029 7.2 1.98 11.12
5/2/2022 1:30:00 AM 9.42 48.956 0.032 7.15 1.89 11.06
5/2/2022 1:45:00 AM 9.43 48.974 0.031 7.16 2.07 11.06
5/2/2022 2:00:00 AM 9.43 48.974 0.03 7.2 1.94 11.12
5/2/2022 2:15:00 AM 9.43 48.974 0.029 7.21 2.17 11.12
5/2/2022 2:30:00 AM 9.43 48.974 0.03 7.18 2.47 11.1
5/2/2022 2:45:00 AM 9.42 48.956 0.03 7.19 2.33 11.11
5/2/2022 3:00:00 AM 9.41 48.938 0.03 7.19 2.3 11.11
5/2/2022 3:15:00 AM 9.41 48.938 0.03 7.19 2.24 11.11
5/2/2022 3:30:00 AM 9.4 48.92 0.03 7.18 2.3 11.1
5/2/2022 3:45:00 AM 9.4 48.92 0.03 7.19 2.27 11.11
5/2/2022 4:00:00 AM 9.4 48.92 0.03 7.2 2.12 11.1
5/2/2022 4:15:00 AM 9.39 48.902 0.03 7.18 2.7 11.1
5/2/2022 4:30:00 AM 9.39 48.902 0.029 7.21 2.18 11.13
5/2/2022 4:45:00 AM 9.39 48.902 0.029 7.19 2.29 11.12
5/2/2022 5:00:00 AM 9.38 48.884 0.029 7.2 2.84 11.13
5/2/2022 5:15:00 AM 9.37 48.866 0.03 7.18 2.54 11.12
5/2/2022 5:30:00 AM 9.36 48.848 0.029 7.19 2.53 11.13
5/2/2022 5:45:00 AM 9.36 48.848 0.029 7.19 2.58 11.13
5/2/2022 6:00:00 AM 9.36 48.848 0.029 7.18 2.43 11.14
5/2/2022 6:15:00 AM 9.36 48.848 0.029 7.19 2.29 11.14
5/2/2022 6:30:00 AM 9.36 48.848 0.029 7.19 2.32 11.15
5/2/2022 6:45:00 AM 9.36 48.848 0.029 7.18 2.15 11.16
5/2/2022 7:00:00 AM 9.36 48.848 0.029 7.2 2.17 11.19
5/2/2022 7:15:00 AM 9.37 48.866 0.029 7.2 2.04 11.21
5/2/2022 7:30:00 AM 9.37 48.866 0.029 7.21 2.2 11.22
5/2/2022 7:45:00 AM 9.39 48.902 0.029 7.2 1.96 11.27
5/2/2022 8:00:00 AM 9.4 48.92 0.029 7.23 2.39 11.29
5/2/2022 8:15:00 AM 9.42 48.956 0.029 7.25 2.01 11.31
5/2/2022 8:30:00 AM 9.44 48.992 0.029 7.26 2.15 11.34
5/2/2022 8:45:00 AM 9.48 49.064 0.029 7.28 2.16 11.37
5/2/2022 9:00:00 AM 9.52 49.136 0.029 7.27 2.18 11.4
5/2/2022 9:15:00 AM 9.58 49.244 0.029 7.29 2.11 11.42
5/2/2022 9:30:00 AM 9.64 49.352 0.029 7.32 2.64 11.45
5/2/2022 9:45:00 AM 9.7 49.46 0.028 7.31 2.14 11.48
5/2/2022 10:00:00 AM 9.77 49.586 0.028 7.34 2.16 11.5
5/2/2022 10:15:00 AM 9.87 49.766 0.028 7.35 2.2 11.51
5/2/2022 10:30:00 AM 9.95 49.91 0.029 7.36 2.02 11.5
5/2/2022 10:45:00 AM 10.08 50.144 0.028 7.35 2.2 11.5
5/2/2022 11:00:00 AM 10.24 50.432 0.028 7.38 2.21 11.5
5/2/2022 11:15:00 AM 10.38 50.684 0.028 7.4 2.07 11.48
5/2/2022 11:30:00 AM 10.44 50.792 0.029 7.38 2.08 11.45
5/2/2022 11:45:00 AM 10.48 50.864 0.028 7.42 2.09 11.44
5/2/2022 12:00:00 PM 10.49 50.882 0.029 7.4 2.08 11.4
5/2/2022 12:15:00 PM 10.49 50.882 0.028 7.4 2.1 11.39
5/2/2022 12:30:00 PM 10.5 50.9 0.028 7.41 2.14 11.38
5/2/2022 12:45:00 PM 10.52 50.936 0.028 7.4 2.21 11.37
5/2/2022 1:00:00 PM 10.59 51.062 0.028 7.41 2.11 11.38
5/2/2022 1:15:00 PM 10.67 51.206 0.028 7.41 2.2 11.37
5/2/2022 1:30:00 PM 10.77 51.386 0.028 7.41 2.06 11.36
5/2/2022 1:45:00 PM 10.95 51.71 0.028 7.42 2.12 11.35
5/2/2022 2:00:00 PM 11.09 51.962 0.028 7.42 2.05 11.33
5/2/2022 2:15:00 PM 11.17 52.106 0.028 7.44 2.14 11.29
5/2/2022 2:30:00 PM 11.18 52.124 0.028 7.44 2.02 11.27
5/2/2022 2:45:00 PM 11.16 52.088 0.028 7.43 2.04 11.22
5/2/2022 3:00:00 PM 11.13 52.034 0.028 7.42 2.07 11.2
5/2/2022 3:15:00 PM 11.11 51.998 0.028 7.41 1.98 11.18
5/2/2022 3:30:00 PM 11.13 52.034 0.028 7.41 2.14 11.2
5/2/2022 3:45:00 PM 11.23 52.214 0.028 7.4 2.02 11.2
5/2/2022 4:00:00 PM 11.36 52.448 0.028 7.43 2.11 11.19
5/2/2022 4:15:00 PM 11.49 52.682 0.028 7.45 1.94 11.19
5/2/2022 4:30:00 PM 11.59 52.862 0.028 7.46 1.98 11.17
5/2/2022 4:45:00 PM 11.69 53.042 0.028 7.45 2.15 11.15
5/2/2022 5:00:00 PM 11.74 53.132 0.028 7.48 2 11.13
5/2/2022 5:15:00 PM 11.74 53.132 0.028 7.49 2.01 11.12
5/2/2022 5:30:00 PM 11.71 53.078 0.028 7.5 2 11.12
5/2/2022 5:45:00 PM 11.67 53.006 0.028 7.48 2.06 11.09
5/2/2022 6:00:00 PM 11.63 52.934 0.028 7.48 2.01 11.07
5/2/2022 6:15:00 PM 11.59 52.862 0.028 7.48 2.06 11.05
5/2/2022 6:30:00 PM 11.54 52.772 0.028 7.45 1.97 11.01
5/2/2022 6:45:00 PM 11.49 52.682 0.028 7.44 2.06 10.98
5/2/2022 7:00:00 PM 11.43 52.574 0.028 7.44 1.95 10.95
5/2/2022 7:15:00 PM 11.36 52.448 0.028 7.41 2.05 10.91
5/2/2022 7:30:00 PM 11.3 52.34 0.028 7.41 2.03 10.9
5/2/2022 7:45:00 PM 11.25 52.25 0.028 7.39 2.19 10.86
5/2/2022 8:00:00 PM 11.19 52.142 0.028 7.39 2.09 10.86
5/2/2022 8:15:00 PM 11.13 52.034 0.029 7.38 2.07 10.83
5/2/2022 8:30:00 PM 11.07 51.926 0.029 7.37 2.15 10.82
5/2/2022 8:45:00 PM 11.02 51.836 0.029 7.36 2.15 10.82
5/2/2022 9:00:00 PM 10.97 51.746 0.031 7.34 2.19 10.81
5/2/2022 9:15:00 PM 10.92 51.656 0.029 7.35 2.14 10.81
5/2/2022 9:30:00 PM 10.88 51.584 0.03 7.34 2.24 10.8
5/2/2022 9:45:00 PM 10.85 51.53 0.03 7.31 2.17 10.79
5/2/2022 10:00:00 PM 10.82 51.476 0.029 7.34 2.15 10.81
5/2/2022 10:15:00 PM 10.78 51.404 0.029 7.32 2.22 10.83
5/2/2022 10:30:00 PM 10.75 51.35 0.029 7.32 2.18 10.84
5/2/2022 10:45:00 PM 10.72 51.296 0.029 7.3 2.15 10.82
5/2/2022 11:00:00 PM 10.68 51.224 0.029 7.32 2.33 10.85
5/2/2022 11:15:00 PM 10.63 51.134 0.029 7.34 2.14 10.86
5/2/2022 11:30:00 PM 10.57 51.026 0.028 7.27 2.16 10.88
5/2/2022 11:45:00 PM 10.5 50.9 0.029 7.3 2.27 10.88
5/3/2022 12:00:00 AM 10.42 50.756 0.029 7.29 2.02 10.89
5/3/2022 12:15:00 AM 10.35 50.63 0.029 7.26 2.38 10.9
5/3/2022 12:30:00 AM 10.28 50.504 0.029 7.27 2.14 10.92
5/3/2022 12:45:00 AM 10.2 50.36 0.028 7.25 2.12 10.94
5/3/2022 1:00:00 AM 10.14 50.252 0.028 7.26 2.14 10.95
5/3/2022 1:15:00 AM 10.07 50.126 0.028 7.25 2.11 10.97
5/3/2022 1:30:00 AM 10 50 0.029 7.24 2.17 10.97
5/3/2022 1:45:00 AM 9.94 49.892 0.029 7.21 2.12 10.99
5/3/2022 2:00:00 AM 9.87 49.766 0.028 7.22 2.07 11.01
5/3/2022 2:15:00 AM 9.82 49.676 0.029 7.21 2.31 11.02
5/3/2022 2:30:00 AM 9.77 49.586 0.029 7.19 2.01 11.03
5/3/2022 2:45:00 AM 9.73 49.514 0.029 7.2 1.99 11.04
5/3/2022 3:00:00 AM 9.7 49.46 0.028 7.2 2.16 11.06
5/3/2022 3:15:00 AM 9.68 49.424 0.028 7.2 2.11 11.07
5/3/2022 3:30:00 AM 9.66 49.388 0.028 7.2 2.19 11.09
5/3/2022 3:45:00 AM 9.64 49.352 0.028 7.21 2.13 11.09
5/3/2022 4:00:00 AM 9.6 49.28 0.029 7.19 2.2 11.09
5/3/2022 4:15:00 AM 9.56 49.208 0.028 7.19 2.01 11.11
5/3/2022 4:30:00 AM 9.51 49.118 0.029 7.18 2.06 11.11
5/3/2022 4:45:00 AM 9.46 49.028 0.029 7.18 2.02 11.12
5/3/2022 5:00:00 AM 9.42 48.956 0.029 7.18 2.09 11.14
5/3/2022 5:15:00 AM 9.38 48.884 0.028 7.18 2.13 11.16
5/3/2022 5:30:00 AM 9.35 48.83 0.028 7.18 2.07 11.17
5/3/2022 5:45:00 AM 9.31 48.758 0.028 7.16 2.02 11.18
5/3/2022 6:00:00 AM 9.28 48.704 0.028 7.17 2 11.2
5/3/2022 6:15:00 AM 9.25 48.65 0.029 7.17 2.04 11.2
5/3/2022 6:30:00 AM 9.22 48.596 0.028 7.2 2.28 11.23
5/3/2022 6:45:00 AM 9.19 48.542 0.029 7.17 2.08 11.27
5/3/2022 7:00:00 AM 9.18 48.524 0.028 7.19 2 11.32
5/3/2022 7:15:00 AM 9.17 48.506 0.028 7.2 2.12 11.38
5/3/2022 7:30:00 AM 9.18 48.524 0.028 7.21 2.06 11.43
5/3/2022 7:45:00 AM 9.21 48.578 0.028 7.23 2.08 11.48
5/3/2022 8:00:00 AM 9.25 48.65 0.028 7.25 2.42 11.52
5/3/2022 8:15:00 AM 9.31 48.758 0.03 7.22 2 11.52
5/3/2022 8:30:00 AM 9.35 48.83 0.028 7.26 1.98 11.58
5/3/2022 8:45:00 AM 9.45 49.01 0.028 7.26 2.01 11.63
5/3/2022 9:00:00 AM 9.62 49.316 0.028 7.3 2.16 11.64
5/3/2022 9:15:00 AM 9.77 49.586 0.028 7.31 2.05 11.61
5/3/2022 9:30:00 AM 9.92 49.856 0.029 7.33 2.34 11.62
5/3/2022 9:45:00 AM 10.08 50.144 0.028 7.36 1.99 11.61
5/3/2022 10:00:00 AM 10.24 50.432 0.028 7.36 1.96 11.6
5/3/2022 10:15:00 AM 10.4 50.72 0.028 7.38 2.06 11.57
5/3/2022 10:30:00 AM 10.59 51.062 0.028 7.39 2.05 11.55
5/3/2022 10:45:00 AM 10.77 51.386 0.028 7.4 2 11.51
5/3/2022 11:00:00 AM 10.94 51.692 0.029 7.38 2.07 11.46
5/3/2022 11:15:00 AM 11.18 52.124 0.028 7.39 1.91 11.43
5/3/2022 11:30:00 AM 11.41 52.538 0.028 7.44 2 11.41
5/3/2022 11:45:00 AM 11.64 52.952 0.028 7.46 2.93 11.37
5/3/2022 12:00:00 PM 11.88 53.384 0.028 7.45 2.01 11.32
5/3/2022 12:15:00 PM 12.06 53.708 0.029 7.43 2 11.24
5/3/2022 12:30:00 PM 12.29 54.122 0.029 7.46 1.95 11.16
5/3/2022 12:45:00 PM 12.55 54.59 0.029 7.49 2.13 11.13
5/3/2022 1:00:00 PM 12.83 55.094 0.027 7.56 1.95 11.13
5/3/2022 1:15:00 PM 13 55.4 0.029 7.5 1.99 11.04
5/3/2022 1:30:00 PM 13.15 55.67 0.029 7.53 1.96 10.99
5/3/2022 1:45:00 PM 13.35 56.03 0.028 7.6 2.08 10.98
5/3/2022 2:00:00 PM 13.43 56.174 0.028 7.59 1.91 10.93
5/3/2022 2:15:00 PM 13.5 56.3 0.028 7.6 1.97 10.88
5/3/2022 2:30:00 PM 13.57 56.426 0.028 7.63 1.96 10.88
5/3/2022 2:45:00 PM 13.63 56.534 0.027 7.64 1.95 10.85
5/3/2022 3:00:00 PM 13.71 56.678 0.029 7.61 1.86 10.81
5/3/2022 3:15:00 PM 13.84 56.912 0.027 7.63 2.01 10.8
5/3/2022 3:30:00 PM 13.96 57.128 0.027 7.66 1.95 10.78
5/3/2022 3:45:00 PM 13.97 57.146 0.028 7.62 2.06 10.7
5/3/2022 4:00:00 PM 13.97 57.146 0.027 7.62 1.95 10.71
5/3/2022 4:15:00 PM 13.92 57.056 0.027 7.66 1.99 10.68
5/3/2022 4:30:00 PM 13.82 56.876 0.028 7.67 1.97 10.67
5/3/2022 4:45:00 PM 13.75 56.75 0.028 7.62 1.98 10.66
5/3/2022 5:00:00 PM 13.69 56.642 0.028 7.6 2.03 10.63
5/3/2022 5:15:00 PM 13.63 56.534 0.028 7.61 1.9 10.65
5/3/2022 5:30:00 PM 13.57 56.426 0.029 7.59 1.92 10.63
5/3/2022 5:45:00 PM 13.56 56.408 0.027 7.62 1.99 10.65
5/3/2022 6:00:00 PM 13.52 56.336 0.028 7.6 2.31 10.63
5/3/2022 6:15:00 PM 13.47 56.246 0.029 7.55 2 10.58
5/3/2022 6:30:00 PM 13.42 56.156 0.028 7.56 2.08 10.61
5/3/2022 6:45:00 PM 13.35 56.03 0.028 7.55 1.95 10.58
5/3/2022 7:00:00 PM 13.28 55.904 0.028 7.54 2.2 10.57
5/3/2022 7:15:00 PM 13.19 55.742 0.028 7.54 2.1 10.54
5/3/2022 7:30:00 PM 13.1 55.58 0.029 7.52 2.04 10.48
5/3/2022 7:45:00 PM 13.02 55.436 0.029 7.51 1.88 10.46
5/3/2022 8:00:00 PM 12.94 55.292 0.028 7.51 1.99 10.43
5/3/2022 8:15:00 PM 12.85 55.13 0.029 7.48 1.97 10.37
5/3/2022 8:30:00 PM 12.78 55.004 0.028 7.5 2.06 10.38
5/3/2022 8:45:00 PM 12.71 54.878 0.028 7.5 2.07 10.36
5/3/2022 9:00:00 PM 12.64 54.752 0.03 7.46 1.88 10.29
5/3/2022 9:15:00 PM 12.57 54.626 0.029 7.42 2.06 10.3
5/3/2022 9:30:00 PM 12.49 54.482 0.031 7.4 2.07 10.26
5/3/2022 9:45:00 PM 12.45 54.41 0.029 7.46 2.04 10.33
5/3/2022 10:00:00 PM 12.39 54.302 0.03 7.41 2.55 10.3
5/3/2022 10:15:00 PM 12.34 54.212 0.03 7.43 2 10.32
5/3/2022 10:30:00 PM 12.29 54.122 0.031 7.4 2.28 10.28
5/3/2022 10:45:00 PM 12.26 54.068 0.029 7.4 2.09 10.33
5/3/2022 11:00:00 PM 12.22 53.996 0.029 7.44 2.06 10.37
5/3/2022 11:15:00 PM 12.18 53.924 0.031 7.38 2.03 10.32
5/3/2022 11:30:00 PM 12.15 53.87 0.03 7.39 2.07 10.32
5/3/2022 11:45:00 PM 12.1 53.78 0.032 7.4 2.06 10.32
5/4/2022 12:00:00 AM 12.06 53.708 0.03 7.38 1.97 10.37
5/4/2022 12:15:00 AM 12.02 53.636 0.029 7.41 2.3 10.41
5/4/2022 12:30:00 AM 11.98 53.564 0.029 7.42 2.16 10.44
5/4/2022 12:45:00 AM 11.93 53.474 0.03 7.44 2.58 10.43
5/4/2022 1:00:00 AM 11.88 53.384 0.03 7.42 3.29 10.46
5/4/2022 1:15:00 AM 11.83 53.294 0.03 7.42 3.16 10.46
5/4/2022 1:30:00 AM 11.79 53.222 0.03 7.44 3.41 10.46
5/4/2022 1:45:00 AM 11.75 53.15 0.03 7.45 3.92 10.48
5/4/2022 2:00:00 AM 11.71 53.078 0.03 7.4 3.14 10.48
5/4/2022 2:15:00 AM 11.67 53.006 0.029 7.41 2.82 10.48
5/4/2022 2:30:00 AM 11.64 52.952 0.029 7.4 2.62 10.49
5/4/2022 2:45:00 AM 11.6 52.88 0.029 7.42 2.63 10.49
5/4/2022 3:00:00 AM 11.57 52.826 0.029 7.43 2.57 10.51
5/4/2022 3:15:00 AM 11.53 52.754 0.03 7.4 4.31 10.5
5/4/2022 3:30:00 AM 11.5 52.7 0.029 7.41 2.61 10.52
5/4/2022 3:45:00 AM 11.47 52.646 0.029 7.41 3.08 10.53
5/4/2022 4:00:00 AM 11.45 52.61 0.029 7.44 2.99 10.53
5/4/2022 4:15:00 AM 11.42 52.556 0.029 7.46 2.84 10.55
5/4/2022 4:30:00 AM 11.39 52.502 0.029 7.44 2.9 10.56
5/4/2022 4:45:00 AM 11.35 52.43 0.029 7.43 2.85 10.57
5/4/2022 5:00:00 AM 11.32 52.376 0.029 7.44 2.59 10.59
5/4/2022 5:15:00 AM 11.29 52.322 0.029 7.43 2.49 10.59
5/4/2022 5:30:00 AM 11.26 52.268 0.029 7.41 2.35 10.6
5/4/2022 5:45:00 AM 11.24 52.232 0.029 7.44 2.45 10.61
5/4/2022 6:00:00 AM 11.21 52.178 0.029 7.45 2.4 10.62
5/4/2022 6:15:00 AM 11.19 52.142 0.029 7.41 2.54 10.63
5/4/2022 6:30:00 AM 11.16 52.088 0.029 7.42 2.56 10.65
5/4/2022 6:45:00 AM 11.14 52.052 0.029 7.41 2.61 10.65
5/4/2022 7:00:00 AM 11.12 52.016 0.028 7.44 2.71 10.69
5/4/2022 7:15:00 AM 11.11 51.998 0.029 7.4 2.6 10.72
5/4/2022 7:30:00 AM 11.1 51.98 0.029 7.42 2.58 10.72
5/4/2022 7:45:00 AM 11.09 51.962 0.029 7.42 2.84 10.75
5/4/2022 8:00:00 AM 11.09 51.962 0.029 7.45 2.5 10.79
5/4/2022 8:15:00 AM 11.08 51.944 0.028 7.41 2.54 10.8
5/4/2022 8:30:00 AM 11.07 51.926 0.029 7.43 2.53 10.83
5/4/2022 8:45:00 AM 11.08 51.944 0.028 7.44 2.61 10.88
5/4/2022 9:00:00 AM 11.09 51.962 0.028 7.45 2.45 10.91
5/4/2022 9:15:00 AM 11.1 51.98 0.028 7.44 2.45 10.93
5/4/2022 9:30:00 AM 11.12 52.016 0.028 7.47 2.53 10.99
5/4/2022 9:45:00 AM 11.14 52.052 0.028 7.46 2.51 10.99
5/4/2022 10:00:00 AM 11.15 52.07 0.028 7.49 2.63 11
5/4/2022 10:15:00 AM 11.17 52.106 0.028 7.5 2.61 11.03
5/4/2022 10:30:00 AM 11.2 52.16 0.028 7.5 2.61 11.04
5/4/2022 10:45:00 AM 11.23 52.214 0.028 7.51 2.63 11.06
5/4/2022 11:00:00 AM 11.28 52.304 0.028 7.51 2.52 11.08
5/4/2022 11:15:00 AM 11.34 52.412 0.028 7.52 2.63 11.09
5/4/2022 11:30:00 AM 11.38 52.484 0.028 7.53 2.51 11.09
5/4/2022 11:45:00 AM 11.44 52.592 0.028 7.53 2.8 11.1
5/4/2022 12:00:00 PM 11.49 52.682 0.028 7.56 2.76 11.1
5/4/2022 12:15:00 PM 11.53 52.754 0.028 7.54 2.5 11.09
5/4/2022 12:30:00 PM 11.56 52.808 0.028 7.55 2.38 11.09
5/4/2022 12:45:00 PM 11.6 52.88 0.027 7.53 2.47 11.07
5/4/2022 1:00:00 PM 11.63 52.934 0.027 7.58 2.37 11.07
5/4/2022 1:15:00 PM 11.66 52.988 0.028 7.53 2.33 11.05
5/4/2022 1:30:00 PM 11.74 53.132 0.027 7.57 2.43 11.07
5/4/2022 1:45:00 PM 11.83 53.294 0.027 7.58 2.56 11.07
5/4/2022 2:00:00 PM 11.97 53.546 0.027 7.58 2.39 11.06
5/4/2022 2:15:00 PM 12.11 53.798 0.027 7.6 2.36 11.05
5/4/2022 2:30:00 PM 12.26 54.068 0.027 7.61 2.37 11.05
5/4/2022 2:45:00 PM 12.42 54.356 0.027 7.61 2.32 11.03
5/4/2022 3:00:00 PM 12.69 54.842 0.027 7.64 2.51 11.01
5/4/2022 3:15:00 PM 12.94 55.292 0.027 7.67 2.31 10.98
5/4/2022 3:30:00 PM 13.23 55.814 0.027 7.65 2.54 10.93
5/4/2022 3:45:00 PM 13.49 56.282 0.027 7.68 2.45 10.89
5/4/2022 4:00:00 PM 13.71 56.678 0.028 7.72 2.36 10.83
5/4/2022 4:15:00 PM 13.74 56.732 0.028 7.71 2.31 10.72
5/4/2022 4:30:00 PM 13.67 56.606 0.027 7.72 2.3 10.65
5/4/2022 4:45:00 PM 13.53 56.354 0.027 7.72 2.41 10.63
5/4/2022 5:00:00 PM 13.42 56.156 0.027 7.71 2.73 10.61
5/4/2022 5:15:00 PM 13.32 55.976 0.028 7.69 3.18 10.61
5/4/2022 5:30:00 PM 13.25 55.85 0.027 7.67 2.74 10.6
5/4/2022 5:45:00 PM 13.19 55.742 0.027 7.67 2.63 10.58
5/4/2022 6:00:00 PM 13.11 55.598 0.027 7.62 2.75 10.54
5/4/2022 6:15:00 PM 13.02 55.436 0.028 7.61 2.77 10.5
5/4/2022 6:30:00 PM 12.92 55.256 0.027 7.59 2.8 10.5
5/4/2022 6:45:00 PM 12.81 55.058 0.028 7.58 2.82 10.49
5/4/2022 7:00:00 PM 12.71 54.878 0.028 7.58 2.76 10.49
5/4/2022 7:15:00 PM 12.63 54.734 0.028 7.56 2.65 10.49
5/4/2022 7:30:00 PM 12.56 54.608 0.028 7.56 2.62 10.49
5/4/2022 7:45:00 PM 12.5 54.5 0.028 7.55 2.68 10.48
5/4/2022 8:00:00 PM 12.43 54.374 0.028 7.53 2.46 10.47
5/4/2022 8:15:00 PM 12.36 54.248 0.028 7.52 2.65 10.46
5/4/2022 8:30:00 PM 12.29 54.122 0.028 7.52 2.63 10.47
5/4/2022 8:45:00 PM 12.22 53.996 0.028 7.5 2.69 10.47
5/4/2022 9:00:00 PM 12.15 53.87 0.028 7.49 2.56 10.47
5/4/2022 9:15:00 PM 12.07 53.726 0.028 7.49 2.58 10.49
5/4/2022 9:30:00 PM 12 53.6 0.028 7.48 2.59 10.49
5/4/2022 9:45:00 PM 11.94 53.492 0.028 7.47 2.5 10.52
5/4/2022 10:00:00 PM 11.88 53.384 0.027 7.44 2.63 10.53
5/4/2022 10:15:00 PM 11.82 53.276 0.028 7.43 2.57 10.53
5/4/2022 10:30:00 PM 11.77 53.186 0.028 7.44 2.61 10.55
5/4/2022 10:45:00 PM 11.72 53.096 0.028 7.43 2.49 10.57
5/4/2022 11:00:00 PM 11.68 53.024 0.028 7.44 2.47 10.58
5/4/2022 11:15:00 PM 11.64 52.952 0.028 7.43 2.55 10.6
5/4/2022 11:30:00 PM 11.6 52.88 0.028 7.43 2.32 10.61
5/4/2022 11:45:00 PM 11.57 52.826 0.027 7.42 2.45 10.62
5/5/2022 12:00:00 AM 11.54 52.772 0.028 7.43 2.49 10.62
5/5/2022 12:15:00 AM 11.52 52.736 0.027 7.43 2.26 10.63
5/5/2022 12:30:00 AM 11.49 52.682 0.028 7.42 2.38 10.64
5/5/2022 12:45:00 AM 11.47 52.646 0.028 7.41 2.32 10.64
5/5/2022 1:00:00 AM 11.44 52.592 0.028 7.41 2.41 10.65
5/5/2022 1:15:00 AM 11.42 52.556 0.027 7.42 2.31 10.66
5/5/2022 1:30:00 AM 11.39 52.502 0.027 7.4 2.2 10.66
5/5/2022 1:45:00 AM 11.37 52.466 0.027 7.4 2.2 10.66
5/5/2022 2:00:00 AM 11.35 52.43 0.028 7.39 2.24 10.66
5/5/2022 2:15:00 AM 11.33 52.394 0.027 7.42 2.34 10.69
5/5/2022 2:30:00 AM 11.3 52.34 0.027 7.4 2.29 10.69
5/5/2022 2:45:00 AM 11.28 52.304 0.027 7.41 2.68 10.7
5/5/2022 3:00:00 AM 11.26 52.268 0.027 7.42 2.33 10.7
5/5/2022 3:15:00 AM 11.23 52.214 0.027 7.41 2.45 10.7
5/5/2022 3:30:00 AM 11.21 52.178 0.027 7.41 2.16 10.71
5/5/2022 3:45:00 AM 11.17 52.106 0.027 7.42 2.34 10.71
5/5/2022 4:00:00 AM 11.14 52.052 0.027 7.42 2.27 10.72
5/5/2022 4:15:00 AM 11.1 51.98 0.028 7.4 2.27 10.72
5/5/2022 4:30:00 AM 11.07 51.926 0.027 7.4 2.28 10.73
5/5/2022 4:45:00 AM 11.05 51.89 0.028 7.39 2.39 10.74
5/5/2022 5:00:00 AM 11.03 51.854 0.027 7.4 2.16 10.74
5/5/2022 5:15:00 AM 11.01 51.818 0.027 7.41 2.13 10.76
5/5/2022 5:30:00 AM 10.98 51.764 0.027 7.4 2.22 10.76
5/5/2022 5:45:00 AM 10.95 51.71 0.027 7.39 2.45 10.77
5/5/2022 6:00:00 AM 10.9 51.62 0.028 7.39 2.45 10.78
5/5/2022 6:15:00 AM 10.85 51.53 0.027 7.38 2.27 10.81
5/5/2022 6:30:00 AM 10.78 51.404 0.028 7.4 2.4 10.83
5/5/2022 6:45:00 AM 10.73 51.314 0.027 7.4 2.42 10.89
5/5/2022 7:00:00 AM 10.69 51.242 0.028 7.41 2.43 10.93
5/5/2022 7:15:00 AM 10.67 51.206 0.027 7.41 2.38 11
5/5/2022 7:30:00 AM 10.66 51.188 0.029 7.41 2.39 11.06
5/5/2022 7:45:00 AM 10.67 51.206 0.027 7.42 2.38 11.11
5/5/2022 8:00:00 AM 10.7 51.26 0.027 7.45 2.19 11.15
5/5/2022 8:15:00 AM 10.75 51.35 0.027 7.46 2.37 11.19
5/5/2022 8:30:00 AM 10.82 51.476 0.027 7.47 2.43 11.22
5/5/2022 8:45:00 AM 10.91 51.638 0.027 7.48 2.35 11.24
5/5/2022 9:00:00 AM 10.99 51.782 0.027 7.5 2.42 11.26
5/5/2022 9:15:00 AM 11.08 51.944 0.027 7.53 2.22 11.26
5/5/2022 9:30:00 AM 11.19 52.142 0.027 7.51 2.35 11.27
5/5/2022 9:45:00 AM 11.31 52.358 0.027 7.53 2.28 11.27
5/5/2022 10:00:00 AM 11.45 52.61 0.027 7.56 2.16 11.26
5/5/2022 10:15:00 AM 11.61 52.898 0.027 7.57 2.32 11.25
5/5/2022 10:30:00 AM 11.78 53.204 0.027 7.58 2.57 11.24
5/5/2022 10:45:00 AM 11.95 53.51 0.027 7.59 2.42 11.2
5/5/2022 11:00:00 AM 12.13 53.834 0.027 7.6 2.42 11.19
5/5/2022 11:15:00 AM 12.32 54.176 0.027 7.63 2.24 11.15
5/5/2022 11:30:00 AM 12.52 54.536 0.027 7.64 2.4 11.12
5/5/2022 11:45:00 AM 12.77 54.986 0.027 7.65 2.31 11.09
5/5/2022 12:00:00 PM 12.98 55.364 0.027 7.65 2.46 11.05
5/5/2022 12:15:00 PM 13.18 55.724 0.027 7.68 2.29 11.01
5/5/2022 12:30:00 PM 13.37 56.066 0.027 7.7 3.19 10.98
5/5/2022 12:45:00 PM 13.53 56.354 0.027 7.7 2.23 10.93
5/5/2022 1:00:00 PM 13.71 56.678 0.026 7.75 2.22 10.91
5/5/2022 1:15:00 PM 13.84 56.912 0.027 7.77 2.46 10.88
5/5/2022 1:30:00 PM 13.96 57.128 0.027 7.77 2.4 10.84
5/5/2022 1:45:00 PM 14.09 57.362 0.026 7.78 2.26 10.8
5/5/2022 2:00:00 PM 14.18 57.524 0.027 7.79 2.17 10.76
5/5/2022 2:15:00 PM 14.29 57.722 0.026 7.78 2.33 10.74
5/5/2022 2:30:00 PM 14.39 57.902 0.027 7.8 2.31 10.72
5/5/2022 2:45:00 PM 14.54 58.172 0.026 7.85 2.42 10.69
5/5/2022 3:00:00 PM 14.69 58.442 0.027 7.81 2.23 10.65
5/5/2022 3:15:00 PM 14.8 58.64 0.026 7.87 2.13 10.63
5/5/2022 3:30:00 PM 14.93 58.874 0.026 7.87 2.12 10.6
5/5/2022 3:45:00 PM 14.99 58.982 0.026 7.86 2.09 10.56
5/5/2022 4:00:00 PM 14.96 58.928 0.026 7.88 2.26 10.54
5/5/2022 4:15:00 PM 14.93 58.874 0.027 7.86 2.16 10.5
5/5/2022 4:30:00 PM 14.93 58.874 0.027 7.88 2.27 10.51
5/5/2022 4:45:00 PM 14.96 58.928 0.026 7.87 2.14 10.49
5/5/2022 5:00:00 PM 14.95 58.91 0.027 7.84 2.11 10.48
5/5/2022 5:15:00 PM 14.94 58.892 0.026 7.86 2.29 10.46
5/5/2022 5:30:00 PM 14.9 58.82 0.026 7.89 2.17 10.46
5/5/2022 5:45:00 PM 14.81 58.658 0.027 7.85 2.1 10.45
5/5/2022 6:00:00 PM 14.68 58.424 0.026 7.87 2.25 10.44
5/5/2022 6:15:00 PM 14.54 58.172 0.026 7.85 2.13 10.44
5/5/2022 6:30:00 PM 14.39 57.902 0.027 7.84 2.23 10.42
5/5/2022 6:45:00 PM 14.25 57.65 0.026 7.81 2.2 10.41
5/5/2022 7:00:00 PM 14.13 57.434 0.026 7.79 2.19 10.41
5/5/2022 7:15:00 PM 14.02 57.236 0.026 7.79 2.12 10.39
5/5/2022 7:30:00 PM 13.91 57.038 0.027 7.74 2.07 10.35
5/5/2022 7:45:00 PM 13.81 56.858 0.027 7.71 2.21 10.34
5/5/2022 8:00:00 PM 13.7 56.66 0.027 7.69 2.16 10.3
5/5/2022 8:15:00 PM 13.6 56.48 0.027 7.69 2.25 10.27
5/5/2022 8:30:00 PM 13.5 56.3 0.028 7.67 2.11 10.24
5/5/2022 8:45:00 PM 13.41 56.138 0.028 7.65 2.2 10.21
5/5/2022 9:00:00 PM 13.31 55.958 0.029 7.63 2.19 10.19
5/5/2022 9:15:00 PM 13.22 55.796 0.028 7.62 2.33 10.21
5/5/2022 9:30:00 PM 13.14 55.652 0.028 7.61 2.31 10.21
5/5/2022 9:45:00 PM 13.06 55.508 0.028 7.59 2.26 10.22
5/5/2022 10:00:00 PM 12.99 55.382 0.028 7.58 2.24 10.22
5/5/2022 10:15:00 PM 12.91 55.238 0.028 7.57 2.38 10.24
5/5/2022 10:30:00 PM 12.85 55.13 0.028 7.56 2.39 10.25
5/5/2022 10:45:00 PM 12.78 55.004 0.028 7.56 2.53 10.26
5/5/2022 11:00:00 PM 12.72 54.896 0.028 7.54 2.44 10.26
5/5/2022 11:15:00 PM 12.66 54.788 0.028 7.55 2.25 10.28
5/5/2022 11:30:00 PM 12.6 54.68 0.028 7.52 2.36 10.32
5/5/2022 11:45:00 PM 12.54 54.572 0.028 7.53 2.23 10.31
5/6/2022 12:00:00 AM 12.48 54.464 0.028 7.52 2.32 10.33
5/6/2022 12:15:00 AM 12.42 54.356 0.028 7.51 2.17 10.31
5/6/2022 12:30:00 AM 12.36 54.248 0.028 7.49 2.35 10.33
5/6/2022 12:45:00 AM 12.31 54.158 0.027 7.52 2.15 10.35
5/6/2022 1:00:00 AM 12.26 54.068 0.028 7.49 2.32 10.35
5/6/2022 1:15:00 AM 12.22 53.996 0.028 7.51 2.33 10.37
5/6/2022 1:30:00 AM 12.18 53.924 0.028 7.49 2.26 10.37
5/6/2022 1:45:00 AM 12.15 53.87 0.028 7.49 2.29 10.38
5/6/2022 2:00:00 AM 12.11 53.798 0.028 7.49 2.31 10.38
5/6/2022 2:15:00 AM 12.08 53.744 0.028 7.49 2.44 10.41
5/6/2022 2:30:00 AM 12.05 53.69 0.028 7.49 2.29 10.4
5/6/2022 2:45:00 AM 12.02 53.636 0.028 7.48 2.38 10.41
5/6/2022 3:00:00 AM 11.99 53.582 0.028 7.5 2.35 10.42
5/6/2022 3:15:00 AM 11.96 53.528 0.028 7.48 2.26 10.42
5/6/2022 3:30:00 AM 11.92 53.456 0.028 7.46 2.3 10.41
5/6/2022 3:45:00 AM 11.89 53.402 0.029 7.47 2.33 10.41
5/6/2022 4:00:00 AM 11.86 53.348 0.028 7.47 2.3 10.42
5/6/2022 4:15:00 AM 11.84 53.312 0.028 7.49 2.34 10.44
5/6/2022 4:30:00 AM 11.81 53.258 0.028 7.47 2.29 10.45
5/6/2022 4:45:00 AM 11.79 53.222 0.028 7.49 2.36 10.46
5/6/2022 5:00:00 AM 11.75 53.15 0.028 7.48 2.32 10.46
5/6/2022 5:15:00 AM 11.72 53.096 0.028 7.49 2.35 10.48
5/6/2022 5:30:00 AM 11.69 53.042 0.028 7.5 2.6 10.49
5/6/2022 5:45:00 AM 11.66 52.988 0.028 7.47 2.33 10.49
5/6/2022 6:00:00 AM 11.63 52.934 0.028 7.49 2.3 10.5
5/6/2022 6:15:00 AM 11.59 52.862 0.028 7.47 2.32 10.5
5/6/2022 6:30:00 AM 11.57 52.826 0.028 7.49 2.42 10.53
5/6/2022 6:45:00 AM 11.54 52.772 0.028 7.48 2.29 10.54
5/6/2022 7:00:00 AM 11.51 52.718 0.028 7.48 2.53 10.55
5/6/2022 7:15:00 AM 11.48 52.664 0.028 7.5 2.27 10.58
5/6/2022 7:30:00 AM 11.46 52.628 0.028 7.5 2.38 10.61
5/6/2022 7:45:00 AM 11.43 52.574 0.028 7.51 2.71 10.64
5/6/2022 8:00:00 AM 11.41 52.538 0.028 7.5 2.48 10.67
5/6/2022 8:15:00 AM 11.4 52.52 0.028 7.53 2.51 10.73
5/6/2022 8:30:00 AM 11.39 52.502 0.028 7.54 2.48 10.76
5/6/2022 8:45:00 AM 11.38 52.484 0.029 7.52 2.64 10.8
5/6/2022 9:00:00 AM 11.4 52.52 0.028 7.57 2.52 10.86
5/6/2022 9:15:00 AM 11.4 52.52 0.029 7.54 2.34 10.85
5/6/2022 9:30:00 AM 11.42 52.556 0.028 7.58 2.54 10.92
5/6/2022 9:45:00 AM 11.42 52.556 0.028 7.58 2.61 10.92
5/6/2022 10:00:00 AM 11.43 52.574 0.028 7.59 2.33 10.93
5/6/2022 10:15:00 AM 11.42 52.556 0.028 7.6 2.34 10.93
5/6/2022 10:30:00 AM 11.41 52.538 0.028 7.6 2.37 10.94
5/6/2022 10:45:00 AM 11.41 52.538 0.028 7.61 2.31 10.95
5/6/2022 11:00:00 AM 11.41 52.538 0.028 7.58 2.44 10.96
5/6/2022 11:15:00 AM 11.42 52.556 0.028 7.63 2.41 10.99
5/6/2022 11:30:00 AM 11.43 52.574 0.028 7.62 2.5 11.01
5/6/2022 11:45:00 AM 11.43 52.574 0.028 7.63 2.42 11.01
5/6/2022 12:00:00 PM 11.44 52.592 0.028 7.62 2.6 11.02
5/6/2022 12:15:00 PM 11.44 52.592 0.028 7.61 2.51 11.03
5/6/2022 12:30:00 PM 11.44 52.592 0.028 7.65 2.47 11.03
5/6/2022 12:45:00 PM 11.44 52.592 0.029 7.63 2.49 11.02
5/6/2022 1:00:00 PM 11.43 52.574 0.028 7.66 2.74 11.03
5/6/2022 1:15:00 PM 11.42 52.556 0.029 7.64 2.92 11.02
5/6/2022 1:30:00 PM 11.42 52.556 0.029 7.66 3 11.02
5/6/2022 1:45:00 PM 11.42 52.556 0.029 7.69 3.52 11.02
5/6/2022 2:00:00 PM 11.42 52.556 0.029 7.67 3.41 11.04
5/6/2022 2:15:00 PM 11.41 52.538 0.029 7.68 3.47 11.03
5/6/2022 2:30:00 PM 11.4 52.52 0.029 7.68 3.23 11.04
5/6/2022 2:45:00 PM 11.4 52.52 0.029 7.68 3.37 11.03
5/6/2022 3:00:00 PM 11.39 52.502 0.029 7.69 3.72 11.02
5/6/2022 3:15:00 PM 11.38 52.484 0.029 7.69 3.16 11.02
5/6/2022 3:30:00 PM 11.37 52.466 0.029 7.69 3.52 11.02
5/6/2022 3:45:00 PM 11.36 52.448 0.029 7.69 3.44 11.01
5/6/2022 4:00:00 PM 11.34 52.412 0.029 7.71 4.12 11.01
5/6/2022 4:15:00 PM 11.31 52.358 0.029 7.66 4.2 10.99
5/6/2022 4:30:00 PM 11.29 52.322 0.029 7.67 3.82 10.96
5/6/2022 4:45:00 PM 11.26 52.268 0.029 7.65 3.98 10.94
5/6/2022 5:00:00 PM 11.23 52.214 0.028 7.66 4.11 10.94
5/6/2022 5:15:00 PM 11.2 52.16 0.028 7.65 4.34 10.94
5/6/2022 5:30:00 PM 11.18 52.124 0.028 7.61 4.57 10.94
5/6/2022 5:45:00 PM 11.15 52.07 0.028 7.62 4.55 10.91
5/6/2022 6:00:00 PM 11.12 52.016 0.028 7.62 4.64 10.91
5/6/2022 6:15:00 PM 11.08 51.944 0.028 7.6 5.41 10.9
5/6/2022 6:30:00 PM 11.04 51.872 0.028 7.59 5 10.89
5/6/2022 6:45:00 PM 11 51.8 0.028 7.57 5.21 10.89
5/6/2022 7:00:00 PM 10.97 51.746 0.027 7.58 5.65 10.87
5/6/2022 7:15:00 PM 10.93 51.674 0.027 7.56 6.24 10.87
5/6/2022 7:30:00 PM 10.89 51.602 0.027 7.54 5.67 10.86
5/6/2022 7:45:00 PM 10.85 51.53 0.027 7.52 6.25 10.86
5/6/2022 8:00:00 PM 10.81 51.458 0.027 7.52 6.39 10.86
5/6/2022 8:15:00 PM 10.77 51.386 0.027 7.49 6.91 10.85
5/6/2022 8:30:00 PM 10.73 51.314 0.027 7.49 6.81 10.85
5/6/2022 8:45:00 PM 10.69 51.242 0.026 7.5 7.47 10.87
5/6/2022 9:00:00 PM 10.66 51.188 0.026 7.45 7.2 10.88
5/6/2022 9:15:00 PM 10.62 51.116 0.026 7.47 7.18 10.89
5/6/2022 9:30:00 PM 10.58 51.044 0.026 7.45 6.74 10.89
5/6/2022 9:45:00 PM 10.55 50.99 0.026 7.42 7.49 10.9
5/6/2022 10:00:00 PM 10.51 50.918 0.026 7.45 7.18 10.92
5/6/2022 10:15:00 PM 10.48 50.864 0.026 7.41 6.89 10.93
5/6/2022 10:30:00 PM 10.45 50.81 0.026 7.44 7.23 10.94
5/6/2022 10:45:00 PM 10.42 50.756 0.026 7.41 7.9 10.95
5/6/2022 11:00:00 PM 10.39 50.702 0.026 7.41 8.17 10.95
5/6/2022 11:15:00 PM 10.36 50.648 0.026 7.4 8.01 10.96
5/6/2022 11:30:00 PM 10.33 50.594 0.026 7.39 8.16 10.97
5/6/2022 11:45:00 PM 10.3 50.54 0.026 7.41 8.4 10.97
5/7/2022 12:00:00 AM 10.26 50.468 0.026 7.37 8.51 10.98
5/7/2022 12:15:00 AM 10.24 50.432 0.026 7.38 8.29 10.99
5/7/2022 12:30:00 AM 10.2 50.36 0.026 7.39 7.94 10.99
5/7/2022 12:45:00 AM 10.18 50.324 0.026 7.39 8.12 11
5/7/2022 1:00:00 AM 10.15 50.27 0.025 7.4 8.27 11.01
5/7/2022 1:15:00 AM 10.12 50.216 0.025 7.38 8.41 11.02
5/7/2022 1:30:00 AM 10.1 50.18 0.025 7.38 8.18 11.02
5/7/2022 1:45:00 AM 10.07 50.126 0.025 7.35 7.78 11.03
5/7/2022 2:00:00 AM 10.04 50.072 0.025 7.37 7.74 11.03
5/7/2022 2:15:00 AM 10.02 50.036 0.025 7.35 7.5 11.04
5/7/2022 2:30:00 AM 10 50 0.025 7.34 7.48 11.04
5/7/2022 2:45:00 AM 9.97 49.946 0.025 7.34 7.09 11.05
5/7/2022 3:00:00 AM 9.95 49.91 0.024 7.34 6.8 11.05
5/7/2022 3:15:00 AM 9.92 49.856 0.024 7.34 6.69 11.06
5/7/2022 3:30:00 AM 9.9 49.82 0.024 7.33 6.27 11.07
5/7/2022 3:45:00 AM 9.87 49.766 0.024 7.31 6.54 11.07
5/7/2022 4:00:00 AM 9.84 49.712 0.024 7.32 6.1 11.07
5/7/2022 4:15:00 AM 9.81 49.658 0.024 7.3 6 11.08
5/7/2022 4:30:00 AM 9.78 49.604 0.024 7.3 5.72 11.09
5/7/2022 4:45:00 AM 9.75 49.55 0.024 7.26 5.83 11.1
5/7/2022 5:00:00 AM 9.73 49.514 0.023 7.27 5.98 11.11
5/7/2022 5:15:00 AM 9.7 49.46 0.023 7.28 5.75 11.11
5/7/2022 5:30:00 AM 9.69 49.442 0.023 7.28 5.92 11.11
5/7/2022 5:45:00 AM 9.67 49.406 0.023 7.27 5.79 11.12
5/7/2022 6:00:00 AM 9.65 49.37 0.023 7.27 5.61 11.12
5/7/2022 6:15:00 AM 9.64 49.352 0.023 7.26 5.58 11.13
5/7/2022 6:30:00 AM 9.62 49.316 0.023 7.27 5.24 11.14
5/7/2022 6:45:00 AM 9.61 49.298 0.023 7.23 5.63 11.15
5/7/2022 7:00:00 AM 9.6 49.28 0.023 7.26 5.06 11.15
5/7/2022 7:15:00 AM 9.58 49.244 0.023 7.26 5.03 11.17
5/7/2022 7:30:00 AM 9.57 49.226 0.023 7.26 5.15 11.18
5/7/2022 7:45:00 AM 9.55 49.19 0.023 7.24 4.91 11.19
5/7/2022 8:00:00 AM 9.53 49.154 0.023 7.25 5 11.21
5/7/2022 8:15:00 AM 9.51 49.118 0.023 7.25 4.86 11.22
5/7/2022 8:30:00 AM 9.49 49.082 0.023 7.24 4.89 11.24
5/7/2022 8:45:00 AM 9.48 49.064 0.022 7.24 4.76 11.26
5/7/2022 9:00:00 AM 9.47 49.046 0.022 7.25 5.38 11.28
5/7/2022 9:15:00 AM 9.46 49.028 0.022 7.24 4.66 11.31
5/7/2022 9:30:00 AM 9.45 49.01 0.022 7.26 4.8 11.32
5/7/2022 9:45:00 AM 9.45 49.01 0.022 7.24 5.14 11.34
5/7/2022 10:00:00 AM 9.45 49.01 0.022 7.26 5.25 11.35
5/7/2022 10:15:00 AM 9.47 49.046 0.022